Darstellungsparameter: Aktuell verwendete Einstellungen:
Skalierung der Graphiken ... ?
xyx+y,   Skalierungsfaktor:      Skalierung: Modus: x, Faktor: 1
Darstellungszeitraum ... ?
Vom - - bis: - -   Zeitraum: 27.03.2020 - 24.04.2020
Min/Max/Avg-Anzeige ... ?
Zeige MMA aktuell
Zeige MMA Monat
Zeige MMA alles
Zeige --A aktuell
Zeige --A Monat
Zeige --A alles
Keine MMA-Anzeige
MMA:
Keine MMA-Graphiken
MMA-Basis: 27.03.2020 - 24.04.2020
Quicknavigation für Darstellung... ?
Tage:      1T, 2T, 3T, 5T -1T -2T -3T -5T +1T +2T +3T +5T
Wochen: 1W, 2W, 3W -1W -2W -3W +1W +2W +3W
Monate: 1M, 3M, 6M -1M -3M -6M +1M +3M +6M
Jahre:    1J, 3J, 5J, 10J -1J -3J -5J -10J +1J +3J +5J +10J
Nutze für die Darstellung ... ?
Originaldaten oder Mittelwerte auf ...
Stundenbasis Tagesbasis Wochenbasis
Monatsbasis Jahresbasis      Datenbasis: Original-Daten
Darstellen als:
Statistik (Auto) Statistik J:M      Darstellung:
Zur Graphik,    zurück zur Übersicht aller Sensoren.
 
Tabellarische Datenbersicht: ?
 
Sensor: Nr:Datum:Temp:Feuchte:
Aussen-T/F 1 27-03-2020 00:00:18 4 C 30 %
2 27-03-2020 00:10:18 3.9 C 31 %
3 27-03-2020 00:20:17 4 C 30 %
4 27-03-2020 00:30:17 4 C 30 %
5 27-03-2020 00:40:17 3.7 C 32 %
6 27-03-2020 00:50:18 3.6 C 32 %
7 27-03-2020 01:00:18 2.7 C 35 %
8 27-03-2020 01:10:18 2.5 C 36 %
9 27-03-2020 01:20:17 3 C 35 %
10 27-03-2020 01:30:18 3.1 C 35 %
11 27-03-2020 01:40:18 2.7 C 36 %
12 27-03-2020 01:50:18 3 C 35 %
13 27-03-2020 02:00:18 2.9 C 35 %
14 27-03-2020 02:10:18 2.8 C 35 %
15 27-03-2020 02:20:17 2.7 C 35 %
16 27-03-2020 02:30:17 2.5 C 36 %
17 27-03-2020 02:40:17 2.5 C 36 %
18 27-03-2020 02:50:17 2.6 C 35 %
19 27-03-2020 03:00:17 2.6 C 35 %
20 27-03-2020 03:10:17 2.2 C 36 %
21 27-03-2020 03:20:17 2.5 C 35 %
22 27-03-2020 03:30:17 2.4 C 35 %
23 27-03-2020 03:40:17 2.6 C 35 %
24 27-03-2020 03:50:17 2.4 C 36 %
25 27-03-2020 04:00:18 2.4 C 35 %
Sensor: Nr:Datum:Temp:Feuchte:
Aussen-T/F 26 27-03-2020 04:10:18 2.4 C 35 %
27 27-03-2020 04:20:18 1.4 C 38 %
28 27-03-2020 04:30:18 1.3 C 38 %
29 27-03-2020 04:40:18 1.6 C 38 %
30 27-03-2020 04:50:17 1.8 C 37 %
31 27-03-2020 05:00:18 1.5 C 38 %
32 27-03-2020 05:10:18 0.7 C 40 %
33 27-03-2020 05:20:18 0.4 C 40 %
34 27-03-2020 05:30:18 0 C 41 %
35 27-03-2020 05:40:18 0 C 42 %
36 27-03-2020 05:50:18 -0.1 C 42 %
37 27-03-2020 06:00:18 -0.5 C 42 %
38 27-03-2020 06:10:18 -0.6 C 43 %
39 27-03-2020 06:20:18 -0.4 C 43 %
40 27-03-2020 06:30:18 -0.4 C 43 %
41 27-03-2020 06:40:18 -0.3 C 43 %
42 27-03-2020 06:50:17 -0.3 C 43 %
43 27-03-2020 07:00:18 -0.2 C 43 %
44 27-03-2020 07:10:18 -0.1 C 43 %
45 27-03-2020 07:20:18 0.1 C 43 %
46 27-03-2020 07:30:18 0.3 C 43 %
47 27-03-2020 07:40:18 0.8 C 43 %
48 27-03-2020 07:50:17 1.2 C 41 %
49 27-03-2020 08:00:17 1.1 C 41 %
50 27-03-2020 08:10:18 1.9 C 40 %
Sensor: Nr:Datum:Temp:Feuchte:
Aussen-T/F 51 27-03-2020 08:20:18 1.7 C 40 %
52 27-03-2020 08:30:18 1.6 C 41 %
53 27-03-2020 08:40:18 1.9 C 41 %
54 27-03-2020 08:50:17 2.6 C 39 %
55 27-03-2020 09:00:18 3 C 38 %
56 27-03-2020 09:10:18 3.3 C 37 %
57 27-03-2020 09:20:17 3.6 C 37 %
58 27-03-2020 09:30:18 4.1 C 36 %
59 27-03-2020 09:40:18 4.5 C 35 %
60 27-03-2020 09:50:18 5.3 C 35 %
61 27-03-2020 10:00:18 5.8 C 34 %
62 27-03-2020 10:10:18 6.5 C 32 %
63 27-03-2020 10:20:17 7.6 C 30 %
64 27-03-2020 10:30:17 8.1 C 28 %
65 27-03-2020 10:40:17 9.1 C 25 %
66 27-03-2020 10:50:17 9.3 C 25 %
67 27-03-2020 11:00:17 10.2 C 20 %
68 27-03-2020 11:10:17 11 C 20 %
69 27-03-2020 11:20:17 12.4 C 20 %
70 27-03-2020 11:30:17 14.5 C 20 %
71 27-03-2020 11:40:17 14.2 C 20 %
72 27-03-2020 11:50:17 12.5 C 20 %
73 27-03-2020 12:00:17 13.4 C 20 %
74 27-03-2020 12:10:17 13.7 C 20 %
75 27-03-2020 12:20:17 14.4 C 20 %
Sensor: Nr:Datum:Temp:Feuchte:
Aussen-T/F 76 27-03-2020 12:30:17 14.1 C 20 %
77 27-03-2020 12:40:18 14.2 C 20 %
78 27-03-2020 12:50:18 14.6 C 20 %
79 27-03-2020 13:00:18 16.6 C 20 %
80 27-03-2020 13:10:18 15.8 C 20 %
81 27-03-2020 13:20:17 17.6 C 20 %
82 27-03-2020 13:30:18 18.8 C 20 %
83 27-03-2020 13:40:18 16.8 C 20 %
84 27-03-2020 13:50:18 17.3 C 20 %
85 27-03-2020 14:00:18 16.9 C 20 %
86 27-03-2020 14:10:18 17.6 C 20 %
87 27-03-2020 14:20:18 17.7 C 20 %
88 27-03-2020 14:30:17 20.4 C 20 %
89 27-03-2020 14:40:17 18.1 C 20 %
90 27-03-2020 14:50:17 18.4 C 20 %
91 27-03-2020 15:00:17 18.5 C 20 %
92 27-03-2020 15:10:17 18.7 C 20 %
93 27-03-2020 15:20:17 18.9 C 20 %
94 27-03-2020 15:30:18 19.4 C 20 %
95 27-03-2020 15:40:18 18.3 C 20 %
96 27-03-2020 15:50:17 19.5 C 20 %
97 27-03-2020 16:00:17 18.5 C 20 %
98 27-03-2020 16:10:17 18.2 C 20 %
99 27-03-2020 16:20:17 19.2 C 20 %
100 27-03-2020 16:30:17 18.3 C 20 %
Sensor: Nr:Datum:Temp:Feuchte:
Aussen-T/F 101 27-03-2020 16:40:17 18 C 20 %
102 27-03-2020 16:50:17 17 C 20 %
103 27-03-2020 17:00:18 16.4 C 20 %
104 27-03-2020 17:10:18 16.3 C 20 %
105 27-03-2020 17:20:18 16.1 C 20 %
106 27-03-2020 17:30:18 16 C 20 %
107 27-03-2020 17:40:18 15.8 C 20 %
108 27-03-2020 17:50:18 15.7 C 20 %
109 27-03-2020 18:00:17 15.4 C 20 %
110 27-03-2020 18:10:17 15 C 20 %
111 27-03-2020 18:20:17 14.1 C 20 %
112 27-03-2020 18:30:18 13.5 C 20 %
113 27-03-2020 18:40:18 12.9 C 20 %
114 27-03-2020 18:50:18 12.3 C 20 %
115 27-03-2020 19:00:18 11.8 C 20 %
116 27-03-2020 19:10:18 11.5 C 20 %
117 27-03-2020 19:20:17 11.4 C 20 %
118 27-03-2020 19:30:17 10.7 C 20 %
119 27-03-2020 19:40:17 10.7 C 21 %
120 27-03-2020 19:50:17 10.4 C 23 %
121 27-03-2020 20:00:18 10.4 C 22 %
122 27-03-2020 20:10:18 9.2 C 26 %
123 27-03-2020 20:20:17 8.9 C 28 %
124 27-03-2020 20:30:17 8.4 C 30 %
125 27-03-2020 20:40:17 8.1 C 30 %
Sensor: Nr:Datum:Temp:Feuchte:
Aussen-T/F 126 27-03-2020 20:50:18 7.8 C 31 %
127 27-03-2020 21:00:17 7.4 C 31 %
128 27-03-2020 21:10:17 7.3 C 32 %
129 27-03-2020 21:20:17 7.1 C 32 %
130 27-03-2020 21:30:17 7 C 32 %
131 27-03-2020 21:40:17 6.6 C 33 %
132 27-03-2020 21:50:17 6.6 C 34 %
133 27-03-2020 22:00:17 6.4 C 34 %
134 27-03-2020 22:10:17 6.3 C 34 %
135 27-03-2020 22:20:17 6 C 35 %
136 27-03-2020 22:30:18 5.8 C 35 %
137 27-03-2020 22:40:18 5.6 C 35 %
138 27-03-2020 22:50:18 5.5 C 36 %
139 27-03-2020 23:00:18 5.6 C 36 %
140 27-03-2020 23:10:18 5.6 C 36 %
141 27-03-2020 23:20:17 5.3 C 36 %
142 27-03-2020 23:30:17 5.2 C 36 %
143 27-03-2020 23:40:17 5.1 C 36 %
144 27-03-2020 23:50:17 4.8 C 37 %
145 28-03-2020 00:00:17 4.8 C 38 %
146 28-03-2020 00:10:17 4.8 C 39 %
147 28-03-2020 00:20:17 5 C 37 %
148 28-03-2020 00:30:18 4.9 C 38 %
149 28-03-2020 00:40:18 4.7 C 38 %
150 28-03-2020 00:50:17 4.7 C 38 %
Sensor: Nr:Datum:Temp:Feuchte:
Aussen-T/F 151 28-03-2020 01:00:17 4.6 C 38 %
152 28-03-2020 01:10:17 4.4 C 39 %
153 28-03-2020 01:20:17 4.3 C 39 %
154 28-03-2020 01:30:17 4.1 C 39 %
155 28-03-2020 01:40:18 3.9 C 40 %
156 28-03-2020 01:50:17 3.7 C 41 %
157 28-03-2020 02:00:18 3.6 C 41 %
158 28-03-2020 02:10:18 3.3 C 41 %
159 28-03-2020 02:20:18 3.1 C 41 %
160 28-03-2020 02:30:17 3.7 C 42 %
161 28-03-2020 02:40:17 3.7 C 41 %
162 28-03-2020 02:50:18 3.4 C 41 %
163 28-03-2020 03:00:18 3.1 C 41 %
164 28-03-2020 03:10:18 2.9 C 42 %
165 28-03-2020 03:20:17 2.8 C 43 %
166 28-03-2020 03:30:18 2.6 C 43 %
167 28-03-2020 03:40:18 2.1 C 43 %
168 28-03-2020 03:50:17 2.1 C 44 %
169 28-03-2020 04:00:18 2.2 C 44 %
170 28-03-2020 04:10:18 2.1 C 44 %
171 28-03-2020 04:20:18 1.9 C 45 %
172 28-03-2020 04:30:18 1.7 C 45 %
173 28-03-2020 04:40:18 1.8 C 46 %
174 28-03-2020 04:50:17 1.8 C 46 %
175 28-03-2020 05:00:18 1.7 C 45 %
Sensor: Nr:Datum:Temp:Feuchte:
Aussen-T/F 176 28-03-2020 05:10:18 1.6 C 45 %
177 28-03-2020 05:20:17 1.5 C 45 %
178 28-03-2020 05:30:18 1.3 C 46 %
179 28-03-2020 05:40:18 1.2 C 46 %
180 28-03-2020 05:50:18 1.2 C 46 %
181 28-03-2020 06:00:18 1.2 C 46 %
182 28-03-2020 06:10:18 1.3 C 46 %
183 28-03-2020 06:20:17 1.1 C 46 %
184 28-03-2020 06:30:17 1.1 C 46 %
185 28-03-2020 06:40:17 1 C 46 %
186 28-03-2020 06:50:17 1.2 C 47 %
187 28-03-2020 07:00:17 1.5 C 47 %
188 28-03-2020 07:10:17 1.7 C 47 %
189 28-03-2020 07:20:17 1.9 C 47 %
190 28-03-2020 07:30:18 1.9 C 46 %
191 28-03-2020 07:40:18 1.9 C 46 %
192 28-03-2020 07:50:17 2 C 45 %
193 28-03-2020 08:00:17 2.2 C 45 %
194 28-03-2020 08:10:18 2.5 C 45 %
195 28-03-2020 08:20:18 2.8 C 46 %
196 28-03-2020 08:30:17 3.2 C 45 %
197 28-03-2020 08:40:17 3.7 C 44 %
198 28-03-2020 08:50:18 4 C 43 %
199 28-03-2020 09:00:18 4.6 C 43 %
200 28-03-2020 09:10:18 5.1 C 41 %
Sensor: Nr:Datum:Temp:Feuchte:
Aussen-T/F 201 28-03-2020 09:20:17 5.7 C 41 %
202 28-03-2020 09:30:18 6.3 C 40 %
203 28-03-2020 09:40:18 6.9 C 40 %
204 28-03-2020 09:50:18 7.8 C 38 %
205 28-03-2020 10:00:18 8.4 C 37 %
206 28-03-2020 10:10:18 9.5 C 35 %
207 28-03-2020 10:20:17 10.2 C 32 %
208 28-03-2020 10:30:17 10.9 C 31 %
209 28-03-2020 10:40:17 11.6 C 30 %
210 28-03-2020 10:50:18 12.2 C 29 %
211 28-03-2020 11:00:18 13.4 C 26 %
212 28-03-2020 11:10:18 13.6 C 25 %
213 28-03-2020 11:20:17 15.8 C 20 %
214 28-03-2020 11:30:17 16.7 C 20 %
215 28-03-2020 11:40:17 16.4 C 20 %
216 28-03-2020 11:50:18 15.9 C 20 %
217 28-03-2020 12:00:17 16.6 C 20 %
218 28-03-2020 12:10:17 17 C 20 %
219 28-03-2020 12:20:17 17.7 C 20 %
220 28-03-2020 12:30:17 17.8 C 20 %
221 28-03-2020 12:40:17 18.1 C 20 %
222 28-03-2020 12:50:18 18 C 20 %
223 28-03-2020 13:00:18 18.6 C 20 %
224 28-03-2020 13:10:18 19.6 C 20 %
225 28-03-2020 13:20:18 21.7 C 20 %
Sensor: Nr:Datum:Temp:Feuchte:
Aussen-T/F 226 28-03-2020 13:30:17 21.1 C 20 %
227 28-03-2020 13:40:17 20.7 C 20 %
228 28-03-2020 13:50:18 20.6 C 20 %
229 28-03-2020 14:00:17 21.1 C 20 %
230 28-03-2020 14:10:17 21.3 C 20 %
231 28-03-2020 14:20:17 21.9 C 20 %
232 28-03-2020 14:30:17 23.7 C 20 %
233 28-03-2020 14:40:17 24.3 C 20 %
234 28-03-2020 14:50:17 23.2 C 20 %
235 28-03-2020 15:00:18 22.4 C 20 %
236 28-03-2020 15:10:18 19.9 C 20 %
237 28-03-2020 15:20:18 18.6 C 20 %
238 28-03-2020 15:30:18 19.6 C 20 %
239 28-03-2020 15:40:18 22.1 C 20 %
240 28-03-2020 15:50:18 20.5 C 20 %
241 28-03-2020 16:00:18 21.1 C 20 %
242 28-03-2020 16:10:18 21.1 C 20 %
243 28-03-2020 16:20:18 19.9 C 20 %
244 28-03-2020 16:30:18 19.6 C 20 %
245 28-03-2020 16:40:18 19.6 C 20 %
246 28-03-2020 16:50:18 18.5 C 20 %
247 28-03-2020 17:00:18 17.9 C 20 %
248 28-03-2020 17:10:18 17 C 20 %
249 28-03-2020 17:20:18 16.6 C 20 %
250 28-03-2020 17:30:18 16.2 C 20 %
Sensor: Nr:Datum:Temp:Feuchte:
Aussen-T/F 251 28-03-2020 17:40:18 16.2 C 20 %
252 28-03-2020 17:50:17 15.4 C 20 %
253 28-03-2020 18:00:18 14.9 C 20 %
254 28-03-2020 18:10:18 14.6 C 20 %
255 28-03-2020 18:20:17 14 C 20 %
256 28-03-2020 18:30:17 13.5 C 20 %
257 28-03-2020 18:40:17 13.1 C 20 %
258 28-03-2020 18:50:18 12.6 C 20 %
259 28-03-2020 19:00:18 12.3 C 20 %
260 28-03-2020 19:10:18 11.7 C 20 %
261 28-03-2020 19:20:18 11.7 C 20 %
262 28-03-2020 19:30:18 11.4 C 20 %
263 28-03-2020 19:40:18 11.2 C 20 %
264 28-03-2020 19:50:17 10.8 C 20 %
265 28-03-2020 20:00:18 10.3 C 20 %
266 28-03-2020 20:10:18 10.7 C 20 %
267 28-03-2020 20:20:17 10.5 C 20 %
268 28-03-2020 20:30:18 10 C 20 %
269 28-03-2020 20:40:18 9.2 C 20 %
270 28-03-2020 20:50:17 8.7 C 20 %
271 28-03-2020 21:00:17 8.8 C 20 %
272 28-03-2020 21:10:17 9.2 C 20 %
273 28-03-2020 21:20:17 8.7 C 23 %
274 28-03-2020 21:30:17 8.1 C 25 %
275 28-03-2020 21:40:17 8.4 C 23 %
Sensor: Nr:Datum:Temp:Feuchte:
Aussen-T/F 276 28-03-2020 21:50:17 7.6 C 25 %
277 28-03-2020 22:00:17 8.3 C 25 %
278 28-03-2020 22:10:17 8.5 C 21 %
279 28-03-2020 22:20:17 8.4 C 25 %
280 28-03-2020 22:30:17 8.3 C 26 %
281 28-03-2020 22:40:17 7.9 C 26 %
282 28-03-2020 22:50:17 7.4 C 28 %
283 28-03-2020 23:00:17 7.3 C 30 %
284 28-03-2020 23:10:17 7.2 C 30 %
285 28-03-2020 23:20:18 7.1 C 30 %
286 28-03-2020 23:30:18 7.1 C 31 %
287 28-03-2020 23:40:18 6.8 C 32 %
288 28-03-2020 23:50:17 6.7 C 33 %
289 29-03-2020 00:00:18 6.5 C 33 %
290 29-03-2020 00:10:18 6.4 C 33 %
291 29-03-2020 00:20:17 6.2 C 33 %
292 29-03-2020 00:30:17 6.5 C 33 %
293 29-03-2020 00:40:17 6.6 C 33 %
294 29-03-2020 00:50:18 6.5 C 32 %
295 29-03-2020 01:00:18 6.3 C 32 %
296 29-03-2020 01:10:18 6.3 C 32 %
297 29-03-2020 01:20:17 6.2 C 32 %
298 29-03-2020 01:30:17 6.1 C 32 %
299 29-03-2020 01:40:17 6 C 31 %
300 29-03-2020 01:50:17 6 C 31 %
Sensor: Nr:Datum:Temp:Feuchte:
Aussen-T/F 301 29-03-2020 02:00:17 5.8 C 31 %
302 29-03-2020 02:10:17 5.7 C 31 %
303 29-03-2020 02:20:18 5.4 C 31 %
304 29-03-2020 02:30:18 5 C 31 %
305 29-03-2020 02:40:18 4.7 C 32 %
306 29-03-2020 02:50:18 4.7 C 32 %
307 29-03-2020 04:00:18 4.6 C 31 %
308 29-03-2020 04:10:18 4.2 C 32 %
309 29-03-2020 04:20:17 4.1 C 31 %
310 29-03-2020 04:30:17 4.3 C 31 %
311 29-03-2020 04:40:17 4.4 C 31 %
312 29-03-2020 04:50:18 4.3 C 31 %
313 29-03-2020 05:00:17 4.4 C 32 %
314 29-03-2020 05:10:17 4.3 C 32 %
315 29-03-2020 05:20:17 4.2 C 31 %
316 29-03-2020 05:30:17 4 C 31 %
317 29-03-2020 05:40:17 3.8 C 32 %
318 29-03-2020 05:50:18 3.5 C 32 %
319 29-03-2020 06:00:18 3.1 C 32 %
320 29-03-2020 06:10:18 2.8 C 33 %
321 29-03-2020 06:20:17 2.5 C 33 %
322 29-03-2020 06:30:18 2.9 C 33 %
323 29-03-2020 06:40:18 3.2 C 32 %
324 29-03-2020 06:50:17 3.3 C 33 %
325 29-03-2020 07:00:18 3.4 C 33 %
Sensor: Nr:Datum:Temp:Feuchte:
Aussen-T/F 326 29-03-2020 07:10:18 3.5 C 34 %
327 29-03-2020 07:20:17 3.5 C 35 %
328 29-03-2020 07:30:17 3.6 C 35 %
329 29-03-2020 07:40:17 3.7 C 35 %
330 29-03-2020 07:50:17 3.7 C 35 %
331 29-03-2020 08:00:18 3.8 C 35 %
332 29-03-2020 08:10:18 3.8 C 35 %
333 29-03-2020 08:20:17 4.1 C 33 %
334 29-03-2020 08:30:17 4.1 C 33 %
335 29-03-2020 08:40:17 4.3 C 33 %
336 29-03-2020 08:50:17 4 C 33 %
337 29-03-2020 09:00:17 4.3 C 33 %
338 29-03-2020 09:10:17 4.2 C 32 %
339 29-03-2020 09:20:17 4.1 C 33 %
340 29-03-2020 09:30:17 4.2 C 33 %
341 29-03-2020 09:40:17 4.5 C 32 %
342 29-03-2020 09:50:17 4.8 C 32 %
343 29-03-2020 10:00:17 5 C 31 %
344 29-03-2020 10:10:17 5.3 C 31 %
345 29-03-2020 10:20:17 5.8 C 30 %
346 29-03-2020 10:30:18 5.6 C 30 %
347 29-03-2020 10:40:18 6.2 C 30 %
348 29-03-2020 10:50:17 6.2 C 28 %
349 29-03-2020 11:00:18 6.5 C 25 %
350 29-03-2020 11:10:18 6.5 C 25 %
Sensor: Nr:Datum:Temp:Feuchte:
Aussen-T/F 351 29-03-2020 11:20:18 6 C 25 %
352 29-03-2020 11:30:18 6.1 C 25 %
353 29-03-2020 11:40:18 6.2 C 25 %
354 29-03-2020 11:50:17 6.3 C 25 %
355 29-03-2020 12:00:17 6.2 C 25 %
356 29-03-2020 12:10:17 5.6 C 27 %
357 29-03-2020 12:20:17 5.5 C 27 %
358 29-03-2020 12:30:17 5.7 C 27 %
359 29-03-2020 12:40:17 5.8 C 26 %
360 29-03-2020 12:50:18 6.4 C 26 %
361 29-03-2020 13:00:18 6.3 C 25 %
362 29-03-2020 13:10:18 6.1 C 25 %
363 29-03-2020 13:20:17 6.6 C 23 %
364 29-03-2020 13:30:17 6.8 C 20 %
365 29-03-2020 13:40:18 8.1 C 20 %
366 29-03-2020 13:50:17 8.4 C 20 %
367 29-03-2020 14:00:18 7.6 C 20 %
368 29-03-2020 14:10:18 7.5 C 20 %
369 29-03-2020 14:20:17 7 C 20 %
370 29-03-2020 14:30:17 6.7 C 20 %
371 29-03-2020 14:40:17 6.5 C 20 %
372 29-03-2020 14:50:17 6.7 C 20 %
373 29-03-2020 15:00:17 7.2 C 20 %
374 29-03-2020 15:10:17 7.4 C 20 %
375 29-03-2020 15:20:17 7.4 C 20 %
Sensor: Nr:Datum:Temp:Feuchte:
Aussen-T/F 376 29-03-2020 15:30:18 7.6 C 20 %
377 29-03-2020 15:40:18 7.6 C 20 %
378 29-03-2020 15:50:17 8 C 20 %
379 29-03-2020 16:00:18 7.4 C 20 %
380 29-03-2020 16:10:18 7 C 20 %
381 29-03-2020 16:20:17 6.7 C 20 %
382 29-03-2020 16:30:18 6.5 C 20 %
383 29-03-2020 16:40:18 6.6 C 20 %
384 29-03-2020 16:50:18 6.8 C 20 %
385 29-03-2020 17:00:18 7 C 20 %
386 29-03-2020 17:10:18 6.8 C 20 %
387 29-03-2020 17:20:17 7.4 C 20 %
388 29-03-2020 17:30:17 7 C 20 %
389 29-03-2020 17:40:17 7 C 20 %
390 29-03-2020 17:50:18 6.8 C 25 %
391 29-03-2020 18:00:18 7.1 C 23 %
392 29-03-2020 18:10:18 6.5 C 25 %
393 29-03-2020 18:20:18 6.2 C 25 %
394 29-03-2020 18:30:18 5.3 C 29 %
395 29-03-2020 18:40:18 4.4 C 35 %
396 29-03-2020 18:50:18 4.1 C 36 %
397 29-03-2020 19:00:18 4 C 36 %
398 29-03-2020 19:10:18 3.6 C 39 %
399 29-03-2020 19:20:17 3.6 C 40 %
400 29-03-2020 19:30:17 3.4 C 40 %
Sensor: Nr:Datum:Temp:Feuchte:
Aussen-T/F 401 29-03-2020 19:40:17 3.2 C 41 %
402 29-03-2020 19:50:17 3.1 C 41 %
403 29-03-2020 20:00:17 3 C 41 %
404 29-03-2020 20:10:17 3 C 41 %
405 29-03-2020 20:20:18 2.9 C 42 %
406 29-03-2020 20:30:18 3 C 41 %
407 29-03-2020 20:40:18 3.3 C 40 %
408 29-03-2020 20:50:18 3.5 C 40 %
409 29-03-2020 21:00:18 3.6 C 39 %
410 29-03-2020 21:10:18 3.7 C 39 %
411 29-03-2020 21:20:18 3.7 C 38 %
412 29-03-2020 21:30:17 3.7 C 37 %
413 29-03-2020 21:40:17 3.8 C 37 %
414 29-03-2020 21:50:17 3.8 C 37 %
415 29-03-2020 22:00:17 3.7 C 37 %
416 29-03-2020 22:10:17 3.7 C 36 %
417 29-03-2020 22:20:18 3.7 C 36 %
418 29-03-2020 22:30:18 3.6 C 36 %
419 29-03-2020 22:40:18 3.6 C 36 %
420 29-03-2020 22:50:18 3.6 C 35 %
421 29-03-2020 23:00:18 3.6 C 35 %
422 29-03-2020 23:10:18 3.5 C 35 %
423 29-03-2020 23:20:17 3.4 C 34 %
424 29-03-2020 23:30:17 3.3 C 33 %
425 29-03-2020 23:40:17 3.1 C 33 %
Sensor: Nr:Datum:Temp:Feuchte:
Aussen-T/F 426 29-03-2020 23:50:17 2.9 C 33 %
427 30-03-2020 00:00:18 2.5 C 34 %
428 30-03-2020 00:10:18 2.4 C 33 %
429 30-03-2020 00:20:17 2.4 C 33 %
430 30-03-2020 00:30:17 1.7 C 35 %
431 30-03-2020 00:40:17 1 C 36 %
432 30-03-2020 00:50:17 0.3 C 38 %
433 30-03-2020 01:00:18 0.2 C 38 %
434 30-03-2020 01:10:18 0.3 C 38 %
435 30-03-2020 01:20:17 0.3 C 37 %
436 30-03-2020 01:30:18 0.5 C 36 %
437 30-03-2020 01:40:18 -0.1 C 37 %
438 30-03-2020 01:50:17 -0.3 C 37 %
439 30-03-2020 02:00:17 -0.8 C 38 %
440 30-03-2020 02:10:17 -0.9 C 38 %
441 30-03-2020 02:20:17 -1.5 C 39 %
442 30-03-2020 02:30:18 -1.7 C 39 %
443 30-03-2020 02:40:18 -1.6 C 40 %
444 30-03-2020 02:50:17 -1.6 C 39 %
445 30-03-2020 03:00:18 -1.7 C 39 %
446 30-03-2020 03:10:18 -1.3 C 38 %
447 30-03-2020 03:20:18 -1.7 C 39 %
448 30-03-2020 03:30:18 -2.2 C 40 %
449 30-03-2020 03:40:18 -2.1 C 40 %
450 30-03-2020 03:50:17 -2.1 C 40 %
Sensor: Nr:Datum:Temp:Feuchte:
Aussen-T/F 451 30-03-2020 04:00:18 -1.9 C 39 %
452 30-03-2020 04:10:18 -2.2 C 39 %
453 30-03-2020 04:20:17 -2 C 39 %
454 30-03-2020 04:30:17 -2.4 C 39 %
455 30-03-2020 04:40:17 -2.6 C 39 %
456 30-03-2020 04:50:17 -2.4 C 39 %
457 30-03-2020 05:00:17 -2.4 C 38 %
458 30-03-2020 05:10:17 -2.5 C 38 %
459 30-03-2020 05:20:17 -2.7 C 38 %
460 30-03-2020 05:30:18 -3 C 39 %
461 30-03-2020 05:40:18 -3 C 38 %
462 30-03-2020 05:50:17 -3 C 38 %
463 30-03-2020 06:00:18 -3 C 38 %
464 30-03-2020 06:10:18 -3.4 C 38 %
465 30-03-2020 06:20:17 -3.7 C 39 %
466 30-03-2020 06:30:17 -3.9 C 40 %
467 30-03-2020 06:40:17 -4.1 C 40 %
468 30-03-2020 06:50:17 -3.3 C 39 %
469 30-03-2020 07:00:17 -3.7 C 40 %
470 30-03-2020 07:10:17 -3.2 C 39 %
471 30-03-2020 07:20:17 -3.8 C 39 %
472 30-03-2020 07:30:18 -4.3 C 40 %
473 30-03-2020 07:40:18 -4.5 C 40 %
474 30-03-2020 07:50:17 -4.5 C 40 %
475 30-03-2020 08:00:18 -3.8 C 40 %
Sensor: Nr:Datum:Temp:Feuchte:
Aussen-T/F 476 30-03-2020 08:10:18 -3.9 C 40 %
477 30-03-2020 08:20:18 -4.1 C 40 %
478 30-03-2020 08:30:18 -3.7 C 39 %
479 30-03-2020 08:40:18 -3.3 C 39 %
480 30-03-2020 08:50:17 -3.2 C 38 %
481 30-03-2020 09:00:18 -3.1 C 38 %
482 30-03-2020 09:10:18 -2.7 C 37 %
483 30-03-2020 09:20:18 -2.6 C 37 %
484 30-03-2020 09:30:18 -2.5 C 37 %
485 30-03-2020 09:40:18 -2.1 C 37 %
486 30-03-2020 09:50:18 -2.1 C 37 %
487 30-03-2020 10:00:18 -1.6 C 36 %
488 30-03-2020 10:10:18 -1.7 C 37 %
489 30-03-2020 10:20:17 -1.5 C 37 %
490 30-03-2020 10:30:17 -1.3 C 36 %
491 30-03-2020 10:40:17 0.1 C 31 %
492 30-03-2020 10:50:17 1 C 21 %
493 30-03-2020 11:00:17 1.1 C 23 %
494 30-03-2020 11:10:18 2 C 20 %
495 30-03-2020 11:20:18 2.4 C 20 %
496 30-03-2020 11:30:18 2.8 C 20 %
497 30-03-2020 11:40:18 2.9 C 20 %
498 30-03-2020 11:50:18 3.2 C 20 %
499 30-03-2020 12:00:18 3.7 C 20 %
500 30-03-2020 12:10:18 4 C 20 %
Sensor: Nr:Datum:Temp:Feuchte:
Aussen-T/F 501 30-03-2020 12:20:18 6.4 C 20 %
502 30-03-2020 12:30:18 7.6 C 20 %
503 30-03-2020 12:40:18 6.3 C 20 %
504 30-03-2020 12:50:18 5.1 C 20 %
505 30-03-2020 13:00:18 6.6 C 20 %
506 30-03-2020 13:10:18 6.5 C 20 %
507 30-03-2020 13:20:18 5.6 C 20 %
508 30-03-2020 13:30:17 5.9 C 20 %
509 30-03-2020 13:40:17 7 C 20 %
510 30-03-2020 13:50:17 6.4 C 20 %
511 30-03-2020 14:00:17 7.1 C 20 %
512 30-03-2020 14:10:17 8.4 C 20 %
513 30-03-2020 14:20:18 8.9 C 20 %
514 30-03-2020 14:30:18 9.5 C 20 %
515 30-03-2020 14:40:18 9.7 C 20 %
516 30-03-2020 14:50:18 10.8 C 20 %
517 30-03-2020 15:00:18 11.3 C 20 %
518 30-03-2020 15:10:18 11.7 C 20 %
519 30-03-2020 15:20:17 11.6 C 20 %
520 30-03-2020 15:30:18 13.5 C 20 %
521 30-03-2020 15:40:18 13.6 C 20 %
522 30-03-2020 15:50:18 11.9 C 20 %
523 30-03-2020 16:00:18 12.9 C 20 %
524 30-03-2020 16:10:18 13.6 C 20 %
525 30-03-2020 16:20:17 15.2 C 20 %
Sensor: Nr:Datum:Temp:Feuchte:
Aussen-T/F 526 30-03-2020 16:30:18 9.9 C 20 %
527 30-03-2020 16:40:18 13.9 C 20 %
528 30-03-2020 16:50:18 13.6 C 20 %
529 30-03-2020 17:00:17 10.1 C 20 %
530 30-03-2020 17:10:17 13.4 C 20 %
531 30-03-2020 17:20:18 12.5 C 20 %
532 30-03-2020 17:30:18 12.6 C 20 %
533 30-03-2020 17:40:18 11.6 C 20 %
534 30-03-2020 17:50:18 10.2 C 20 %
535 30-03-2020 18:00:18 8.7 C 20 %
536 30-03-2020 18:10:18 7.6 C 20 %
537 30-03-2020 18:20:18 7.9 C 20 %
538 30-03-2020 18:30:18 8.2 C 20 %
539 30-03-2020 18:40:18 7.7 C 20 %
540 30-03-2020 18:50:18 7.8 C 20 %
541 30-03-2020 19:00:18 7.3 C 20 %
542 30-03-2020 19:10:18 7.1 C 20 %
543 30-03-2020 19:20:17 6.5 C 20 %
544 30-03-2020 19:30:18 6.3 C 20 %
545 30-03-2020 19:40:18 5.8 C 20 %
546 30-03-2020 19:50:17 5 C 20 %
547 30-03-2020 20:00:18 3.8 C 27 %
548 30-03-2020 20:10:18 3 C 30 %
549 30-03-2020 20:20:17 2.8 C 30 %
550 30-03-2020 20:30:18 3.3 C 31 %
Sensor: Nr:Datum:Temp:Feuchte:
Aussen-T/F 551 30-03-2020 20:40:18 3.2 C 30 %
552 30-03-2020 20:50:18 3.3 C 31 %
553 30-03-2020 21:00:18 4 C 29 %
554 30-03-2020 21:10:18 4.1 C 29 %
555 30-03-2020 21:20:18 4.2 C 30 %
556 30-03-2020 21:30:18 4.3 C 30 %
557 30-03-2020 21:40:18 4.2 C 30 %
558 30-03-2020 21:50:18 4.1 C 30 %
559 30-03-2020 22:00:18 3.7 C 32 %
560 30-03-2020 22:10:18 3.7 C 33 %
561 30-03-2020 22:20:17 3.9 C 32 %
562 30-03-2020 22:30:18 4 C 31 %
563 30-03-2020 22:40:18 4.1 C 31 %
564 30-03-2020 22:50:18 4.2 C 31 %
565 30-03-2020 23:00:18 4.1 C 31 %
566 30-03-2020 23:10:18 4.2 C 30 %
567 30-03-2020 23:20:18 4.2 C 31 %
568 30-03-2020 23:30:18 4.1 C 31 %
569 30-03-2020 23:40:18 4.2 C 31 %
570 30-03-2020 23:50:17 4.2 C 31 %
571 31-03-2020 00:00:18 4.3 C 30 %
572 31-03-2020 00:10:18 4.3 C 30 %
573 31-03-2020 00:20:18 4.2 C 31 %
574 31-03-2020 00:30:18 4.2 C 31 %
575 31-03-2020 00:40:18 4.2 C 31 %
Sensor: Nr:Datum:Temp:Feuchte:
Aussen-T/F 576 31-03-2020 00:50:18 4.3 C 31 %
577 31-03-2020 01:00:18 4.4 C 32 %
578 31-03-2020 01:10:18 4 C 34 %
579 31-03-2020 01:20:18 3.8 C 36 %
580 31-03-2020 01:30:18 3.8 C 36 %
581 31-03-2020 01:40:18 3.7 C 37 %
582 31-03-2020 01:50:18 4 C 37 %
583 31-03-2020 02:00:18 3.9 C 38 %
584 31-03-2020 02:10:18 3.4 C 39 %
585 31-03-2020 02:20:17 3.5 C 39 %
586 31-03-2020 02:30:18 3.7 C 39 %
587 31-03-2020 02:40:18 3.3 C 40 %
588 31-03-2020 02:50:18 2.8 C 41 %
589 31-03-2020 03:00:18 2.5 C 41 %
590 31-03-2020 03:10:18 2.2 C 42 %
591 31-03-2020 03:20:17 2.4 C 42 %
592 31-03-2020 03:30:18 2.3 C 42 %
593 31-03-2020 03:40:18 2.3 C 43 %
594 31-03-2020 03:50:18 2.7 C 43 %
595 31-03-2020 04:00:18 2.9 C 42 %
596 31-03-2020 04:10:18 3 C 42 %
597 31-03-2020 04:20:18 3.1 C 42 %
598 31-03-2020 04:30:17 3.2 C 42 %
599 31-03-2020 04:40:18 3.2 C 41 %
600 31-03-2020 04:50:17 3.5 C 41 %
Sensor: Nr:Datum:Temp:Feuchte:
Aussen-T/F 601 31-03-2020 05:00:18 3.4 C 41 %
602 31-03-2020 05:10:18 3 C 41 %
603 31-03-2020 05:20:17 2.8 C 43 %
604 31-03-2020 05:30:18 2.5 C 43 %
605 31-03-2020 05:40:18 2.3 C 43 %
606 31-03-2020 05:50:18 1.9 C 44 %
607 31-03-2020 06:00:18 1.7 C 44 %
608 31-03-2020 06:10:18 1.6 C 45 %
609 31-03-2020 06:20:18 1.5 C 45 %
610 31-03-2020 06:30:18 1.7 C 45 %
611 31-03-2020 06:40:18 2 C 45 %
612 31-03-2020 06:50:18 2.1 C 45 %
613 31-03-2020 07:00:18 2.2 C 45 %
614 31-03-2020 07:10:18 2.3 C 45 %
615 31-03-2020 07:20:18 2.2 C 44 %
616 31-03-2020 07:30:18 2.1 C 44 %
617 31-03-2020 07:40:18 1.7 C 45 %
618 31-03-2020 07:50:17 2 C 45 %
619 31-03-2020 08:00:18 2.5 C 45 %
620 31-03-2020 08:10:18 3.1 C 43 %
621 31-03-2020 08:20:18 3.3 C 42 %
622 31-03-2020 08:30:18 3.5 C 41 %
623 31-03-2020 08:40:18 3.7 C 40 %
624 31-03-2020 08:50:17 4 C 38 %
625 31-03-2020 09:00:18 3.9 C 38 %
Sensor: Nr:Datum:Temp:Feuchte:
Aussen-T/F 626 31-03-2020 09:10:18 3.9 C 37 %
627 31-03-2020 09:20:18 4 C 36 %
628 31-03-2020 09:30:17 4 C 36 %
629 31-03-2020 09:40:17 4.1 C 35 %
630 31-03-2020 09:50:18 4.3 C 35 %
631 31-03-2020 10:00:18 4.8 C 34 %
632 31-03-2020 10:10:18 4.7 C 34 %
633 31-03-2020 10:20:18 4.5 C 34 %
634 31-03-2020 10:30:18 4.4 C 34 %
635 31-03-2020 10:40:18 4.3 C 34 %
636 31-03-2020 10:50:17 4.3 C 33 %
637 31-03-2020 11:00:17 4.3 C 33 %
638 31-03-2020 11:10:17 4.4 C 32 %
639 31-03-2020 11:20:18 4.7 C 31 %
640 31-03-2020 11:30:18 5.4 C 30 %
641 31-03-2020 11:40:18 5.3 C 30 %
642 31-03-2020 11:50:17 5.3 C 29 %
643 31-03-2020 12:00:18 5.6 C 27 %
644 31-03-2020 12:10:18 6.3 C 25 %
645 31-03-2020 12:20:17 6.4 C 20 %
646 31-03-2020 12:30:18 9.2 C 20 %
647 31-03-2020 12:40:18 8.4 C 20 %
648 31-03-2020 12:50:18 7 C 20 %
649 31-03-2020 13:00:17 7.5 C 20 %
650 31-03-2020 13:10:17 7.1 C 20 %
Sensor: Nr:Datum:Temp:Feuchte:
Aussen-T/F 651 31-03-2020 13:20:17 7.3 C 20 %
652 31-03-2020 13:30:17 7 C 20 %
653 31-03-2020 13:40:17 8.1 C 20 %
654 31-03-2020 13:51:17 8.4 C 20 %
655 31-03-2020 14:00:17 8.5 C 20 %
656 31-03-2020 14:10:17 9.7 C 20 %
657 31-03-2020 14:20:17 11.2 C 20 %
658 31-03-2020 14:30:17 12.6 C 20 %
659 31-03-2020 14:40:17 11.7 C 20 %
660 31-03-2020 14:51:17 12 C 20 %
661 31-03-2020 15:00:17 12 C 20 %
662 31-03-2020 15:10:18 13.1 C 20 %
663 31-03-2020 15:20:17 13.2 C 20 %
664 31-03-2020 15:30:17 13.5 C 20 %
665 31-03-2020 15:40:17 14.6 C 20 %
666 31-03-2020 15:50:18 13.9 C 20 %
667 31-03-2020 16:00:17 16.8 C 20 %
668 31-03-2020 16:10:17 14.8 C 20 %
669 31-03-2020 16:20:17 15.8 C 20 %
670 31-03-2020 16:31:17 15.1 C 20 %
671 31-03-2020 16:40:17 14 C 20 %
672 31-03-2020 16:50:17 13.3 C 20 %
673 31-03-2020 17:00:17 14.4 C 20 %
674 31-03-2020 17:10:17 16.2 C 20 %
675 31-03-2020 17:21:17 15.3 C 20 %
Sensor: Nr:Datum:Temp:Feuchte:
Aussen-T/F 676 31-03-2020 17:31:17 14.7 C 20 %
677 31-03-2020 17:40:17 15.5 C 20 %
678 31-03-2020 17:51:17 10.6 C 20 %
679 31-03-2020 18:01:17 10.5 C 20 %
680 31-03-2020 18:11:17 10.2 C 20 %
681 31-03-2020 18:21:17 9.8 C 20 %
682 31-03-2020 18:31:17 9.6 C 20 %
683 31-03-2020 18:40:17 9.4 C 20 %
684 31-03-2020 18:51:17 9.1 C 20 %
685 31-03-2020 19:00:17 9.1 C 20 %
686 31-03-2020 19:10:17 8.8 C 20 %
687 31-03-2020 19:20:17 8.7 C 20 %
688 31-03-2020 19:31:17 8.2 C 20 %
689 31-03-2020 19:41:17 7.7 C 20 %
690 31-03-2020 19:50:17 6.6 C 20 %
691 31-03-2020 20:01:17 5.6 C 20 %
692 31-03-2020 20:11:17 5.5 C 20 %
693 31-03-2020 20:21:17 5.3 C 20 %
694 31-03-2020 20:31:17 4.7 C 20 %
695 31-03-2020 20:41:17 4.4 C 20 %
696 31-03-2020 20:51:17 4 C 20 %
697 31-03-2020 21:00:17 3.7 C 20 %
698 31-03-2020 21:10:18 3.9 C 20 %
699 31-03-2020 21:21:17 3.7 C 20 %
700 31-03-2020 21:31:17 3.5 C 20 %
Sensor: Nr:Datum:Temp:Feuchte:
Aussen-T/F 701 31-03-2020 21:41:17 3.2 C 23 %
702 31-03-2020 21:51:17 3.2 C 23 %
703 31-03-2020 22:00:18 3 C 23 %
704 31-03-2020 22:10:18 2.7 C 25 %
705 31-03-2020 22:21:17 2.7 C 25 %
706 31-03-2020 22:31:17 2.6 C 25 %
707 31-03-2020 22:41:17 1.8 C 30 %
708 31-03-2020 22:50:18 1.6 C 30 %
709 31-03-2020 23:01:17 1.6 C 30 %
710 31-03-2020 23:11:17 1.7 C 30 %
711 31-03-2020 23:21:17 1.4 C 31 %
712 31-03-2020 23:30:17 1.3 C 31 %
713 31-03-2020 23:40:18 1.6 C 31 %
714 31-03-2020 23:51:17 0.9 C 32 %
715 01-04-2020 00:01:17 1.2 C 31 %
716 01-04-2020 00:11:17 0 C 35 %
717 01-04-2020 00:21:17 0.8 C 33 %
718 01-04-2020 00:31:17 0.6 C 32 %
719 01-04-2020 00:41:17 0.5 C 33 %
720 01-04-2020 00:51:17 -0.3 C 35 %
721 01-04-2020 01:01:17 -0.1 C 36 %
722 01-04-2020 01:11:17 -0.3 C 35 %
723 01-04-2020 01:21:17 -1 C 37 %
724 01-04-2020 01:30:18 -1.4 C 38 %
725 01-04-2020 01:40:18 -1.7 C 38 %
Sensor: Nr:Datum:Temp:Feuchte:
Aussen-T/F 726 01-04-2020 01:51:17 -1.9 C 38 %
727 01-04-2020 02:01:17 -1.9 C 38 %
728 01-04-2020 02:11:17 -2 C 38 %
729 01-04-2020 02:21:17 -2.1 C 38 %
730 01-04-2020 02:31:17 -2.3 C 39 %
731 01-04-2020 02:41:17 -2.4 C 38 %
732 01-04-2020 02:50:18 -2.4 C 39 %
733 01-04-2020 03:01:17 -2.5 C 38 %
734 01-04-2020 03:11:17 -2.6 C 38 %
735 01-04-2020 03:21:17 -2.8 C 39 %
736 01-04-2020 03:31:17 -2.7 C 38 %
737 01-04-2020 03:41:18 -3 C 38 %
738 01-04-2020 03:51:17 -3 C 39 %
739 01-04-2020 04:01:17 -2.8 C 39 %
740 01-04-2020 04:11:17 -3.1 C 38 %
741 01-04-2020 04:21:17 -3.2 C 39 %
742 01-04-2020 04:31:18 -3.5 C 38 %
743 01-04-2020 04:41:19 -3.4 C 39 %
744 01-04-2020 04:51:17 -3.5 C 39 %
745 01-04-2020 05:01:18 -3.6 C 39 %
746 01-04-2020 05:11:19 -3.8 C 40 %
747 01-04-2020 05:21:17 -3.8 C 40 %
748 01-04-2020 05:31:18 -3.8 C 40 %
749 01-04-2020 05:41:18 -4 C 40 %
750 01-04-2020 05:51:17 -4.2 C 40 %
Sensor: Nr:Datum:Temp:Feuchte:
Aussen-T/F 751 01-04-2020 06:01:18 -4.2 C 40 %
752 01-04-2020 06:11:18 -4 C 40 %
753 01-04-2020 06:21:17 -4.2 C 40 %
754 01-04-2020 06:31:17 -4.2 C 41 %
755 01-04-2020 06:41:17 -4.3 C 41 %
756 01-04-2020 06:51:17 -4.5 C 41 %
757 01-04-2020 07:01:18 -4.6 C 41 %
758 01-04-2020 07:11:19 -4.7 C 41 %
759 01-04-2020 07:21:17 -4.5 C 41 %
760 01-04-2020 07:31:18 -4.4 C 41 %
761 01-04-2020 07:41:18 -4.5 C 41 %
762 01-04-2020 07:51:17 -4.3 C 41 %
763 01-04-2020 08:01:17 -4.2 C 41 %
764 01-04-2020 08:11:17 -4.2 C 41 %
765 01-04-2020 08:21:17 -3.7 C 41 %
766 01-04-2020 08:31:17 -3.8 C 41 %
767 01-04-2020 08:41:17 -3.7 C 41 %
768 01-04-2020 08:51:17 -3.4 C 40 %
769 01-04-2020 09:01:17 -3.4 C 40 %
770 01-04-2020 09:11:17 -2.7 C 40 %
771 01-04-2020 09:21:17 -2.6 C 40 %
772 01-04-2020 09:31:17 -2.5 C 40 %
773 01-04-2020 09:41:17 -2.1 C 40 %
774 01-04-2020 09:51:17 -1.5 C 39 %
775 01-04-2020 10:01:17 -1 C 39 %
Sensor: Nr:Datum:Temp:Feuchte:
Aussen-T/F 776 01-04-2020 10:11:17 -0.9 C 40 %
777 01-04-2020 10:21:17 -0.4 C 40 %
778 01-04-2020 10:31:18 0.5 C 39 %
779 01-04-2020 10:41:18 1 C 37 %
780 01-04-2020 10:51:17 1.6 C 36 %
781 01-04-2020 11:01:17 2.4 C 35 %
782 01-04-2020 11:11:17 3.2 C 33 %
783 01-04-2020 11:21:17 4.2 C 29 %
784 01-04-2020 11:31:17 4.8 C 20 %
785 01-04-2020 11:41:17 5.3 C 20 %
786 01-04-2020 11:51:17 6 C 20 %
787 01-04-2020 12:01:17 6.6 C 20 %
788 01-04-2020 12:11:18 7.1 C 20 %
789 01-04-2020 12:21:17 8.9 C 20 %
790 01-04-2020 12:31:17 10.3 C 20 %
791 01-04-2020 12:41:17 9.2 C 20 %
792 01-04-2020 12:51:17 8 C 20 %
793 01-04-2020 13:01:17 9.3 C 20 %
794 01-04-2020 13:11:17 9.3 C 20 %
795 01-04-2020 13:21:16 8.6 C 20 %
796 01-04-2020 13:31:17 9.2 C 20 %
797 01-04-2020 13:41:17 9.6 C 20 %
798 01-04-2020 13:51:17 10 C 20 %
799 01-04-2020 14:01:17 10.3 C 20 %
800 01-04-2020 14:11:17 10.7 C 20 %
Sensor: Nr:Datum:Temp:Feuchte:
Aussen-T/F 801 01-04-2020 14:21:17 13.2 C 20 %
802 01-04-2020 14:31:16 15.9 C 20 %
803 01-04-2020 14:41:16 16.3 C 20 %
804 01-04-2020 14:51:17 13.7 C 20 %
805 01-04-2020 15:01:17 14.2 C 20 %
806 01-04-2020 15:11:17 17.2 C 20 %
807 01-04-2020 15:21:17 16.8 C 20 %
808 01-04-2020 15:31:16 16.3 C 20 %
809 01-04-2020 15:41:16 18.2 C 20 %
810 01-04-2020 15:51:17 19.5 C 20 %
811 01-04-2020 16:01:16 18.7 C 20 %
812 01-04-2020 16:11:16 18.7 C 20 %
813 01-04-2020 16:21:16 19.7 C 20 %
814 01-04-2020 16:31:17 21.3 C 20 %
815 01-04-2020 16:41:17 15.5 C 20 %
816 01-04-2020 16:51:16 18.4 C 20 %
817 01-04-2020 17:01:16 17.2 C 20 %
818 01-04-2020 17:11:16 17.4 C 20 %
819 01-04-2020 17:21:17 17.7 C 20 %
820 01-04-2020 17:31:17 18.5 C 20 %
821 01-04-2020 17:41:17 16.8 C 20 %
822 01-04-2020 17:51:17 15.8 C 20 %
823 01-04-2020 18:01:17 12.6 C 20 %
824 01-04-2020 18:11:17 12 C 20 %
825 01-04-2020 18:21:16 12.1 C 20 %
Sensor: Nr:Datum:Temp:Feuchte:
Aussen-T/F 826 01-04-2020 18:31:17 11.7 C 20 %
827 01-04-2020 18:41:17 11.8 C 20 %
828 01-04-2020 18:51:16 11.6 C 20 %
829 01-04-2020 19:01:17 11 C 20 %
830 01-04-2020 19:11:17 10.7 C 20 %
831 01-04-2020 19:21:17 10.4 C 20 %
832 01-04-2020 19:31:17 9.9 C 20 %
833 01-04-2020 19:41:17 9.6 C 20 %
834 01-04-2020 19:51:16 8.9 C 20 %
835 01-04-2020 20:01:17 8.1 C 20 %
836 01-04-2020 20:11:17 7.8 C 20 %
837 01-04-2020 20:21:16 8.1 C 20 %
838 01-04-2020 20:31:16 7.1 C 20 %
839 01-04-2020 20:41:16 6.2 C 20 %
840 01-04-2020 20:51:16 5.9 C 20 %
841 01-04-2020 21:01:16 6 C 20 %
842 01-04-2020 21:11:16 6 C 20 %
843 01-04-2020 21:21:16 5.7 C 20 %
844 01-04-2020 21:31:16 5.7 C 20 %
845 01-04-2020 21:41:16 5.4 C 20 %
846 01-04-2020 21:51:16 4 C 21 %
847 01-04-2020 22:01:16 4.2 C 21 %
848 01-04-2020 22:11:16 3.7 C 26 %
849 01-04-2020 22:21:16 3.2 C 26 %
850 01-04-2020 22:31:16 2.5 C 29 %
Sensor: Nr:Datum:Temp:Feuchte:
Aussen-T/F 851 01-04-2020 22:41:16 2.6 C 28 %
852 01-04-2020 22:51:16 2 C 30 %
853 01-04-2020 23:01:17 1.7 C 33 %
854 01-04-2020 23:11:17 1.7 C 32 %
855 01-04-2020 23:21:16 1.4 C 34 %
856 01-04-2020 23:31:16 1.2 C 34 %
857 01-04-2020 23:41:16 1 C 35 %
858 01-04-2020 23:51:16 1.1 C 34 %
859 02-04-2020 00:01:17 1 C 35 %
860 02-04-2020 00:11:17 0.4 C 36 %
861 02-04-2020 00:21:16 0.4 C 36 %
862 02-04-2020 00:31:17 0.2 C 36 %
863 02-04-2020 00:41:17 0.3 C 37 %
864 02-04-2020 00:51:16 0.3 C 36 %
865 02-04-2020 01:01:17 0 C 37 %
866 02-04-2020 01:11:17 -0.4 C 38 %
867 02-04-2020 01:21:16 -0.6 C 38 %
868 02-04-2020 01:31:17 -0.7 C 38 %
869 02-04-2020 01:41:17 -0.7 C 38 %
870 02-04-2020 01:51:16 -0.9 C 39 %
871 02-04-2020 02:01:16 -1 C 39 %
872 02-04-2020 02:11:16 -1 C 39 %
873 02-04-2020 02:21:16 -1.2 C 39 %
874 02-04-2020 02:31:17 -1.3 C 40 %
875 02-04-2020 02:41:17 -1.6 C 40 %
Sensor: Nr:Datum:Temp:Feuchte:
Aussen-T/F 876 02-04-2020 02:51:17 -1.5 C 40 %
877 02-04-2020 03:01:17 -1.5 C 40 %
878 02-04-2020 03:11:17 -1.5 C 40 %
879 02-04-2020 03:21:17 -1.3 C 40 %
880 02-04-2020 03:31:17 -1.4 C 40 %
881 02-04-2020 03:41:17 -1.6 C 40 %
882 02-04-2020 03:51:18 -1.7 C 40 %
883 02-04-2020 04:01:18 -2.1 C 40 %
884 02-04-2020 04:11:18 -1.7 C 41 %
885 02-04-2020 04:21:18 -1.6 C 40 %
886 02-04-2020 04:31:17 -2 C 40 %
887 02-04-2020 04:41:17 -2.4 C 41 %
888 02-04-2020 04:51:17 -2.7 C 41 %
889 02-04-2020 05:01:18 -2.6 C 41 %
890 02-04-2020 05:11:18 -2.6 C 41 %
891 02-04-2020 05:21:17 -2.6 C 41 %
892 02-04-2020 05:31:18 -2.7 C 41 %
893 02-04-2020 05:41:18 -2.6 C 41 %
894 02-04-2020 05:51:17 -2.5 C 41 %
895 02-04-2020 06:01:17 -2.6 C 41 %
896 02-04-2020 06:11:17 -3 C 41 %
897 02-04-2020 06:21:17 -3 C 42 %
898 02-04-2020 06:31:17 -2.6 C 43 %
899 02-04-2020 06:41:17 -3.1 C 42 %
900 02-04-2020 06:51:17 -2.9 C 42 %
Sensor: Nr:Datum:Temp:Feuchte:
Aussen-T/F 901 02-04-2020 07:01:17 -3.3 C 42 %
902 02-04-2020 07:11:17 -3 C 42 %
903 02-04-2020 07:21:17 -3.1 C 42 %
904 02-04-2020 07:31:17 -3 C 43 %
905 02-04-2020 07:41:18 -2.9 C 42 %
906 02-04-2020 07:51:17 -3 C 43 %
907 02-04-2020 08:01:17 -2.7 C 43 %
908 02-04-2020 08:11:18 -2.5 C 43 %
909 02-04-2020 08:21:17 -2.2 C 42 %
910 02-04-2020 08:31:17 -2.2 C 42 %
911 02-04-2020 08:41:17 -2 C 42 %
912 02-04-2020 08:51:17 -1.8 C 42 %
913 02-04-2020 09:01:17 -1.7 C 42 %
914 02-04-2020 09:11:17 -1.5 C 41 %
915 02-04-2020 09:21:17 -1.3 C 41 %
916 02-04-2020 09:31:17 -1 C 41 %
917 02-04-2020 09:41:17 -0.6 C 41 %
918 02-04-2020 09:51:18 -0.3 C 41 %
919 02-04-2020 10:01:18 0.1 C 41 %
920 02-04-2020 10:11:18 0.6 C 41 %
921 02-04-2020 10:21:17 0.8 C 41 %
922 02-04-2020 10:31:17 1.7 C 40 %
923 02-04-2020 10:41:17 2.2 C 39 %
924 02-04-2020 10:51:17 3.1 C 37 %
925 02-04-2020 11:01:17 3.6 C 37 %
Sensor: Nr:Datum:Temp:Feuchte:
Aussen-T/F 926 02-04-2020 11:11:17 4.6 C 35 %
927 02-04-2020 11:21:17 5.7 C 30 %
928 02-04-2020 11:31:18 6.5 C 30 %
929 02-04-2020 11:41:18 6.9 C 29 %
930 02-04-2020 11:51:17 7.4 C 27 %
931 02-04-2020 12:01:17 8.1 C 27 %
932 02-04-2020 12:11:17 8.5 C 25 %
933 02-04-2020 12:21:17 10.5 C 20 %
934 02-04-2020 12:31:18 12.2 C 20 %
935 02-04-2020 12:41:18 10.8 C 20 %
936 02-04-2020 12:51:17 10.3 C 20 %
937 02-04-2020 13:01:17 11 C 20 %
938 02-04-2020 13:11:18 11.5 C 20 %
939 02-04-2020 13:21:17 11.6 C 20 %
940 02-04-2020 13:31:17 11.4 C 20 %
941 02-04-2020 13:41:17 12.3 C 20 %
942 02-04-2020 13:51:17 12.5 C 20 %
943 02-04-2020 14:01:17 11.8 C 20 %
944 02-04-2020 14:11:17 12.6 C 20 %
945 02-04-2020 14:21:17 15.5 C 20 %
946 02-04-2020 14:31:18 18.1 C 20 %
947 02-04-2020 14:41:18 18.3 C 20 %
948 02-04-2020 14:51:17 18.3 C 20 %
949 02-04-2020 15:01:18 19.7 C 20 %
950 02-04-2020 15:11:18 17.5 C 20 %
Sensor: Nr:Datum:Temp:Feuchte:
Aussen-T/F 951 02-04-2020 15:21:17 19.2 C 20 %
952 02-04-2020 15:31:18 19.8 C 20 %
953 02-04-2020 15:41:18 19.3 C 20 %
954 02-04-2020 15:51:17 19.4 C 20 %
955 02-04-2020 16:01:17 21.3 C 20 %
956 02-04-2020 16:11:17 19.9 C 20 %
957 02-04-2020 16:21:17 16.6 C 20 %
958 02-04-2020 16:31:18 18 C 20 %
959 02-04-2020 16:41:18 17.6 C 20 %
960 02-04-2020 16:51:17 17.8 C 20 %
961 02-04-2020 17:01:17 17.3 C 20 %
962 02-04-2020 17:11:17 16.6 C 20 %
963 02-04-2020 17:21:17 15.8 C 20 %
964 02-04-2020 17:31:18 15.5 C 20 %
965 02-04-2020 17:41:18 14.7 C 20 %
966 02-04-2020 17:51:17 14.8 C 20 %
967 02-04-2020 18:01:17 12.8 C 20 %
968 02-04-2020 18:11:17 12.2 C 20 %
969 02-04-2020 18:21:17 12.3 C 20 %
970 02-04-2020 18:31:17 11.8 C 20 %
971 02-04-2020 18:41:17 11.3 C 20 %
972 02-04-2020 18:51:17 11.1 C 20 %
973 02-04-2020 19:01:17 10.7 C 20 %
974 02-04-2020 19:11:17 10.2 C 20 %
975 02-04-2020 19:21:17 10 C 20 %
Sensor: Nr:Datum:Temp:Feuchte:
Aussen-T/F 976 02-04-2020 19:31:17 9.6 C 20 %
977 02-04-2020 19:41:17 9.5 C 20 %
978 02-04-2020 19:51:17 8.7 C 20 %
979 02-04-2020 20:01:17 8.5 C 20 %
980 02-04-2020 20:11:17 8.5 C 20 %
981 02-04-2020 20:21:17 7.9 C 20 %
982 02-04-2020 20:31:17 7.8 C 20 %
983 02-04-2020 20:41:17 7.2 C 21 %
984 02-04-2020 20:51:17 6.9 C 25 %
985 02-04-2020 21:01:17 6.4 C 26 %
986 02-04-2020 21:11:17 6.3 C 27 %
987 02-04-2020 21:21:17 5.9 C 28 %
988 02-04-2020 21:31:18 5.7 C 29 %
989 02-04-2020 21:41:18 5.6 C 30 %
990 02-04-2020 21:51:17 5.3 C 30 %
991 02-04-2020 22:01:17 5.2 C 30 %
992 02-04-2020 22:11:17 5.5 C 30 %
993 02-04-2020 22:21:17 5 C 30 %
994 02-04-2020 22:31:18 5.3 C 31 %
995 02-04-2020 22:41:18 5.2 C 31 %
996 02-04-2020 22:51:17 5.1 C 31 %
997 02-04-2020 23:01:17 4.8 C 32 %
998 02-04-2020 23:11:17 5 C 31 %
999 02-04-2020 23:21:17 5 C 31 %
1000 02-04-2020 23:31:18 4.7 C 33 %
Sensor: Nr:Datum:Temp:Feuchte:
Aussen-T/F 1001 02-04-2020 23:41:18 3.9 C 35 %
1002 02-04-2020 23:51:17 3.1 C 36 %
1003 03-04-2020 00:01:18 2.7 C 38 %
1004 03-04-2020 00:11:18 2.3 C 39 %
1005 03-04-2020 00:21:17 2.6 C 40 %
1006 03-04-2020 00:31:17 2.6 C 39 %
1007 03-04-2020 00:41:17 3.2 C 38 %
1008 03-04-2020 00:51:17 2.4 C 39 %
1009 03-04-2020 01:01:18 2.4 C 39 %
1010 03-04-2020 01:11:18 2.4 C 39 %
1011 03-04-2020 01:21:17 2.6 C 39 %
1012 03-04-2020 01:31:18 2.7 C 39 %
1013 03-04-2020 01:41:18 2.5 C 39 %
1014 03-04-2020 01:51:17 2.3 C 39 %
1015 03-04-2020 02:01:18 2.2 C 39 %
1016 03-04-2020 02:11:18 2.3 C 39 %
1017 03-04-2020 02:21:18 3.1 C 38 %
1018 03-04-2020 02:31:18 3.2 C 38 %
1019 03-04-2020 02:41:18 2.6 C 39 %
1020 03-04-2020 02:51:17 2.8 C 39 %
1021 03-04-2020 03:01:18 3 C 38 %
1022 03-04-2020 03:11:18 3.6 C 38 %
1023 03-04-2020 03:21:17 3.9 C 38 %
1024 03-04-2020 03:31:17 4.4 C 36 %
1025 03-04-2020 03:41:17 4.7 C 36 %
Sensor: Nr:Datum:Temp:Feuchte:
Aussen-T/F 1026 03-04-2020 03:51:17 4.6 C 36 %
1027 03-04-2020 04:01:17 5 C 35 %
1028 03-04-2020 04:11:17 5.6 C 35 %
1029 03-04-2020 04:21:17 4.9 C 35 %
1030 03-04-2020 04:31:18 4.7 C 36 %
1031 03-04-2020 04:41:18 4.6 C 36 %
1032 03-04-2020 04:51:18 4.4 C 36 %
1033 03-04-2020 05:01:18 4.3 C 36 %
1034 03-04-2020 05:11:18 4.5 C 36 %
1035 03-04-2020 05:21:17 4.8 C 36 %
1036 03-04-2020 05:31:17 4.8 C 36 %
1037 03-04-2020 05:41:17 5.2 C 35 %
1038 03-04-2020 05:51:17 5.3 C 35 %
1039 03-04-2020 06:01:18 5.4 C 35 %
1040 03-04-2020 06:11:18 5.4 C 35 %
1041 03-04-2020 06:21:17 5.1 C 35 %
1042 03-04-2020 06:31:17 5.1 C 36 %
1043 03-04-2020 06:41:17 5.1 C 35 %
1044 03-04-2020 06:51:17 5.2 C 35 %
1045 03-04-2020 07:01:17 5.7 C 35 %
1046 03-04-2020 07:11:17 5.6 C 35 %
1047 03-04-2020 07:21:18 5.5 C 35 %
1048 03-04-2020 07:31:17 5.7 C 35 %
1049 03-04-2020 07:41:17 5.6 C 35 %
1050 03-04-2020 07:51:17 5.6 C 35 %
Sensor: Nr:Datum:Temp:Feuchte:
Aussen-T/F 1051 03-04-2020 08:01:17 5.7 C 35 %
1052 03-04-2020 08:11:17 5.9 C 35 %
1053 03-04-2020 08:21:18 5.9 C 35 %
1054 03-04-2020 08:31:17 5.9 C 35 %
1055 03-04-2020 08:41:17 6.1 C 35 %
1056 03-04-2020 08:51:18 6.6 C 35 %
1057 03-04-2020 09:01:17 7 C 34 %
1058 03-04-2020 09:11:17 7.1 C 34 %
1059 03-04-2020 09:21:18 7.6 C 34 %
1060 03-04-2020 09:31:18 7.7 C 34 %
1061 03-04-2020 09:41:18 8 C 33 %
1062 03-04-2020 09:51:17 8.4 C 33 %
1063 03-04-2020 10:01:18 8.6 C 32 %
1064 03-04-2020 10:11:18 8.6 C 32 %
1065 03-04-2020 10:21:17 9 C 32 %
1066 03-04-2020 10:31:18 9.4 C 32 %
1067 03-04-2020 10:41:18 9.2 C 32 %
1068 03-04-2020 10:51:17 9.6 C 32 %
1069 03-04-2020 11:01:17 10.6 C 31 %
1070 03-04-2020 11:11:17 11.2 C 29 %
1071 03-04-2020 11:21:17 10.9 C 29 %
1072 03-04-2020 11:31:17 11.1 C 28 %
1073 03-04-2020 11:41:17 11.5 C 26 %
1074 03-04-2020 11:51:17 11.4 C 26 %
1075 03-04-2020 12:01:17 11.1 C 26 %
Sensor: Nr:Datum:Temp:Feuchte:
Aussen-T/F 1076 03-04-2020 12:11:17 11.2 C 26 %
1077 03-04-2020 12:21:17 11.4 C 26 %
1078 03-04-2020 12:31:17 11.6 C 25 %
1079 03-04-2020 12:41:18 11.1 C 25 %
1080 03-04-2020 12:51:17 11.1 C 25 %
1081 03-04-2020 13:01:18 11.2 C 25 %
1082 03-04-2020 13:11:18 11.7 C 25 %
1083 03-04-2020 13:21:17 12.2 C 22 %
1084 03-04-2020 13:31:17 11.8 C 22 %
1085 03-04-2020 13:41:17 11.8 C 23 %
1086 03-04-2020 13:51:17 12.2 C 22 %
1087 03-04-2020 14:01:18 12.3 C 20 %
1088 03-04-2020 14:11:18 11.6 C 21 %
1089 03-04-2020 14:21:17 11.7 C 21 %
1090 03-04-2020 14:31:17 11.6 C 21 %
1091 03-04-2020 14:41:18 11.4 C 23 %
1092 03-04-2020 14:51:17 11.7 C 21 %
1093 03-04-2020 15:01:17 11.8 C 20 %
1094 03-04-2020 15:11:17 11.7 C 20 %
1095 03-04-2020 15:21:18 11.8 C 20 %
1096 03-04-2020 15:31:17 12.1 C 20 %
1097 03-04-2020 15:41:17 12.5 C 20 %
1098 03-04-2020 15:51:17 13.1 C 20 %
1099 03-04-2020 16:01:17 12.6 C 20 %
1100 03-04-2020 16:11:17 12.4 C 20 %
Sensor: Nr:Datum:Temp:Feuchte:
Aussen-T/F 1101 03-04-2020 16:21:17 12.4 C 20 %
1102 03-04-2020 16:31:17 12.3 C 20 %
1103 03-04-2020 16:41:17 12.4 C 20 %
1104 03-04-2020 16:51:17 12.4 C 20 %
1105 03-04-2020 17:01:17 12.2 C 20 %
1106 03-04-2020 17:11:17 12.2 C 20 %
1107 03-04-2020 17:21:17 12.2 C 20 %
1108 03-04-2020 17:31:17 12.2 C 20 %
1109 03-04-2020 17:41:17 12.4 C 20 %
1110 03-04-2020 17:51:17 11.9 C 20 %
1111 03-04-2020 18:01:17 11.5 C 20 %
1112 03-04-2020 18:11:17 11.7 C 20 %
1113 03-04-2020 18:21:17 11.5 C 20 %
1114 03-04-2020 18:31:18 11.4 C 20 %
1115 03-04-2020 18:41:18 11 C 20 %
1116 03-04-2020 18:51:17 11 C 20 %
1117 03-04-2020 19:01:18 10.8 C 20 %
1118 03-04-2020 19:11:18 10.7 C 20 %
1119 03-04-2020 19:21:17 10.5 C 20 %
1120 03-04-2020 19:31:17 10.2 C 20 %
1121 03-04-2020 19:41:17 10.3 C 20 %
1122 03-04-2020 19:51:17 9.9 C 20 %
1123 03-04-2020 20:01:17 9.8 C 20 %
1124 03-04-2020 20:11:17 9.5 C 20 %
1125 03-04-2020 20:21:17 9.1 C 20 %
Sensor: Nr:Datum:Temp:Feuchte:
Aussen-T/F 1126 03-04-2020 20:31:18 9.5 C 20 %
1127 03-04-2020 20:41:18 9.2 C 20 %
1128 03-04-2020 20:51:18 9.1 C 20 %
1129 03-04-2020 21:01:17 9.2 C 20 %
1130 03-04-2020 21:11:17 9.1 C 20 %
1131 03-04-2020 21:21:17 8.9 C 20 %
1132 03-04-2020 21:31:17 8.7 C 20 %
1133 03-04-2020 21:41:17 8.6 C 20 %
1134 03-04-2020 21:51:17 8.3 C 20 %
1135 03-04-2020 22:01:17 8.1 C 20 %
1136 03-04-2020 22:11:17 7.9 C 20 %
1137 03-04-2020 22:21:17 7.2 C 23 %
1138 03-04-2020 22:31:18 6.8 C 25 %
1139 03-04-2020 22:41:18 6.5 C 26 %
1140 03-04-2020 22:51:17 6.3 C 26 %
1141 03-04-2020 23:01:17 6.4 C 26 %
1142 03-04-2020 23:11:18 6.4 C 25 %
1143 03-04-2020 23:21:18 6.2 C 26 %
1144 03-04-2020 23:31:17 5.2 C 28 %
1145 03-04-2020 23:41:18 5 C 29 %
1146 03-04-2020 23:51:17 4.7 C 30 %
1147 04-04-2020 00:01:17 4.8 C 30 %
1148 04-04-2020 00:11:18 4.8 C 30 %
1149 04-04-2020 00:21:17 4.7 C 30 %
1150 04-04-2020 00:31:17 5.2 C 28 %
Sensor: Nr:Datum:Temp:Feuchte:
Aussen-T/F 1151 04-04-2020 00:41:17 4.5 C 29 %
1152 04-04-2020 00:51:17 4 C 30 %
1153 04-04-2020 01:01:17 4.6 C 30 %
1154 04-04-2020 01:11:17 4.3 C 30 %
1155 04-04-2020 01:21:18 3.9 C 31 %
1156 04-04-2020 01:31:17 4 C 32 %
1157 04-04-2020 01:41:17 3.1 C 35 %
1158 04-04-2020 01:51:17 2.2 C 37 %
1159 04-04-2020 02:01:18 1.7 C 39 %
1160 04-04-2020 02:11:18 1.4 C 40 %
1161 04-04-2020 02:21:17 1.2 C 40 %
1162 04-04-2020 02:31:17 0.9 C 41 %
1163 04-04-2020 02:41:17 0.8 C 41 %
1164 04-04-2020 02:51:17 0.8 C 42 %
1165 04-04-2020 03:01:18 0.6 C 42 %
1166 04-04-2020 03:11:18 0.4 C 42 %
1167 04-04-2020 03:21:17 0.3 C 43 %
1168 04-04-2020 03:31:18 0.6 C 43 %
1169 04-04-2020 03:41:18 0.5 C 42 %
1170 04-04-2020 03:51:17 -0.1 C 43 %
1171 04-04-2020 04:01:17 -0.4 C 43 %
1172 04-04-2020 04:11:17 -0.6 C 43 %
1173 04-04-2020 04:21:17 -0.7 C 44 %
1174 04-04-2020 04:31:17 -0.6 C 44 %
1175 04-04-2020 04:41:17 -0.9 C 44 %
Sensor: Nr:Datum:Temp:Feuchte:
Aussen-T/F 1176 04-04-2020 04:51:17 -0.9 C 45 %
1177 04-04-2020 05:01:18 -0.9 C 45 %
1178 04-04-2020 05:11:18 -1.2 C 45 %
1179 04-04-2020 05:21:18 -1.2 C 45 %
1180 04-04-2020 05:31:17 -1 C 45 %
1181 04-04-2020 05:41:17 -1.2 C 45 %
1182 04-04-2020 05:51:17 -1.2 C 45 %
1183 04-04-2020 06:01:18 -1.5 C 45 %
1184 04-04-2020 06:11:18 -1.5 C 45 %
1185 04-04-2020 06:21:17 -1.5 C 45 %
1186 04-04-2020 06:31:17 -1.8 C 45 %
1187 04-04-2020 06:41:17 -1.4 C 46 %
1188 04-04-2020 06:51:17 -1.5 C 45 %
1189 04-04-2020 07:01:18 -1.6 C 45 %
1190 04-04-2020 07:11:18 -1.8 C 45 %
1191 04-04-2020 07:21:17 -1.5 C 46 %
1192 04-04-2020 07:31:18 -1.8 C 45 %
1193 04-04-2020 07:41:18 -1.7 C 46 %
1194 04-04-2020 07:51:17 -1.8 C 45 %
1195 04-04-2020 08:01:17 -1.8 C 46 %
1196 04-04-2020 08:11:18 -1.7 C 46 %
1197 04-04-2020 08:21:17 -1.5 C 46 %
1198 04-04-2020 08:31:17 -1.1 C 46 %
1199 04-04-2020 08:41:18 -1 C 46 %
1200 04-04-2020 08:51:17 -0.7 C 45 %
Sensor: Nr:Datum:Temp:Feuchte:
Aussen-T/F 1201 04-04-2020 09:01:17 -0.3 C 45 %
1202 04-04-2020 09:11:17 0 C 45 %
1203 04-04-2020 09:21:17 -0.2 C 45 %
1204 04-04-2020 09:31:18 0.2 C 45 %
1205 04-04-2020 09:41:18 0.8 C 44 %
1206 04-04-2020 09:51:17 1.1 C 43 %
1207 04-04-2020 10:01:17 1.5 C 43 %
1208 04-04-2020 10:11:18 1.8 C 43 %
1209 04-04-2020 10:21:17 2.2 C 41 %
1210 04-04-2020 10:31:17 2.9 C 41 %
1211 04-04-2020 10:41:17 3.5 C 40 %
1212 04-04-2020 10:51:17 4.5 C 37 %
1213 04-04-2020 11:01:17 5.3 C 36 %
1214 04-04-2020 11:11:17 6.4 C 35 %
1215 04-04-2020 11:21:18 7.1 C 32 %
1216 04-04-2020 11:31:18 7.9 C 32 %
1217 04-04-2020 11:41:18 8.4 C 29 %
1218 04-04-2020 11:51:18 8.7 C 29 %
1219 04-04-2020 12:01:18 9.7 C 26 %
1220 04-04-2020 12:11:18 9.7 C 26 %
1221 04-04-2020 12:21:17 10.6 C 22 %
1222 04-04-2020 12:31:17 10.9 C 20 %
1223 04-04-2020 12:41:17 11.4 C 20 %
1224 04-04-2020 12:51:17 10.8 C 20 %
1225 04-04-2020 13:01:17 11.1 C 20 %
Sensor: Nr:Datum:Temp:Feuchte:
Aussen-T/F 1226 04-04-2020 13:11:17 12.1 C 20 %
1227 04-04-2020 13:21:17 11.6 C 20 %
1228 04-04-2020 13:31:17 11.4 C 20 %
1229 04-04-2020 13:41:17 12.2 C 20 %
1230 04-04-2020 13:51:18 12.5 C 20 %
1231 04-04-2020 14:01:17 12.1 C 20 %
1232 04-04-2020 14:11:17 13.7 C 20 %
1233 04-04-2020 14:21:17 14.6 C 20 %
1234 04-04-2020 14:31:17 16.6 C 20 %
1235 04-04-2020 14:41:17 17 C 20 %
1236 04-04-2020 14:51:17 16.3 C 20 %
1237 04-04-2020 15:01:18 18.1 C 20 %
1238 04-04-2020 15:11:18 18.9 C 20 %
1239 04-04-2020 15:21:17 16.9 C 20 %
1240 04-04-2020 15:31:17 19.1 C 20 %
1241 04-04-2020 15:41:17 19.8 C 20 %
1242 04-04-2020 15:51:17 17.4 C 20 %
1243 04-04-2020 16:01:17 19.9 C 20 %
1244 04-04-2020 16:11:17 19.3 C 20 %
1245 04-04-2020 16:21:17 18.7 C 20 %
1246 04-04-2020 16:31:17 19.3 C 20 %
1247 04-04-2020 16:41:17 20.5 C 20 %
1248 04-04-2020 16:51:17 20.4 C 20 %
1249 04-04-2020 17:01:17 20.3 C 20 %
1250 04-04-2020 17:11:17 20.1 C 20 %
Sensor: Nr:Datum:Temp:Feuchte:
Aussen-T/F 1251 04-04-2020 17:21:17 20.5 C 20 %
1252 04-04-2020 17:31:17 19.2 C 20 %
1253 04-04-2020 17:41:17 18.7 C 20 %
1254 04-04-2020 17:51:18 17.8 C 20 %
1255 04-04-2020 18:01:17 16.8 C 20 %
1256 04-04-2020 18:11:17 16.2 C 20 %
1257 04-04-2020 18:21:17 15.4 C 20 %
1258 04-04-2020 18:31:17 15.4 C 20 %
1259 04-04-2020 18:41:17 15.6 C 20 %
1260 04-04-2020 18:51:17 15.1 C 20 %
1261 04-04-2020 19:01:17 14.9 C 20 %
1262 04-04-2020 19:11:17 14.4 C 20 %
1263 04-04-2020 19:21:17 14 C 20 %
1264 04-04-2020 19:31:17 13.9 C 20 %
1265 04-04-2020 19:41:17 12.6 C 20 %
1266 04-04-2020 19:51:17 11.5 C 20 %
1267 04-04-2020 20:01:17 11.3 C 20 %
1268 04-04-2020 20:11:17 10.7 C 20 %
1269 04-04-2020 20:21:17 10.3 C 21 %
1270 04-04-2020 20:31:17 9.8 C 25 %
1271 04-04-2020 20:41:17 9.5 C 23 %
1272 04-04-2020 20:51:17 9.2 C 25 %
1273 04-04-2020 21:01:17 9.2 C 21 %
1274 04-04-2020 21:11:17 8.7 C 25 %
1275 04-04-2020 21:21:17 8.8 C 25 %
Sensor: Nr:Datum:Temp:Feuchte:
Aussen-T/F 1276 04-04-2020 21:31:17 8.5 C 25 %
1277 04-04-2020 21:41:17 8.2 C 25 %
1278 04-04-2020 21:51:17 7.1 C 28 %
1279 04-04-2020 22:01:18 5.8 C 31 %
1280 04-04-2020 22:11:18 5.5 C 32 %
1281 04-04-2020 22:21:18 5.1 C 32 %
1282 04-04-2020 22:31:17 4.8 C 35 %
1283 04-04-2020 22:41:17 4.7 C 34 %
1284 04-04-2020 22:51:17 4.6 C 34 %
1285 04-04-2020 23:01:17 4.4 C 34 %
1286 04-04-2020 23:11:17 4.1 C 34 %
1287 04-04-2020 23:21:17 3.9 C 35 %
1288 04-04-2020 23:31:17 3.6 C 36 %
1289 04-04-2020 23:41:17 3.5 C 36 %
1290 04-04-2020 23:51:17 3.4 C 37 %
1291 05-04-2020 00:01:17 3 C 37 %
1292 05-04-2020 00:11:17 2.9 C 38 %
1293 05-04-2020 00:21:17 2.8 C 39 %
1294 05-04-2020 00:31:17 2.5 C 39 %
1295 05-04-2020 00:41:17 2.5 C 40 %
1296 05-04-2020 00:51:18 2.4 C 40 %
1297 05-04-2020 01:01:18 2.3 C 40 %
1298 05-04-2020 01:11:18 2.3 C 40 %
1299 05-04-2020 01:21:17 2.2 C 40 %
1300 05-04-2020 01:31:18 2.1 C 41 %
Sensor: Nr:Datum:Temp:Feuchte:
Aussen-T/F 1301 05-04-2020 01:41:18 1.9 C 42 %
1302 05-04-2020 01:51:17 1.8 C 42 %
1303 05-04-2020 02:01:18 1.6 C 42 %
1304 05-04-2020 02:11:18 1.3 C 42 %
1305 05-04-2020 02:21:17 1.4 C 43 %
1306 05-04-2020 02:31:18 1.4 C 43 %
1307 05-04-2020 02:41:18 1.1 C 43 %
1308 05-04-2020 02:51:17 1.1 C 43 %
1309 05-04-2020 03:01:18 1.3 C 43 %
1310 05-04-2020 03:11:18 1.1 C 43 %
1311 05-04-2020 03:21:17 1 C 43 %
1312 05-04-2020 03:31:17 0.7 C 45 %
1313 05-04-2020 03:41:17 0.5 C 45 %
1314 05-04-2020 03:51:17 0.7 C 45 %
1315 05-04-2020 04:01:17 0.6 C 45 %
1316 05-04-2020 04:11:17 0.4 C 45 %
1317 05-04-2020 04:21:17 0.4 C 46 %
1318 05-04-2020 04:31:17 0.2 C 46 %
1319 05-04-2020 04:41:17 0.2 C 46 %
1320 05-04-2020 04:51:17 0.2 C 46 %
1321 05-04-2020 05:01:17 0 C 46 %
1322 05-04-2020 05:11:17 -0.3 C 46 %
1323 05-04-2020 05:21:17 -0.2 C 47 %
1324 05-04-2020 05:31:17 -0.3 C 46 %
1325 05-04-2020 05:41:17 -0.4 C 47 %
Sensor: Nr:Datum:Temp:Feuchte:
Aussen-T/F 1326 05-04-2020 05:51:17 -0.5 C 47 %
1327 05-04-2020 06:01:17 -0.4 C 47 %
1328 05-04-2020 06:11:17 -0.5 C 47 %
1329 05-04-2020 06:21:17 -0.6 C 47 %
1330 05-04-2020 06:31:18 -0.8 C 48 %
1331 05-04-2020 06:41:18 -0.8 C 47 %
1332 05-04-2020 06:51:17 -0.8 C 47 %
1333 05-04-2020 07:01:18 -0.9 C 47 %
1334 05-04-2020 07:11:18 -0.7 C 48 %
1335 05-04-2020 07:21:18 -0.6 C 48 %
1336 05-04-2020 07:31:17 -0.5 C 48 %
1337 05-04-2020 07:41:17 -0.5 C 48 %
1338 05-04-2020 07:51:17 -0.4 C 48 %
1339 05-04-2020 08:01:17 -0.3 C 48 %
1340 05-04-2020 08:11:17 0 C 49 %
1341 05-04-2020 08:21:17 0.1 C 48 %
1342 05-04-2020 08:31:17 0.4 C 48 %
1343 05-04-2020 08:41:17 0.5 C 49 %
1344 05-04-2020 08:51:18 0.8 C 49 %
1345 05-04-2020 09:01:17 1.1 C 47 %
1346 05-04-2020 09:11:17 1.4 C 47 %
1347 05-04-2020 09:21:17 1.8 C 47 %
1348 05-04-2020 09:31:17 2.4 C 46 %
1349 05-04-2020 09:41:17 2.8 C 46 %
1350 05-04-2020 09:51:18 3.4 C 44 %
Sensor: Nr:Datum:Temp:Feuchte:
Aussen-T/F 1351 05-04-2020 10:01:18 3.9 C 43 %
1352 05-04-2020 10:11:18 4.5 C 41 %
1353 05-04-2020 10:21:17 5.4 C 40 %
1354 05-04-2020 10:31:17 5.9 C 40 %
1355 05-04-2020 10:41:17 7 C 38 %
1356 05-04-2020 10:51:17 7.9 C 37 %
1357 05-04-2020 11:01:17 8.6 C 36 %
1358 05-04-2020 11:11:17 10.7 C 32 %
1359 05-04-2020 11:21:17 11.2 C 30 %
1360 05-04-2020 11:31:17 13.1 C 21 %
1361 05-04-2020 11:41:17 13.9 C 20 %
1362 05-04-2020 11:51:17 14.8 C 20 %
1363 05-04-2020 12:01:17 15.6 C 20 %
1364 05-04-2020 12:11:17 15.9 C 20 %
1365 05-04-2020 12:21:17 16.7 C 20 %
1366 05-04-2020 12:31:18 17.6 C 20 %
1367 05-04-2020 12:41:18 17.4 C 20 %
1368 05-04-2020 12:51:17 17.4 C 20 %
1369 05-04-2020 13:01:17 17.2 C 20 %
1370 05-04-2020 13:11:17 18.4 C 20 %
1371 05-04-2020 13:21:17 17.5 C 20 %
1372 05-04-2020 13:31:17 17.1 C 20 %
1373 05-04-2020 13:41:17 17.9 C 20 %
1374 05-04-2020 13:51:17 17.7 C 20 %
1375 05-04-2020 14:01:17 17.9 C 20 %
Sensor: Nr:Datum:Temp:Feuchte:
Aussen-T/F 1376 05-04-2020 14:11:17 19 C 20 %
1377 05-04-2020 14:21:17 19.8 C 20 %
1378 05-04-2020 14:31:18 21.7 C 20 %
1379 05-04-2020 14:41:18 23.4 C 20 %
1380 05-04-2020 14:51:18 23.3 C 20 %
1381 05-04-2020 15:01:17 24.7 C 20 %
1382 05-04-2020 15:11:18 26.9 C 20 %
1383 05-04-2020 15:21:17 24.5 C 20 %
1384 05-04-2020 15:31:17 24.8 C 20 %
1385 05-04-2020 15:41:17 25.1 C 20 %
1386 05-04-2020 15:51:18 26.6 C 20 %
1387 05-04-2020 16:01:17 25 C 20 %
1388 05-04-2020 16:11:17 23.3 C 20 %
1389 05-04-2020 16:21:17 25.5 C 20 %
1390 05-04-2020 16:31:17 24.8 C 20 %
1391 05-04-2020 16:41:17 23.1 C 20 %
1392 05-04-2020 16:51:17 23.4 C 20 %
1393 05-04-2020 17:01:17 23.5 C 20 %
1394 05-04-2020 17:11:17 26.4 C 20 %
1395 05-04-2020 17:21:17 25.9 C 20 %
1396 05-04-2020 17:31:17 24.4 C 20 %
1397 05-04-2020 17:41:17 24.2 C 20 %
1398 05-04-2020 17:51:17 23.6 C 20 %
1399 05-04-2020 18:01:17 20.8 C 20 %
1400 05-04-2020 18:11:17 19.7 C 20 %
Sensor: Nr:Datum:Temp:Feuchte:
Aussen-T/F 1401 05-04-2020 18:21:17 20 C 20 %
1402 05-04-2020 18:31:17 19.7 C 20 %
1403 05-04-2020 18:41:17 19.4 C 20 %
1404 05-04-2020 18:51:17 18.9 C 20 %
1405 05-04-2020 19:01:17 18.8 C 20 %
1406 05-04-2020 19:11:17 18.4 C 20 %
1407 05-04-2020 19:21:17 18 C 20 %
1408 05-04-2020 19:31:18 17.5 C 20 %
1409 05-04-2020 19:41:18 16.3 C 20 %
1410 05-04-2020 19:51:17 15 C 20 %
1411 05-04-2020 20:01:18 14.3 C 20 %
1412 05-04-2020 20:11:18 14.1 C 20 %
1413 05-04-2020 20:21:17 13.5 C 20 %
1414 05-04-2020 20:31:17 13.3 C 20 %
1415 05-04-2020 20:41:17 13 C 20 %
1416 05-04-2020 20:51:17 12.7 C 20 %
1417 05-04-2020 21:01:18 12.3 C 20 %
1418 05-04-2020 21:11:18 12 C 20 %
1419 05-04-2020 21:21:17 12.1 C 20 %
1420 05-04-2020 21:31:17 11.7 C 20 %
1421 05-04-2020 21:41:17 11.5 C 20 %
1422 05-04-2020 21:51:17 10.3 C 20 %
1423 05-04-2020 22:01:17 10.5 C 20 %
1424 05-04-2020 22:11:17 9.2 C 25 %
1425 05-04-2020 22:21:17 8.9 C 26 %
Sensor: Nr:Datum:Temp:Feuchte:
Aussen-T/F 1426 05-04-2020 22:31:17 8.8 C 26 %
1427 05-04-2020 22:41:17 8.4 C 27 %
1428 05-04-2020 22:51:17 8.2 C 27 %
1429 05-04-2020 23:01:17 8 C 28 %
1430 05-04-2020 23:11:17 7.4 C 30 %
1431 05-04-2020 23:21:17 7.4 C 29 %
1432 05-04-2020 23:31:17 7 C 30 %
1433 05-04-2020 23:41:17 6.7 C 31 %
1434 05-04-2020 23:51:17 6.3 C 31 %
1435 06-04-2020 00:01:17 6.2 C 32 %
1436 06-04-2020 00:11:17 6.3 C 32 %
1437 06-04-2020 00:21:17 6.3 C 32 %
1438 06-04-2020 00:31:18 6 C 32 %
1439 06-04-2020 00:41:18 5.6 C 33 %
1440 06-04-2020 00:51:17 5.6 C 34 %
1441 06-04-2020 01:01:18 5.4 C 35 %
1442 06-04-2020 01:11:18 5.3 C 35 %
1443 06-04-2020 01:21:17 5.1 C 35 %
1444 06-04-2020 01:31:17 4.8 C 36 %
1445 06-04-2020 01:41:17 4.7 C 36 %
1446 06-04-2020 01:51:17 4.6 C 36 %
1447 06-04-2020 02:01:17 4.5 C 37 %
1448 06-04-2020 02:11:17 4.1 C 37 %
1449 06-04-2020 02:21:17 4.2 C 37 %
1450 06-04-2020 02:31:17 4 C 37 %
Sensor: Nr:Datum:Temp:Feuchte:
Aussen-T/F 1451 06-04-2020 02:41:17 4.1 C 37 %
1452 06-04-2020 02:51:17 3.8 C 38 %
1453 06-04-2020 03:01:17 3.9 C 39 %
1454 06-04-2020 03:11:17 3.6 C 39 %
1455 06-04-2020 03:21:17 3.3 C 39 %
1456 06-04-2020 03:31:18 3.3 C 40 %
1457 06-04-2020 03:41:18 3.2 C 40 %
1458 06-04-2020 03:51:17 3.3 C 40 %
1459 06-04-2020 04:01:17 3.2 C 40 %
1460 06-04-2020 04:11:17 3.3 C 40 %
1461 06-04-2020 04:21:17 3.1 C 40 %
1462 06-04-2020 04:31:17 2.8 C 40 %
1463 06-04-2020 04:41:17 2.6 C 41 %
1464 06-04-2020 04:51:17 2.5 C 41 %
1465 06-04-2020 05:01:17 2.4 C 41 %
1466 06-04-2020 05:11:17 2.3 C 41 %
1467 06-04-2020 05:21:18 2.2 C 41 %
1468 06-04-2020 05:31:17 1.9 C 42 %
1469 06-04-2020 05:41:17 1.8 C 43 %
1470 06-04-2020 05:51:17 1.7 C 43 %
1471 06-04-2020 06:01:17 1.6 C 44 %
1472 06-04-2020 06:11:17 1.5 C 44 %
1473 06-04-2020 06:21:18 1.3 C 45 %
1474 06-04-2020 06:31:17 1.2 C 45 %
1475 06-04-2020 06:41:18 1.3 C 45 %
Sensor: Nr:Datum:Temp:Feuchte:
Aussen-T/F 1476 06-04-2020 06:51:17 1.3 C 45 %
1477 06-04-2020 07:01:17 1.4 C 45 %
1478 06-04-2020 07:11:17 1.5 C 45 %
1479 06-04-2020 07:21:17 1.6 C 45 %
1480 06-04-2020 07:31:18 1.5 C 45 %
1481 06-04-2020 07:41:18 1.6 C 45 %
1482 06-04-2020 07:51:17 2 C 45 %
1483 06-04-2020 08:01:17 1.9 C 45 %
1484 06-04-2020 08:11:17 2.2 C 44 %
1485 06-04-2020 08:21:17 2.5 C 44 %
1486 06-04-2020 08:31:17 3 C 42 %
1487 06-04-2020 08:41:17 3.2 C 42 %
1488 06-04-2020 08:51:17 3.4 C 41 %
1489 06-04-2020 09:01:18 3.5 C 41 %
1490 06-04-2020 09:11:18 3.4 C 41 %
1491 06-04-2020 09:21:17 3.9 C 41 %
1492 06-04-2020 09:31:17 4.3 C 40 %
1493 06-04-2020 09:41:17 4.8 C 40 %
1494 06-04-2020 09:51:18 5.2 C 40 %
1495 06-04-2020 10:01:18 6 C 38 %
1496 06-04-2020 10:11:18 6.5 C 37 %
1497 06-04-2020 10:21:17 7.2 C 36 %
1498 06-04-2020 10:31:17 7.9 C 36 %
1499 06-04-2020 10:41:17 8.8 C 35 %
1500 06-04-2020 10:51:17 9.8 C 34 %
Sensor: Nr:Datum:Temp:Feuchte:
Aussen-T/F 1501 06-04-2020 11:01:17 11.1 C 31 %
1502 06-04-2020 11:11:18 12.2 C 29 %
1503 06-04-2020 11:21:17 13.3 C 26 %
1504 06-04-2020 11:31:17 16 C 20 %
1505 06-04-2020 11:41:17 17.1 C 20 %
1506 06-04-2020 11:51:18 17.6 C 20 %
1507 06-04-2020 12:01:18 18.1 C 20 %
1508 06-04-2020 12:11:18 18.6 C 20 %
1509 06-04-2020 12:21:17 20.3 C 20 %
1510 06-04-2020 12:31:17 21 C 20 %
1511 06-04-2020 12:41:17 19.4 C 20 %
1512 06-04-2020 12:51:17 20.2 C 20 %
1513 06-04-2020 13:01:17 20.6 C 20 %
1514 06-04-2020 13:11:17 20.8 C 20 %
1515 06-04-2020 13:21:17 20.4 C 20 %
1516 06-04-2020 13:31:18 20.3 C 20 %
1517 06-04-2020 13:41:18 21.2 C 20 %
1518 06-04-2020 13:51:17 21.3 C 20 %
1519 06-04-2020 14:01:18 22.3 C 20 %
1520 06-04-2020 14:11:18 22.3 C 20 %
1521 06-04-2020 14:21:17 23.7 C 20 %
1522 06-04-2020 14:31:17 26.8 C 20 %
1523 06-04-2020 14:41:17 27.4 C 20 %
1524 06-04-2020 14:51:18 28.3 C 20 %
1525 06-04-2020 15:01:17 28 C 20 %
Sensor: Nr:Datum:Temp:Feuchte:
Aussen-T/F 1526 06-04-2020 15:11:17 26.6 C 20 %
1527 06-04-2020 15:21:17 27.1 C 20 %
1528 06-04-2020 15:31:17 25.8 C 20 %
1529 06-04-2020 15:41:17 26.9 C 20 %
1530 06-04-2020 15:51:17 27.9 C 20 %
1531 06-04-2020 16:01:17 29.7 C 20 %
1532 06-04-2020 16:11:17 27.4 C 20 %
1533 06-04-2020 16:21:18 27.4 C 20 %
1534 06-04-2020 16:31:18 28.3 C 20 %
1535 06-04-2020 16:41:18 28.5 C 20 %
1536 06-04-2020 16:51:17 27.1 C 20 %
1537 06-04-2020 17:01:17 27.6 C 20 %
1538 06-04-2020 17:11:17 26 C 20 %
1539 06-04-2020 17:21:17 26.7 C 20 %
1540 06-04-2020 17:31:17 25.7 C 20 %
1541 06-04-2020 17:41:17 25.5 C 20 %
1542 06-04-2020 17:51:17 24.2 C 20 %
1543 06-04-2020 18:01:17 23.3 C 20 %
1544 06-04-2020 18:11:17 23.1 C 20 %
1545 06-04-2020 18:21:17 22.6 C 20 %
1546 06-04-2020 18:31:18 22.6 C 20 %
1547 06-04-2020 18:41:18 22.3 C 20 %
1548 06-04-2020 18:51:17 22 C 20 %
1549 06-04-2020 19:01:17 21.7 C 20 %
1550 06-04-2020 19:11:17 21.1 C 20 %
Sensor: Nr:Datum:Temp:Feuchte:
Aussen-T/F 1551 06-04-2020 19:21:17 20.5 C 20 %
1552 06-04-2020 19:31:17 20.2 C 20 %
1553 06-04-2020 19:41:17 19.1 C 20 %
1554 06-04-2020 19:51:17 18.3 C 20 %
1555 06-04-2020 20:01:18 16.4 C 20 %
1556 06-04-2020 20:11:18 16.3 C 20 %
1557 06-04-2020 20:21:17 15.8 C 20 %
1558 06-04-2020 20:31:17 15.3 C 20 %
1559 06-04-2020 20:41:18 15.1 C 20 %
1560 06-04-2020 20:51:17 13.7 C 20 %
1561 06-04-2020 21:01:18 13.2 C 20 %
1562 06-04-2020 21:11:18 12.9 C 20 %
1563 06-04-2020 21:21:17 12 C 20 %
1564 06-04-2020 21:31:18 11.8 C 22 %
1565 06-04-2020 21:41:18 11.6 C 22 %
1566 06-04-2020 21:51:17 11.1 C 22 %
1567 06-04-2020 22:01:17 10.8 C 25 %
1568 06-04-2020 22:11:17 10.6 C 25 %
1569 06-04-2020 22:21:17 10.2 C 25 %
1570 06-04-2020 22:31:17 10 C 26 %
1571 06-04-2020 22:41:17 10 C 26 %
1572 06-04-2020 22:51:17 9.9 C 26 %
1573 06-04-2020 23:01:18 9.8 C 26 %
1574 06-04-2020 23:11:18 9.6 C 26 %
1575 06-04-2020 23:21:17 9.5 C 27 %
Sensor: Nr:Datum:Temp:Feuchte:
Aussen-T/F 1576 06-04-2020 23:31:17 9.4 C 27 %
1577 06-04-2020 23:41:17 9.2 C 27 %
1578 06-04-2020 23:51:17 9.5 C 29 %
1579 07-04-2020 00:01:17 10.2 C 26 %
1580 07-04-2020 00:11:17 9.1 C 29 %
1581 07-04-2020 00:21:18 8.7 C 30 %
1582 07-04-2020 00:31:17 8.8 C 30 %
1583 07-04-2020 00:41:17 9 C 30 %
1584 07-04-2020 00:51:17 8.6 C 30 %
1585 07-04-2020 01:01:17 8.7 C 30 %
1586 07-04-2020 01:11:17 9.1 C 30 %
1587 07-04-2020 01:21:17 9.4 C 30 %
1588 07-04-2020 01:31:17 9.8 C 30 %
1589 07-04-2020 01:41:17 10.1 C 30 %
1590 07-04-2020 01:51:18 10 C 29 %
1591 07-04-2020 02:01:18 9.2 C 30 %
1592 07-04-2020 02:11:18 8.8 C 31 %
1593 07-04-2020 02:21:17 8.2 C 33 %
1594 07-04-2020 02:31:17 7.9 C 34 %
1595 07-04-2020 02:41:17 7.5 C 34 %
1596 07-04-2020 02:51:17 7.2 C 35 %
1597 07-04-2020 03:01:17 7.3 C 35 %
1598 07-04-2020 03:11:17 7.6 C 35 %
1599 07-04-2020 03:21:17 7.9 C 35 %
1600 07-04-2020 03:31:17 8 C 35 %
Sensor: Nr:Datum:Temp:Feuchte:
Aussen-T/F 1601 07-04-2020 03:41:17 7.7 C 36 %
1602 07-04-2020 03:51:17 7.8 C 35 %
1603 07-04-2020 04:01:17 7.8 C 36 %
1604 07-04-2020 04:11:17 7.6 C 36 %
1605 07-04-2020 04:21:17 7.4 C 36 %
1606 07-04-2020 04:31:17 7.2 C 36 %
1607 07-04-2020 04:41:18 6.9 C 37 %
1608 07-04-2020 04:51:17 6.8 C 37 %
1609 07-04-2020 05:01:17 6.3 C 38 %
1610 07-04-2020 05:11:17 6.1 C 38 %
1611 07-04-2020 05:21:18 5.9 C 40 %
1612 07-04-2020 05:31:17 5.8 C 40 %
1613 07-04-2020 05:41:17 5.7 C 40 %
1614 07-04-2020 05:51:17 5.6 C 41 %
1615 07-04-2020 06:01:17 5.6 C 41 %
1616 07-04-2020 06:11:17 5.2 C 40 %
1617 07-04-2020 06:21:17 5.3 C 41 %
1618 07-04-2020 06:31:17 5.2 C 41 %
1619 07-04-2020 06:41:17 5 C 41 %
1620 07-04-2020 06:51:17 4.8 C 42 %
1621 07-04-2020 07:01:18 4.8 C 43 %
1622 07-04-2020 07:11:18 4.7 C 43 %
1623 07-04-2020 07:21:18 4.8 C 44 %
1624 07-04-2020 07:31:17 5 C 43 %
1625 07-04-2020 07:41:18 5.7 C 43 %
Sensor: Nr:Datum:Temp:Feuchte:
Aussen-T/F 1626 07-04-2020 07:51:17 5.8 C 42 %
1627 07-04-2020 08:01:17 5.7 C 41 %
1628 07-04-2020 08:11:18 5.8 C 41 %
1629 07-04-2020 08:21:17 6 C 41 %
1630 07-04-2020 08:31:17 6 C 41 %
1631 07-04-2020 08:41:17 6.3 C 41 %
1632 07-04-2020 08:51:17 6.6 C 41 %
1633 07-04-2020 09:01:17 7.1 C 40 %
1634 07-04-2020 09:11:17 7.3 C 40 %
1635 07-04-2020 09:21:17 7.5 C 40 %
1636 07-04-2020 09:31:17 8 C 39 %
1637 07-04-2020 09:41:18 8.9 C 39 %
1638 07-04-2020 09:51:17 9.3 C 37 %
1639 07-04-2020 10:01:17 9.4 C 38 %
1640 07-04-2020 10:11:18 10 C 37 %
1641 07-04-2020 10:21:17 10.7 C 37 %
1642 07-04-2020 10:31:18 11.4 C 36 %
1643 07-04-2020 10:41:18 12.3 C 35 %
1644 07-04-2020 10:51:17 13.1 C 33 %
1645 07-04-2020 11:01:17 14 C 31 %
1646 07-04-2020 11:11:17 14.6 C 31 %
1647 07-04-2020 11:21:17 15.2 C 30 %
1648 07-04-2020 11:31:17 16 C 28 %
1649 07-04-2020 11:41:17 16.5 C 27 %
1650 07-04-2020 11:51:17 16.9 C 27 %
Sensor: Nr:Datum:Temp:Feuchte:
Aussen-T/F 1651 07-04-2020 12:01:17 17.2 C 26 %
1652 07-04-2020 12:11:17 17.7 C 25 %
1653 07-04-2020 12:21:18 18.7 C 23 %
1654 07-04-2020 12:31:17 20.9 C 21 %
1655 07-04-2020 12:41:17 19.6 C 20 %
1656 07-04-2020 12:51:18 19.6 C 20 %
1657 07-04-2020 13:01:17 20.7 C 20 %
1658 07-04-2020 13:11:17 21.3 C 20 %
1659 07-04-2020 13:21:17 20.8 C 20 %
1660 07-04-2020 13:31:17 19.8 C 20 %
1661 07-04-2020 13:41:17 20.4 C 20 %
1662 07-04-2020 13:51:18 20.6 C 20 %
1663 07-04-2020 14:01:17 21.1 C 20 %
1664 07-04-2020 14:11:17 22 C 20 %
1665 07-04-2020 14:21:17 23.6 C 20 %
1666 07-04-2020 14:31:17 26.2 C 20 %
1667 07-04-2020 14:41:17 22.9 C 20 %
1668 07-04-2020 14:51:17 26.7 C 20 %
1669 07-04-2020 15:01:17 26.4 C 20 %
1670 07-04-2020 15:11:17 27.1 C 20 %
1671 07-04-2020 15:21:17 30.1 C 20 %
1672 07-04-2020 15:31:17 28.4 C 20 %
1673 07-04-2020 15:41:18 27.2 C 20 %
1674 07-04-2020 15:51:17 26.6 C 20 %
1675 07-04-2020 16:01:17 27.4 C 20 %
Sensor: Nr:Datum:Temp:Feuchte:
Aussen-T/F 1676 07-04-2020 16:11:17 25.1 C 20 %
1677 07-04-2020 16:21:17 27.8 C 20 %
1678 07-04-2020 16:31:17 23.9 C 20 %
1679 07-04-2020 16:41:18 24.3 C 20 %
1680 07-04-2020 16:51:18 29.2 C 20 %
1681 07-04-2020 17:01:17 31 C 20 %
1682 07-04-2020 17:11:17 25 C 20 %
1683 07-04-2020 17:21:17 24.2 C 20 %
1684 07-04-2020 17:31:18 24.2 C 20 %
1685 07-04-2020 17:41:18 26.9 C 20 %
1686 07-04-2020 17:51:18 24.6 C 20 %
1687 07-04-2020 18:01:17 23.7 C 20 %
1688 07-04-2020 18:11:17 23.7 C 20 %
1689 07-04-2020 18:21:17 22.9 C 20 %
1690 07-04-2020 18:31:17 22.7 C 20 %
1691 07-04-2020 18:41:17 22.3 C 20 %
1692 07-04-2020 18:51:17 22 C 20 %
1693 07-04-2020 19:01:17 21.8 C 20 %
1694 07-04-2020 19:11:18 21 C 20 %
1695 07-04-2020 19:21:17 20 C 20 %
1696 07-04-2020 19:31:17 19.1 C 20 %
1697 07-04-2020 19:41:17 18.4 C 20 %
1698 07-04-2020 19:51:17 18.3 C 20 %
1699 07-04-2020 20:01:18 17.6 C 20 %
1700 07-04-2020 20:11:18 17.3 C 20 %
Sensor: Nr:Datum:Temp:Feuchte:
Aussen-T/F 1701 07-04-2020 20:21:17 17.1 C 20 %
1702 07-04-2020 20:31:17 16.8 C 20 %
1703 07-04-2020 20:41:17 16.5 C 20 %
1704 07-04-2020 20:51:17 16.3 C 20 %
1705 07-04-2020 21:01:17 16.1 C 20 %
1706 07-04-2020 21:11:17 15.9 C 20 %
1707 07-04-2020 21:21:18 15.8 C 20 %
1708 07-04-2020 21:31:17 15.4 C 21 %
1709 07-04-2020 21:41:17 15.2 C 21 %
1710 07-04-2020 21:51:17 15.1 C 22 %
1711 07-04-2020 22:01:18 14.6 C 25 %
1712 07-04-2020 22:11:18 13.1 C 27 %
1713 07-04-2020 22:21:17 12.9 C 29 %
1714 07-04-2020 22:31:17 12.7 C 30 %
1715 07-04-2020 22:41:17 12.7 C 30 %
1716 07-04-2020 22:51:18 12.7 C 30 %
1717 07-04-2020 23:01:18 12.7 C 30 %
1718 07-04-2020 23:11:18 12.6 C 30 %
1719 07-04-2020 23:21:17 13.1 C 29 %
1720 07-04-2020 23:31:17 12.8 C 30 %
1721 07-04-2020 23:41:17 12.8 C 30 %
1722 07-04-2020 23:51:17 12.3 C 31 %
1723 08-04-2020 00:01:17 11.7 C 33 %
1724 08-04-2020 00:11:17 11.7 C 33 %
1725 08-04-2020 00:21:17 11.5 C 33 %
Sensor: Nr:Datum:Temp:Feuchte:
Aussen-T/F 1726 08-04-2020 00:31:17 11.5 C 33 %
1727 08-04-2020 00:41:17 11.2 C 34 %
1728 08-04-2020 00:51:18 10.8 C 35 %
1729 08-04-2020 01:01:17 10.8 C 36 %
1730 08-04-2020 01:11:17 10.9 C 35 %
1731 08-04-2020 01:21:17 10.4 C 36 %
1732 08-04-2020 01:31:18 10.2 C 36 %
1733 08-04-2020 01:41:18 9.9 C 37 %
1734 08-04-2020 01:51:17 9.6 C 38 %
1735 08-04-2020 02:01:18 9.2 C 38 %
1736 08-04-2020 02:11:18 8.7 C 39 %
1737 08-04-2020 02:21:17 8.5 C 40 %
1738 08-04-2020 02:31:17 8.2 C 40 %
1739 08-04-2020 02:41:18 8 C 40 %
1740 08-04-2020 02:51:17 7.7 C 41 %
1741 08-04-2020 03:01:18 7.4 C 41 %
1742 08-04-2020 03:11:18 7.1 C 41 %
1743 08-04-2020 03:21:17 7.1 C 42 %
1744 08-04-2020 03:31:17 7.1 C 42 %
1745 08-04-2020 03:41:17 6.8 C 43 %
1746 08-04-2020 03:51:17 6.7 C 43 %
1747 08-04-2020 04:01:17 6.6 C 44 %
1748 08-04-2020 04:11:18 6.7 C 44 %
1749 08-04-2020 04:21:17 6.3 C 44 %
1750 08-04-2020 04:31:17 6.3 C 45 %
Sensor: Nr:Datum:Temp:Feuchte:
Aussen-T/F 1751 08-04-2020 04:41:17 6.4 C 45 %
1752 08-04-2020 04:51:17 6.3 C 45 %
1753 08-04-2020 05:01:18 6.1 C 44 %
1754 08-04-2020 05:11:18 5.9 C 45 %
1755 08-04-2020 05:21:17 5.6 C 45 %
1756 08-04-2020 05:31:17 5.4 C 45 %
1757 08-04-2020 05:41:18 5.4 C 45 %
1758 08-04-2020 05:51:17 5.4 C 46 %
1759 08-04-2020 06:01:17 5.3 C 46 %
1760 08-04-2020 06:11:17 5.4 C 46 %
1761 08-04-2020 06:21:17 5.3 C 46 %
1762 08-04-2020 06:31:17 5.3 C 46 %
1763 08-04-2020 06:41:17 5.1 C 46 %
1764 08-04-2020 06:51:18 5 C 46 %
1765 08-04-2020 07:01:18 5 C 46 %
1766 08-04-2020 07:11:18 5.1 C 46 %
1767 08-04-2020 07:21:17 5.2 C 46 %
1768 08-04-2020 07:31:17 5.3 C 46 %
1769 08-04-2020 07:41:17 5.4 C 46 %
1770 08-04-2020 07:51:17 5.8 C 46 %
1771 08-04-2020 08:01:17 5.7 C 46 %
1772 08-04-2020 08:11:17 6 C 46 %
1773 08-04-2020 08:21:17 6.3 C 46 %
1774 08-04-2020 08:31:18 6.3 C 46 %
1775 08-04-2020 08:41:18 6.5 C 46 %
Sensor: Nr:Datum:Temp:Feuchte:
Aussen-T/F 1776 08-04-2020 08:51:18 6.7 C 46 %
1777 08-04-2020 09:01:18 7 C 45 %
1778 08-04-2020 09:11:18 7.1 C 45 %
1779 08-04-2020 09:21:17 7.6 C 45 %
1780 08-04-2020 09:31:17 7.9 C 45 %
1781 08-04-2020 09:41:17 8.3 C 45 %
1782 08-04-2020 09:51:17 8.7 C 44 %
1783 08-04-2020 10:01:17 9.1 C 43 %
1784 08-04-2020 10:11:17 9.7 C 43 %
1785 08-04-2020 10:21:17 10.2 C 41 %
1786 08-04-2020 10:31:18 11 C 40 %
1787 08-04-2020 10:41:18 11.8 C 39 %
1788 08-04-2020 10:51:18 12.6 C 38 %
1789 08-04-2020 11:01:18 13.7 C 36 %
1790 08-04-2020 11:11:18 14.5 C 35 %
1791 08-04-2020 11:21:17 15.5 C 34 %
1792 08-04-2020 11:31:18 16.2 C 32 %
1793 08-04-2020 11:41:18 17.6 C 27 %
1794 08-04-2020 11:51:17 18.6 C 25 %
1795 08-04-2020 12:01:18 19.2 C 22 %
1796 08-04-2020 12:11:18 20.1 C 21 %
1797 08-04-2020 12:21:17 21.2 C 20 %
1798 08-04-2020 12:31:17 22.4 C 20 %
1799 08-04-2020 12:41:17 22.9 C 20 %
1800 08-04-2020 12:51:17 21.8 C 20 %
Sensor: Nr:Datum:Temp:Feuchte:
Aussen-T/F 1801 08-04-2020 13:01:18 22.9 C 20 %
1802 08-04-2020 13:11:18 22.4 C 20 %
1803 08-04-2020 13:21:17 22.1 C 20 %
1804 08-04-2020 13:31:18 22.3 C 20 %
1805 08-04-2020 13:41:18 23.3 C 20 %
1806 08-04-2020 13:51:17 22.6 C 20 %
1807 08-04-2020 14:01:18 23 C 20 %
1808 08-04-2020 14:11:18 23.7 C 20 %
1809 08-04-2020 14:21:17 24.8 C 20 %
1810 08-04-2020 14:31:18 28.3 C 20 %
1811 08-04-2020 14:41:18 28.9 C 20 %
1812 08-04-2020 14:51:17 28.7 C 20 %
1813 08-04-2020 15:01:17 28.7 C 20 %
1814 08-04-2020 15:11:17 30.1 C 20 %
1815 08-04-2020 15:21:18 29.3 C 20 %
1816 08-04-2020 15:31:17 29.5 C 20 %
1817 08-04-2020 15:41:17 29.1 C 20 %
1818 08-04-2020 15:51:17 32.2 C 20 %
1819 08-04-2020 16:01:17 31.1 C 20 %
1820 08-04-2020 16:11:17 29.7 C 20 %
1821 08-04-2020 16:21:18 30.7 C 20 %
1822 08-04-2020 16:31:17 29 C 20 %
1823 08-04-2020 16:41:17 32.6 C 20 %
1824 08-04-2020 16:51:17 29.7 C 20 %
1825 08-04-2020 17:01:17 29.4 C 20 %
Sensor: Nr:Datum:Temp:Feuchte:
Aussen-T/F 1826 08-04-2020 17:11:17 29.7 C 20 %
1827 08-04-2020 17:21:17 30.1 C 20 %
1828 08-04-2020 17:31:17 30.1 C 20 %
1829 08-04-2020 17:41:17 29 C 20 %
1830 08-04-2020 17:51:17 28.1 C 20 %
1831 08-04-2020 18:01:17 26.6 C 20 %
1832 08-04-2020 18:11:17 25.2 C 20 %
1833 08-04-2020 18:21:17 24.7 C 20 %
1834 08-04-2020 18:31:18 24.3 C 20 %
1835 08-04-2020 18:41:18 24.1 C 20 %
1836 08-04-2020 18:51:17 23.8 C 20 %
1837 08-04-2020 19:01:17 23.2 C 20 %
1838 08-04-2020 19:11:17 22.6 C 20 %
1839 08-04-2020 19:21:17 21.4 C 20 %
1840 08-04-2020 19:31:17 20.1 C 20 %
1841 08-04-2020 19:41:17 19.7 C 20 %
1842 08-04-2020 19:51:17 19.2 C 20 %
1843 08-04-2020 20:01:17 18.5 C 20 %
1844 08-04-2020 20:11:17 18 C 20 %
1845 08-04-2020 20:21:18 17.5 C 20 %
1846 08-04-2020 20:31:17 17 C 20 %
1847 08-04-2020 20:41:18 16.2 C 20 %
1848 08-04-2020 20:51:17 15.6 C 20 %
1849 08-04-2020 21:01:18 14.6 C 20 %
1850 08-04-2020 21:11:18 13.9 C 20 %
Sensor: Nr:Datum:Temp:Feuchte:
Aussen-T/F 1851 08-04-2020 21:21:17 14.2 C 20 %
1852 08-04-2020 21:31:17 13.7 C 20 %
1853 08-04-2020 21:41:17 13.5 C 20 %
1854 08-04-2020 21:51:17 13.4 C 20 %
1855 08-04-2020 22:01:17 12.9 C 21 %
1856 08-04-2020 22:11:18 12.7 C 21 %
1857 08-04-2020 22:21:17 12.5 C 24 %
1858 08-04-2020 22:31:17 12.2 C 25 %
1859 08-04-2020 22:41:17 11.8 C 26 %
1860 08-04-2020 22:51:18 11.6 C 26 %
1861 08-04-2020 23:01:17 12 C 25 %
1862 08-04-2020 23:11:17 11.5 C 26 %
1863 08-04-2020 23:21:17 10.9 C 28 %
1864 08-04-2020 23:31:17 10.5 C 29 %
1865 08-04-2020 23:41:17 10.7 C 28 %
1866 08-04-2020 23:51:17 11.2 C 28 %
1867 09-04-2020 00:01:18 10.7 C 29 %
1868 09-04-2020 00:11:18 10.7 C 29 %
1869 09-04-2020 00:21:17 10.3 C 30 %
1870 09-04-2020 00:31:18 10 C 30 %
1871 09-04-2020 00:41:18 10.5 C 30 %
1872 09-04-2020 00:51:17 10.5 C 30 %
1873 09-04-2020 01:01:17 10 C 30 %
1874 09-04-2020 01:11:17 9.6 C 31 %
1875 09-04-2020 01:21:17 9.2 C 32 %
Sensor: Nr:Datum:Temp:Feuchte:
Aussen-T/F 1876 09-04-2020 01:31:17 9.9 C 33 %
1877 09-04-2020 01:41:17 9.3 C 33 %
1878 09-04-2020 01:51:17 9.6 C 33 %
1879 09-04-2020 02:01:17 8.8 C 35 %
1880 09-04-2020 02:11:17 9.1 C 34 %
1881 09-04-2020 02:21:18 9 C 34 %
1882 09-04-2020 02:31:18 8.8 C 35 %
1883 09-04-2020 02:41:18 8.7 C 35 %
1884 09-04-2020 02:51:17 8.8 C 35 %
1885 09-04-2020 03:01:17 9.2 C 34 %
1886 09-04-2020 03:11:17 9.7 C 33 %
1887 09-04-2020 03:21:17 9.5 C 33 %
1888 09-04-2020 03:31:17 9.4 C 34 %
1889 09-04-2020 03:41:17 9.5 C 34 %
1890 09-04-2020 03:51:17 10.2 C 32 %
1891 09-04-2020 04:01:17 9.9 C 34 %
1892 09-04-2020 04:11:17 10.1 C 33 %
1893 09-04-2020 04:21:17 10 C 33 %
1894 09-04-2020 04:31:18 9.4 C 34 %
1895 09-04-2020 04:41:18 9.3 C 35 %
1896 09-04-2020 04:51:17 8.9 C 35 %
1897 09-04-2020 05:01:17 8.7 C 36 %
1898 09-04-2020 05:11:17 8.6 C 35 %
1899 09-04-2020 05:21:17 8.5 C 36 %
1900 09-04-2020 05:31:18 8.2 C 36 %
Sensor: Nr:Datum:Temp:Feuchte:
Aussen-T/F 1901 09-04-2020 05:41:18 8.1 C 36 %
1902 09-04-2020 05:51:17 8.1 C 37 %
1903 09-04-2020 06:01:18 8.1 C 37 %
1904 09-04-2020 06:11:18 7.7 C 38 %
1905 09-04-2020 06:21:17 7.1 C 38 %
1906 09-04-2020 06:31:17 7 C 38 %
1907 09-04-2020 06:41:17 6.6 C 39 %
1908 09-04-2020 06:51:17 6.8 C 40 %
1909 09-04-2020 07:01:17 6.9 C 40 %
1910 09-04-2020 07:11:17 7.3 C 39 %
1911 09-04-2020 07:21:17 7.3 C 39 %
1912 09-04-2020 07:31:17 7 C 39 %
1913 09-04-2020 07:41:17 6.9 C 40 %
1914 09-04-2020 07:51:17 7 C 40 %
1915 09-04-2020 08:01:17 7 C 40 %
1916 09-04-2020 08:11:17 7.3 C 40 %
1917 09-04-2020 08:21:18 7.4 C 40 %
1918 09-04-2020 08:31:17 7.6 C 40 %
1919 09-04-2020 08:41:17 8 C 39 %
1920 09-04-2020 08:51:17 8.3 C 39 %
1921 09-04-2020 09:01:17 8.5 C 38 %
1922 09-04-2020 09:11:17 8.7 C 39 %
1923 09-04-2020 09:21:17 9 C 38 %
1924 09-04-2020 09:31:17 9.3 C 38 %
1925 09-04-2020 09:41:17 9.8 C 37 %
Sensor: Nr:Datum:Temp:Feuchte:
Aussen-T/F 1926 09-04-2020 09:51:17 10.4 C 36 %
1927 09-04-2020 10:01:17 10.8 C 36 %
1928 09-04-2020 10:11:17 11.2 C 35 %
1929 09-04-2020 10:21:17 11.8 C 35 %
1930 09-04-2020 10:31:17 12.6 C 34 %
1931 09-04-2020 10:41:17 13.3 C 32 %
1932 09-04-2020 10:51:18 14.6 C 31 %
1933 09-04-2020 11:01:17 15.4 C 30 %
1934 09-04-2020 11:11:18 16.2 C 28 %
1935 09-04-2020 11:21:17 17 C 25 %
1936 09-04-2020 11:31:17 17.9 C 23 %
1937 09-04-2020 11:41:17 18.5 C 21 %
1938 09-04-2020 11:51:18 19 C 20 %
1939 09-04-2020 12:01:17 19.3 C 20 %
1940 09-04-2020 12:11:17 19.8 C 20 %
1941 09-04-2020 12:21:17 20.7 C 20 %
1942 09-04-2020 12:31:17 22 C 20 %
1943 09-04-2020 12:41:17 23 C 20 %
1944 09-04-2020 12:51:18 22.3 C 20 %
1945 09-04-2020 13:01:17 23.2 C 20 %
1946 09-04-2020 13:11:17 23.3 C 20 %
1947 09-04-2020 13:21:17 22.9 C 20 %
1948 09-04-2020 13:31:17 22.4 C 20 %
1949 09-04-2020 13:41:18 22.6 C 20 %
1950 09-04-2020 13:51:17 22.8 C 20 %
Sensor: Nr:Datum:Temp:Feuchte:
Aussen-T/F 1951 09-04-2020 14:01:17 24.1 C 20 %
1952 09-04-2020 14:11:17 23.8 C 20 %
1953 09-04-2020 14:21:17 24.3 C 20 %
1954 09-04-2020 14:31:17 26.8 C 20 %
1955 09-04-2020 14:41:17 28 C 20 %
1956 09-04-2020 14:51:17 29.2 C 20 %
1957 09-04-2020 15:01:17 28.6 C 20 %
1958 09-04-2020 15:11:17 31.7 C 20 %
1959 09-04-2020 15:21:17 28.2 C 20 %
1960 09-04-2020 15:31:18 28.7 C 20 %
1961 09-04-2020 15:41:18 28.4 C 20 %
1962 09-04-2020 15:51:17 30.1 C 20 %
1963 09-04-2020 16:01:18 29.2 C 20 %
1964 09-04-2020 16:11:18 29.3 C 20 %
1965 09-04-2020 16:21:17 31.4 C 20 %
1966 09-04-2020 16:31:17 28.8 C 20 %
1967 09-04-2020 16:41:17 28.8 C 20 %
1968 09-04-2020 16:51:17 29.2 C 20 %
1969 09-04-2020 17:01:17 28.7 C 20 %
1970 09-04-2020 17:11:17 28.4 C 20 %
1971 09-04-2020 17:21:17 29.8 C 20 %
1972 09-04-2020 17:31:17 28 C 20 %
1973 09-04-2020 17:41:17 27.6 C 20 %
1974 09-04-2020 17:51:18 27.1 C 20 %
1975 09-04-2020 18:01:18 25.2 C 20 %
Sensor: Nr:Datum:Temp:Feuchte:
Aussen-T/F 1976 09-04-2020 18:11:18 24 C 20 %
1977 09-04-2020 18:21:17 23.7 C 20 %
1978 09-04-2020 18:31:17 23.4 C 20 %
1979 09-04-2020 18:41:17 23.5 C 20 %
1980 09-04-2020 18:51:17 22.9 C 20 %
1981 09-04-2020 19:01:18 22.7 C 20 %
1982 09-04-2020 19:11:18 22.4 C 20 %
1983 09-04-2020 19:21:17 21.8 C 20 %
1984 09-04-2020 19:31:17 21.1 C 20 %
1985 09-04-2020 19:41:17 20.6 C 20 %
1986 09-04-2020 19:51:17 20.1 C 20 %
1987 09-04-2020 20:01:17 19.7 C 20 %
1988 09-04-2020 20:11:17 17.9 C 20 %
1989 09-04-2020 20:21:17 16.6 C 20 %
1990 09-04-2020 20:31:17 16.6 C 20 %
1991 09-04-2020 20:41:17 16.1 C 21 %
1992 09-04-2020 20:51:17 16.4 C 20 %
1993 09-04-2020 21:01:17 16.2 C 20 %
1994 09-04-2020 21:11:17 16.4 C 20 %
1995 09-04-2020 21:21:17 16.5 C 20 %
1996 09-04-2020 21:31:17 15.9 C 21 %
1997 09-04-2020 21:41:17 15.4 C 22 %
1998 09-04-2020 21:51:17 15.5 C 22 %
1999 09-04-2020 22:01:17 15.5 C 22 %
2000 09-04-2020 22:11:17 15.2 C 22 %
Sensor: Nr:Datum:Temp:Feuchte:
Aussen-T/F 2001 09-04-2020 22:21:17 15.1 C 22 %
2002 09-04-2020 22:31:18 14.8 C 24 %
2003 09-04-2020 22:41:18 14.6 C 25 %
2004 09-04-2020 22:51:17 14.3 C 25 %
2005 09-04-2020 23:01:18 14.2 C 25 %
2006 09-04-2020 23:11:18 14.2 C 25 %
2007 09-04-2020 23:21:17 13.6 C 26 %
2008 09-04-2020 23:31:17 13.8 C 26 %
2009 09-04-2020 23:41:18 13.7 C 26 %
2010 09-04-2020 23:51:17 12.7 C 28 %
2011 10-04-2020 00:01:17 12.7 C 29 %
2012 10-04-2020 00:11:17 11.7 C 31 %
2013 10-04-2020 00:21:18 11.8 C 31 %
2014 10-04-2020 00:31:18 11.1 C 32 %
2015 10-04-2020 00:41:18 10.7 C 34 %
2016 10-04-2020 00:51:17 10.5 C 34 %
2017 10-04-2020 01:01:17 10.1 C 35 %
2018 10-04-2020 01:11:17 10 C 35 %
2019 10-04-2020 01:21:17 9.7 C 36 %
2020 10-04-2020 01:31:17 9.6 C 36 %
2021 10-04-2020 01:41:17 9.5 C 36 %
2022 10-04-2020 01:51:17 9 C 36 %
2023 10-04-2020 02:01:17 9.2 C 36 %
2024 10-04-2020 02:11:17 8.9 C 37 %
2025 10-04-2020 02:21:18 8.7 C 37 %
Sensor: Nr:Datum:Temp:Feuchte:
Aussen-T/F 2026 10-04-2020 02:31:18 8.6 C 37 %
2027 10-04-2020 02:41:18 8.3 C 38 %
2028 10-04-2020 02:51:17 8.2 C 38 %
2029 10-04-2020 03:01:18 8.3 C 38 %
2030 10-04-2020 03:11:18 7.9 C 39 %
2031 10-04-2020 03:21:17 7.6 C 39 %
2032 10-04-2020 03:31:17 7.4 C 40 %
2033 10-04-2020 03:41:17 7.2 C 40 %
2034 10-04-2020 03:51:17 7.1 C 40 %
2035 10-04-2020 04:01:18 7 C 40 %
2036 10-04-2020 04:11:18 6.8 C 41 %
2037 10-04-2020 04:21:17 6.9 C 41 %
2038 10-04-2020 04:31:17 6.6 C 41 %
2039 10-04-2020 04:41:17 6.6 C 41 %
2040 10-04-2020 04:51:18 6.6 C 41 %
2041 10-04-2020 05:01:17 6.3 C 41 %
2042 10-04-2020 05:11:17 6.3 C 42 %
2043 10-04-2020 05:21:18 6.4 C 42 %
2044 10-04-2020 05:31:17 6.2 C 42 %
2045 10-04-2020 05:41:17 5.9 C 43 %
2046 10-04-2020 05:51:17 5.7 C 43 %
2047 10-04-2020 06:01:17 5.8 C 44 %
2048 10-04-2020 06:11:17 5.8 C 44 %
2049 10-04-2020 06:21:17 5.6 C 44 %
2050 10-04-2020 06:31:18 5.4 C 44 %
Sensor: Nr:Datum:Temp:Feuchte:
Aussen-T/F 2051 10-04-2020 06:41:18 5.4 C 44 %
2052 10-04-2020 06:51:17 5.4 C 44 %
2053 10-04-2020 07:01:18 5.3 C 44 %
2054 10-04-2020 07:11:18 5.3 C 45 %
2055 10-04-2020 07:21:17 5.3 C 45 %
2056 10-04-2020 07:31:18 5.3 C 45 %
2057 10-04-2020 07:41:18 5.3 C 45 %
2058 10-04-2020 07:51:17 5.9 C 46 %
2059 10-04-2020 08:01:17 5.8 C 45 %
2060 10-04-2020 08:11:17 5.8 C 45 %
2061 10-04-2020 08:21:17 6 C 44 %
2062 10-04-2020 08:31:17 6.1 C 45 %
2063 10-04-2020 08:41:17 6.2 C 44 %
2064 10-04-2020 08:51:17 6.5 C 45 %
2065 10-04-2020 09:01:17 6.9 C 45 %
2066 10-04-2020 09:11:17 7.8 C 42 %
2067 10-04-2020 09:21:18 8.2 C 41 %
2068 10-04-2020 09:31:18 8.5 C 40 %
2069 10-04-2020 09:41:18 9.1 C 39 %
2070 10-04-2020 09:51:17 9.4 C 39 %
2071 10-04-2020 10:01:17 9.9 C 38 %
2072 10-04-2020 10:11:17 10.2 C 37 %
2073 10-04-2020 10:21:17 10.8 C 37 %
2074 10-04-2020 10:31:17 11.6 C 36 %
2075 10-04-2020 10:41:17 12.3 C 35 %
Sensor: Nr:Datum:Temp:Feuchte:
Aussen-T/F 2076 10-04-2020 10:51:17 13.4 C 33 %
2077 10-04-2020 11:01:17 14 C 31 %
2078 10-04-2020 11:11:17 14.7 C 31 %
2079 10-04-2020 11:21:17 15.9 C 28 %
2080 10-04-2020 11:31:17 16.3 C 27 %
2081 10-04-2020 11:41:17 16.8 C 26 %
2082 10-04-2020 11:51:17 17.5 C 25 %
2083 10-04-2020 12:01:17 17.9 C 24 %
2084 10-04-2020 12:11:17 18.4 C 21 %
2085 10-04-2020 12:21:17 19.2 C 20 %
2086 10-04-2020 12:31:17 19.7 C 20 %
2087 10-04-2020 12:41:17 20.6 C 20 %
2088 10-04-2020 12:51:17 20.4 C 20 %
2089 10-04-2020 13:01:17 20.8 C 20 %
2090 10-04-2020 13:11:17 20.2 C 20 %
2091 10-04-2020 13:21:17 20.4 C 20 %
2092 10-04-2020 13:31:17 20.2 C 20 %
2093 10-04-2020 13:41:17 20.4 C 20 %
2094 10-04-2020 13:51:17 20.7 C 20 %
2095 10-04-2020 14:01:17 21.7 C 20 %
2096 10-04-2020 14:11:17 21.6 C 20 %
2097 10-04-2020 14:21:18 22 C 20 %
2098 10-04-2020 14:31:18 25.1 C 20 %
2099 10-04-2020 14:41:18 29.1 C 20 %
2100 10-04-2020 14:51:17 27.6 C 20 %
Sensor: Nr:Datum:Temp:Feuchte:
Aussen-T/F 2101 10-04-2020 15:01:17 27.9 C 20 %
2102 10-04-2020 15:11:17 31.6 C 20 %
2103 10-04-2020 15:21:17 30.1 C 20 %
2104 10-04-2020 15:31:17 30.5 C 20 %
2105 10-04-2020 15:41:17 30.2 C 20 %
2106 10-04-2020 15:51:17 29.1 C 20 %
2107 10-04-2020 16:01:17 29.8 C 20 %
2108 10-04-2020 16:11:17 30.3 C 20 %
2109 10-04-2020 16:21:17 28.8 C 20 %
2110 10-04-2020 16:31:17 29.1 C 20 %
2111 10-04-2020 16:41:17 28.3 C 20 %
2112 10-04-2020 16:51:17 30.8 C 20 %
2113 10-04-2020 17:01:17 29.6 C 20 %
2114 10-04-2020 17:11:17 28.8 C 20 %
2115 10-04-2020 17:21:17 26.8 C 20 %
2116 10-04-2020 17:31:17 28.5 C 20 %
2117 10-04-2020 17:41:17 27.6 C 20 %
2118 10-04-2020 17:51:18 26.4 C 20 %
2119 10-04-2020 18:01:17 23.6 C 20 %
2120 10-04-2020 18:11:17 23 C 20 %
2121 10-04-2020 18:21:18 22.5 C 20 %
2122 10-04-2020 18:31:18 22.2 C 20 %
2123 10-04-2020 18:41:18 22.3 C 20 %
2124 10-04-2020 18:51:17 22 C 20 %
2125 10-04-2020 19:01:17 21.6 C 20 %
Sensor: Nr:Datum:Temp:Feuchte:
Aussen-T/F 2126 10-04-2020 19:11:17 21.4 C 20 %
2127 10-04-2020 19:21:17 21.1 C 20 %
2128 10-04-2020 19:31:17 20.9 C 20 %
2129 10-04-2020 19:41:17 20.7 C 20 %
2130 10-04-2020 19:51:18 20.2 C 20 %
2131 10-04-2020 20:01:17 19.6 C 20 %
2132 10-04-2020 20:11:17 18.5 C 20 %
2133 10-04-2020 20:21:18 16 C 20 %
2134 10-04-2020 20:31:17 15.9 C 20 %
2135 10-04-2020 20:41:17 15.3 C 20 %
2136 10-04-2020 20:51:17 15 C 20 %
2137 10-04-2020 21:01:17 15.3 C 20 %
2138 10-04-2020 21:11:17 14.7 C 20 %
2139 10-04-2020 21:21:17 14.3 C 21 %
2140 10-04-2020 21:31:17 13.8 C 21 %
2141 10-04-2020 21:41:17 14.2 C 21 %
2142 10-04-2020 21:51:17 14.3 C 21 %
2143 10-04-2020 22:01:18 14.5 C 21 %
2144 10-04-2020 22:11:18 14.9 C 20 %
2145 10-04-2020 22:21:18 14.5 C 22 %
2146 10-04-2020 22:31:17 14.5 C 22 %
2147 10-04-2020 22:41:17 13.9 C 24 %
2148 10-04-2020 22:51:17 13.1 C 25 %
2149 10-04-2020 23:01:17 12.7 C 25 %
2150 10-04-2020 23:11:17 12.8 C 25 %
Sensor: Nr:Datum:Temp:Feuchte:
Aussen-T/F 2151 10-04-2020 23:21:17 12 C 26 %
2152 10-04-2020 23:31:17 12.2 C 26 %
2153 10-04-2020 23:41:17 11.2 C 28 %
2154 10-04-2020 23:51:17 11.1 C 29 %
2155 11-04-2020 00:01:18 10.5 C 30 %
2156 11-04-2020 00:11:18 10.8 C 30 %
2157 11-04-2020 00:21:17 10.8 C 30 %
2158 11-04-2020 00:31:17 10.1 C 31 %
2159 11-04-2020 00:41:18 9.9 C 32 %
2160 11-04-2020 00:51:18 10 C 31 %
2161 11-04-2020 01:01:17 9.6 C 31 %
2162 11-04-2020 01:11:17 9.6 C 32 %
2163 11-04-2020 01:21:17 9.1 C 32 %
2164 11-04-2020 01:31:18 9.2 C 32 %
2165 11-04-2020 01:41:18 9 C 32 %
2166 11-04-2020 01:51:18 8.7 C 32 %
2167 11-04-2020 02:01:17 8.4 C 32 %
2168 11-04-2020 02:11:17 8.2 C 32 %
2169 11-04-2020 02:21:18 8.1 C 32 %
2170 11-04-2020 02:31:17 8.3 C 32 %
2171 11-04-2020 02:41:17 8.1 C 32 %
2172 11-04-2020 02:51:17 7.9 C 33 %
2173 11-04-2020 03:01:17 8.5 C 31 %
2174 11-04-2020 03:11:17 8.7 C 31 %
2175 11-04-2020 03:21:17 8.8 C 30 %
Sensor: Nr:Datum:Temp:Feuchte:
Aussen-T/F 2176 11-04-2020 03:31:18 8.8 C 30 %
2177 11-04-2020 03:41:18 8.2 C 30 %
2178 11-04-2020 03:51:17 8.6 C 30 %
2179 11-04-2020 04:01:17 8.3 C 30 %
2180 11-04-2020 04:11:17 8.3 C 30 %
2181 11-04-2020 04:21:17 7.7 C 30 %
2182 11-04-2020 04:31:17 7.4 C 30 %
2183 11-04-2020 04:41:17 7.5 C 30 %
2184 11-04-2020 04:51:17 7.6 C 29 %
2185 11-04-2020 05:01:17 7.4 C 29 %
2186 11-04-2020 05:11:17 6.9 C 30 %
2187 11-04-2020 05:21:17 6.8 C 30 %
2188 11-04-2020 05:31:18 6.1 C 31 %
2189 11-04-2020 05:41:18 5.8 C 32 %
2190 11-04-2020 05:51:17 5.7 C 32 %
2191 11-04-2020 06:01:17 5.6 C 32 %
2192 11-04-2020 06:11:17 5 C 33 %
2193 11-04-2020 06:21:17 4.9 C 35 %
2194 11-04-2020 06:31:18 5 C 33 %
2195 11-04-2020 06:41:18 4.6 C 35 %
2196 11-04-2020 06:51:17 4.6 C 35 %
2197 11-04-2020 07:01:18 4.4 C 35 %
2198 11-04-2020 07:11:18 4.5 C 35 %
2199 11-04-2020 07:21:17 4.4 C 35 %
2200 11-04-2020 07:31:18 4.4 C 36 %
Sensor: Nr:Datum:Temp:Feuchte:
Aussen-T/F 2201 11-04-2020 07:41:18 4.7 C 35 %
2202 11-04-2020 07:51:17 5 C 34 %
2203 11-04-2020 08:01:18 5 C 34 %
2204 11-04-2020 08:11:18 5 C 35 %
2205 11-04-2020 08:21:18 5.1 C 35 %
2206 11-04-2020 08:31:18 5.5 C 34 %
2207 11-04-2020 08:41:18 6 C 33 %
2208 11-04-2020 08:51:18 6.4 C 32 %
2209 11-04-2020 09:01:17 6.5 C 33 %
2210 11-04-2020 09:11:18 7.1 C 31 %
2211 11-04-2020 09:21:17 7.3 C 31 %
2212 11-04-2020 09:31:18 7.8 C 31 %
2213 11-04-2020 09:41:18 8.2 C 30 %
2214 11-04-2020 09:51:17 8.6 C 30 %
2215 11-04-2020 10:01:17 9.1 C 29 %
2216 11-04-2020 10:11:17 9.5 C 29 %
2217 11-04-2020 10:21:17 10.2 C 26 %
2218 11-04-2020 10:31:17 10.7 C 27 %
2219 11-04-2020 10:41:17 11.5 C 25 %
2220 11-04-2020 10:51:17 12.3 C 21 %
2221 11-04-2020 11:01:18 12.9 C 20 %
2222 11-04-2020 11:11:18 13.7 C 20 %
2223 11-04-2020 11:21:17 14.5 C 20 %
2224 11-04-2020 11:31:17 15.3 C 20 %
2225 11-04-2020 11:41:18 16 C 20 %
Sensor: Nr:Datum:Temp:Feuchte:
Aussen-T/F 2226 11-04-2020 11:51:17 16.5 C 20 %
2227 11-04-2020 12:01:17 17.2 C 20 %
2228 11-04-2020 12:11:17 17.5 C 20 %
2229 11-04-2020 12:21:18 18.1 C 20 %
2230 11-04-2020 12:31:17 19.1 C 20 %
2231 11-04-2020 12:41:17 19.4 C 20 %
2232 11-04-2020 12:51:17 19.5 C 20 %
2233 11-04-2020 13:01:17 19.6 C 20 %
2234 11-04-2020 13:11:17 19.5 C 20 %
2235 11-04-2020 13:21:17 19.5 C 20 %
2236 11-04-2020 13:31:17 19.6 C 20 %
2237 11-04-2020 13:41:17 19.9 C 20 %
2238 11-04-2020 13:51:17 20.2 C 20 %
2239 11-04-2020 14:01:18 20.9 C 20 %
2240 11-04-2020 14:11:18 21.3 C 20 %
2241 11-04-2020 14:21:17 21.5 C 20 %
2242 11-04-2020 14:31:17 24.4 C 20 %
2243 11-04-2020 14:41:17 27.5 C 20 %
2244 11-04-2020 14:51:18 27.4 C 20 %
2245 11-04-2020 15:01:18 28.6 C 20 %
2246 11-04-2020 15:11:18 30.4 C 20 %
2247 11-04-2020 15:21:17 29.9 C 20 %
2248 11-04-2020 15:31:17 30.4 C 20 %
2249 11-04-2020 15:41:17 31.2 C 20 %
2250 11-04-2020 15:51:18 31.8 C 20 %
Sensor: Nr:Datum:Temp:Feuchte:
Aussen-T/F 2251 11-04-2020 16:01:17 28.5 C 20 %
2252 11-04-2020 16:11:17 31.4 C 20 %
2253 11-04-2020 16:21:18 30.7 C 20 %
2254 11-04-2020 16:31:17 31.5 C 20 %
2255 11-04-2020 16:41:17 31.3 C 20 %
2256 11-04-2020 16:51:17 32.1 C 20 %
2257 11-04-2020 17:01:17 31.8 C 20 %
2258 11-04-2020 17:11:17 29.5 C 20 %
2259 11-04-2020 17:21:17 29.8 C 20 %
2260 11-04-2020 17:31:17 28.7 C 20 %
2261 11-04-2020 17:41:17 26.5 C 20 %
2262 11-04-2020 17:51:17 27.5 C 20 %
2263 11-04-2020 18:01:17 24.2 C 20 %
2264 11-04-2020 18:11:17 23.4 C 20 %
2265 11-04-2020 18:21:17 23.6 C 20 %
2266 11-04-2020 18:31:17 23.6 C 20 %
2267 11-04-2020 18:41:17 23.3 C 20 %
2268 11-04-2020 18:51:17 22.9 C 20 %
2269 11-04-2020 19:01:17 22.9 C 20 %
2270 11-04-2020 19:11:17 22.7 C 20 %
2271 11-04-2020 19:21:18 22 C 20 %
2272 11-04-2020 19:31:17 21.7 C 20 %
2273 11-04-2020 19:41:17 21.2 C 20 %
2274 11-04-2020 19:51:17 18.9 C 20 %
2275 11-04-2020 20:01:17 18 C 20 %
Sensor: Nr:Datum:Temp:Feuchte:
Aussen-T/F 2276 11-04-2020 20:11:17 17.1 C 20 %
2277 11-04-2020 20:21:17 16.6 C 20 %
2278 11-04-2020 20:31:17 16.5 C 20 %
2279 11-04-2020 20:41:17 16.5 C 20 %
2280 11-04-2020 20:51:17 16.2 C 20 %
2281 11-04-2020 21:01:18 16 C 20 %
2282 11-04-2020 21:11:18 15.5 C 20 %
2283 11-04-2020 21:21:18 15.4 C 20 %
2284 11-04-2020 21:31:17 15.1 C 20 %
2285 11-04-2020 21:41:17 14.8 C 20 %
2286 11-04-2020 21:51:17 14.5 C 20 %
2287 11-04-2020 22:01:17 14.3 C 20 %
2288 11-04-2020 22:11:17 14.4 C 20 %
2289 11-04-2020 22:21:17 14 C 20 %
2290 11-04-2020 22:31:18 14 C 21 %
2291 11-04-2020 22:41:18 14.4 C 21 %
2292 11-04-2020 22:51:17 14.4 C 22 %
2293 11-04-2020 23:01:17 13.7 C 23 %
2294 11-04-2020 23:11:17 13 C 24 %
2295 11-04-2020 23:21:18 12.3 C 26 %
2296 11-04-2020 23:31:18 12.1 C 26 %
2297 11-04-2020 23:41:18 11.8 C 27 %
2298 11-04-2020 23:51:17 11.7 C 28 %
2299 12-04-2020 00:01:17 11.6 C 29 %
2300 12-04-2020 00:11:17 11.3 C 28 %
Sensor: Nr:Datum:Temp:Feuchte:
Aussen-T/F 2301 12-04-2020 00:21:17 11.3 C 29 %
2302 12-04-2020 00:31:17 11.5 C 29 %
2303 12-04-2020 00:41:17 11.6 C 29 %
2304 12-04-2020 00:51:17 11.4 C 28 %
2305 12-04-2020 01:01:17 11.3 C 28 %
2306 12-04-2020 01:11:17 11 C 28 %
2307 12-04-2020 01:21:17 10.6 C 29 %
2308 12-04-2020 01:31:18 10.3 C 29 %
2309 12-04-2020 01:41:18 10.2 C 30 %
2310 12-04-2020 01:51:17 10.6 C 29 %
2311 12-04-2020 02:01:18 10.8 C 30 %
2312 12-04-2020 02:11:18 10.7 C 31 %
2313 12-04-2020 02:21:18 10.3 C 31 %
2314 12-04-2020 02:31:17 10.4 C 30 %
2315 12-04-2020 02:41:17 10.2 C 31 %
2316 12-04-2020 02:51:17 10.1 C 31 %
2317 12-04-2020 03:01:17 10.3 C 31 %
2318 12-04-2020 03:11:17 10.2 C 31 %
2319 12-04-2020 03:21:17 10.1 C 32 %
2320 12-04-2020 03:31:17 10 C 32 %
2321 12-04-2020 03:41:18 9.9 C 33 %
2322 12-04-2020 03:51:17 10 C 32 %
2323 12-04-2020 04:01:17 9.8 C 33 %
2324 12-04-2020 04:11:17 9.7 C 33 %
2325 12-04-2020 04:21:17 8.9 C 35 %
Sensor: Nr:Datum:Temp:Feuchte:
Aussen-T/F 2326 12-04-2020 04:31:17 8.8 C 34 %
2327 12-04-2020 04:41:17 8.9 C 35 %
2328 12-04-2020 04:51:17 8.5 C 35 %
2329 12-04-2020 05:01:18 8.2 C 36 %
2330 12-04-2020 05:11:18 8.4 C 36 %
2331 12-04-2020 05:21:17 8.5 C 36 %
2332 12-04-2020 05:31:17 8.2 C 36 %
2333 12-04-2020 05:41:17 8 C 36 %
2334 12-04-2020 05:51:17 7.6 C 37 %
2335 12-04-2020 06:01:17 7.7 C 37 %
2336 12-04-2020 06:11:17 7.5 C 38 %
2337 12-04-2020 06:21:17 7.2 C 38 %
2338 12-04-2020 06:31:17 7.1 C 39 %
2339 12-04-2020 06:41:17 7.2 C 39 %
2340 12-04-2020 06:51:17 7.3 C 39 %
2341 12-04-2020 07:01:17 6.9 C 39 %
2342 12-04-2020 07:11:17 6.7 C 40 %
2343 12-04-2020 07:21:17 6.5 C 40 %
2344 12-04-2020 07:31:17 6.7 C 40 %
2345 12-04-2020 07:41:17 7.1 C 40 %
2346 12-04-2020 07:51:18 7 C 40 %
2347 12-04-2020 08:01:17 7.3 C 40 %
2348 12-04-2020 08:11:17 7.5 C 40 %
2349 12-04-2020 08:21:17 7.5 C 40 %
2350 12-04-2020 08:31:17 7.6 C 40 %
Sensor: Nr:Datum:Temp:Feuchte:
Aussen-T/F 2351 12-04-2020 08:41:18 7.9 C 40 %
2352 12-04-2020 08:51:17 8.2 C 40 %
2353 12-04-2020 09:01:18 8.8 C 39 %
2354 12-04-2020 09:11:18 9.2 C 38 %
2355 12-04-2020 09:21:17 9.5 C 38 %
2356 12-04-2020 09:31:17 10 C 37 %
2357 12-04-2020 09:41:17 10.1 C 37 %
2358 12-04-2020 09:51:17 11 C 36 %
2359 12-04-2020 10:01:17 11.3 C 36 %
2360 12-04-2020 10:11:17 11.7 C 35 %
2361 12-04-2020 10:21:17 12.2 C 35 %
2362 12-04-2020 10:31:18 13.2 C 33 %
2363 12-04-2020 10:41:18 14.4 C 31 %
2364 12-04-2020 10:51:17 14.9 C 31 %
2365 12-04-2020 11:01:17 15.6 C 30 %
2366 12-04-2020 11:11:17 17 C 27 %
2367 12-04-2020 11:21:17 17.6 C 27 %
2368 12-04-2020 11:31:17 18 C 26 %
2369 12-04-2020 11:41:17 18.5 C 24 %
2370 12-04-2020 11:51:17 19.1 C 20 %
2371 12-04-2020 12:01:17 20.6 C 20 %
2372 12-04-2020 12:11:17 20.8 C 20 %
2373 12-04-2020 12:21:17 21.7 C 20 %
2374 12-04-2020 12:31:17 21.6 C 20 %
2375 12-04-2020 12:41:17 21.8 C 20 %
Sensor: Nr:Datum:Temp:Feuchte:
Aussen-T/F 2376 12-04-2020 12:51:18 21.2 C 20 %
2377 12-04-2020 13:01:17 21.7 C 20 %
2378 12-04-2020 13:11:17 21.7 C 20 %
2379 12-04-2020 13:21:17 22 C 20 %
2380 12-04-2020 13:31:17 21.7 C 20 %
2381 12-04-2020 13:41:17 22 C 20 %
2382 12-04-2020 13:51:17 22.1 C 20 %
2383 12-04-2020 14:01:17 22.4 C 20 %
2384 12-04-2020 14:11:17 22.8 C 20 %
2385 12-04-2020 14:21:17 22.9 C 20 %
2386 12-04-2020 14:31:17 26.2 C 20 %
2387 12-04-2020 14:41:17 28.6 C 20 %
2388 12-04-2020 14:51:17 28.5 C 20 %
2389 12-04-2020 15:01:17 30.3 C 20 %
2390 12-04-2020 15:11:17 27.7 C 20 %
2391 12-04-2020 15:21:17 27.9 C 20 %
2392 12-04-2020 15:31:18 30.7 C 20 %
2393 12-04-2020 15:41:18 30.5 C 20 %
2394 12-04-2020 15:51:18 28.3 C 20 %
2395 12-04-2020 16:01:17 30.5 C 20 %
2396 12-04-2020 16:11:17 33.2 C 20 %
2397 12-04-2020 16:21:17 32.8 C 20 %
2398 12-04-2020 16:31:17 27.8 C 20 %
2399 12-04-2020 16:41:17 26 C 20 %
2400 12-04-2020 16:51:17 24.7 C 20 %
Sensor: Nr:Datum:Temp:Feuchte:
Aussen-T/F 2401 12-04-2020 17:01:17 29.6 C 20 %
2402 12-04-2020 17:11:18 29.6 C 20 %
2403 12-04-2020 17:21:17 29.5 C 20 %
2404 12-04-2020 17:31:17 26.5 C 20 %
2405 12-04-2020 17:41:17 29.3 C 20 %
2406 12-04-2020 17:51:17 29.8 C 20 %
2407 12-04-2020 18:01:18 24.6 C 20 %
2408 12-04-2020 18:11:18 24 C 20 %
2409 12-04-2020 18:21:17 24 C 20 %
2410 12-04-2020 18:31:17 23.6 C 20 %
2411 12-04-2020 18:41:17 22.9 C 20 %
2412 12-04-2020 18:51:17 22.4 C 20 %
2413 12-04-2020 19:01:17 22.5 C 20 %
2414 12-04-2020 19:11:17 22.4 C 20 %
2415 12-04-2020 19:21:17 22 C 20 %
2416 12-04-2020 19:31:17 21.6 C 20 %
2417 12-04-2020 19:41:17 20.3 C 20 %
2418 12-04-2020 19:51:18 19.1 C 20 %
2419 12-04-2020 20:01:18 18.2 C 20 %
2420 12-04-2020 20:11:18 17.9 C 20 %
2421 12-04-2020 20:21:17 17.5 C 20 %
2422 12-04-2020 20:31:18 17 C 20 %
2423 12-04-2020 20:41:18 16.8 C 20 %
2424 12-04-2020 20:51:17 16 C 20 %
2425 12-04-2020 21:01:17 15.5 C 20 %
Sensor: Nr:Datum:Temp:Feuchte:
Aussen-T/F 2426 12-04-2020 21:11:17 14 C 20 %
2427 12-04-2020 21:22:17 13.5 C 20 %
2428 12-04-2020 21:31:17 13.2 C 21 %
2429 12-04-2020 21:41:17 13.2 C 20 %
2430 12-04-2020 21:51:17 13.3 C 21 %
2431 12-04-2020 22:01:17 13.4 C 20 %
2432 12-04-2020 22:11:17 13 C 21 %
2433 12-04-2020 22:22:17 12.9 C 22 %
2434 12-04-2020 22:32:17 12.2 C 23 %
2435 12-04-2020 22:42:17 11.8 C 26 %
2436 12-04-2020 22:51:17 11.7 C 25 %
2437 12-04-2020 23:01:18 11.5 C 25 %
2438 12-04-2020 23:11:18 11.1 C 26 %
2439 12-04-2020 23:21:17 10.9 C 27 %
2440 12-04-2020 23:32:17 10.7 C 28 %
2441 12-04-2020 23:41:17 10.3 C 28 %
2442 12-04-2020 23:52:17 10.5 C 28 %
2443 13-04-2020 00:01:17 10.6 C 28 %
2444 13-04-2020 00:11:17 10.4 C 29 %
2445 13-04-2020 00:21:18 10.4 C 30 %
2446 13-04-2020 00:31:17 10.1 C 30 %
2447 13-04-2020 00:41:17 9.9 C 31 %
2448 13-04-2020 00:51:17 9.7 C 31 %
2449 13-04-2020 01:01:18 9.5 C 31 %
2450 13-04-2020 01:11:18 9.4 C 32 %
Sensor: Nr:Datum:Temp:Feuchte:
Aussen-T/F 2451 13-04-2020 01:21:18 9 C 32 %
2452 13-04-2020 01:31:18 9.3 C 32 %
2453 13-04-2020 01:41:18 9.2 C 32 %
2454 13-04-2020 01:51:18 9.3 C 32 %
2455 13-04-2020 02:02:17 9.2 C 32 %
2456 13-04-2020 02:12:17 9.2 C 32 %
2457 13-04-2020 02:21:17 9.1 C 32 %
2458 13-04-2020 02:31:18 9 C 33 %
2459 13-04-2020 02:41:18 8.6 C 34 %
2460 13-04-2020 02:51:17 8.6 C 34 %
2461 13-04-2020 03:01:18 8.4 C 34 %
2462 13-04-2020 03:11:18 8.2 C 35 %
2463 13-04-2020 03:22:17 7.9 C 35 %
2464 13-04-2020 03:32:17 8.1 C 35 %
2465 13-04-2020 03:42:17 8 C 35 %
2466 13-04-2020 03:51:17 7.8 C 35 %
2467 13-04-2020 04:02:17 7.5 C 36 %
2468 13-04-2020 04:12:17 7.2 C 36 %
2469 13-04-2020 04:21:18 6.8 C 38 %
2470 13-04-2020 04:32:17 6.8 C 38 %
2471 13-04-2020 04:41:17 6.7 C 39 %
2472 13-04-2020 04:52:17 7.7 C 37 %
2473 13-04-2020 05:02:17 7.3 C 37 %
2474 13-04-2020 05:12:17 7.5 C 38 %
2475 13-04-2020 05:22:17 7.8 C 38 %
Sensor: Nr:Datum:Temp:Feuchte:
Aussen-T/F 2476 13-04-2020 05:32:17 7.6 C 37 %
2477 13-04-2020 05:42:17 7.4 C 37 %
2478 13-04-2020 05:52:17 7.2 C 38 %
2479 13-04-2020 06:02:17 7.2 C 38 %
2480 13-04-2020 06:12:17 6.6 C 39 %
2481 13-04-2020 06:22:17 6.2 C 39 %
2482 13-04-2020 06:32:17 6.3 C 40 %
2483 13-04-2020 06:42:17 6.3 C 40 %
2484 13-04-2020 06:52:17 6.4 C 40 %
2485 13-04-2020 07:02:17 6.5 C 40 %
2486 13-04-2020 07:12:17 7.2 C 39 %
2487 13-04-2020 07:22:17 7.6 C 38 %
2488 13-04-2020 07:32:17 8.1 C 37 %
2489 13-04-2020 07:42:17 8.3 C 37 %
2490 13-04-2020 07:52:17 8.5 C 37 %
2491 13-04-2020 08:02:17 8.6 C 36 %
2492 13-04-2020 08:12:18 8.9 C 36 %
2493 13-04-2020 08:22:17 9 C 36 %
2494 13-04-2020 08:32:17 9.4 C 36 %
2495 13-04-2020 08:42:17 10.7 C 37 %
2496 13-04-2020 08:52:17 11.1 C 36 %
2497 13-04-2020 09:02:17 10.7 C 37 %
2498 13-04-2020 09:12:17 10.7 C 37 %
2499 13-04-2020 09:22:17 11 C 36 %
2500 13-04-2020 09:32:17 11.5 C 36 %
Sensor: Nr:Datum:Temp:Feuchte:
Aussen-T/F 2501 13-04-2020 09:42:17 11.9 C 35 %
2502 13-04-2020 09:52:17 11.4 C 35 %
2503 13-04-2020 10:02:17 11.2 C 35 %
2504 13-04-2020 10:12:17 11.1 C 35 %
2505 13-04-2020 10:22:17 11 C 34 %
2506 13-04-2020 10:32:17 11.1 C 34 %
2507 13-04-2020 10:42:17 11.3 C 34 %
2508 13-04-2020 10:52:17 11.6 C 33 %
2509 13-04-2020 11:02:17 11.6 C 33 %
2510 13-04-2020 11:12:17 11.4 C 32 %
2511 13-04-2020 11:22:17 11.8 C 32 %
2512 13-04-2020 11:32:17 11.5 C 31 %
2513 13-04-2020 11:42:17 11.1 C 31 %
2514 13-04-2020 11:52:16 10.8 C 32 %
2515 13-04-2020 12:02:17 10.9 C 32 %
2516 13-04-2020 12:12:17 10.5 C 33 %
2517 13-04-2020 12:22:17 10.4 C 33 %
2518 13-04-2020 12:32:17 10.7 C 32 %
2519 13-04-2020 12:42:17 11.1 C 32 %
2520 13-04-2020 12:52:17 10.6 C 32 %
2521 13-04-2020 13:02:16 10.3 C 32 %
2522 13-04-2020 13:12:16 10.2 C 32 %
2523 13-04-2020 13:22:17 10.2 C 32 %
2524 13-04-2020 13:32:17 9.6 C 33 %
2525 13-04-2020 13:42:17 8.6 C 35 %
Sensor: Nr:Datum:Temp:Feuchte:
Aussen-T/F 2526 13-04-2020 13:52:17 7.6 C 39 %
2527 13-04-2020 14:02:17 7.5 C 40 %
2528 13-04-2020 14:12:17 7.7 C 38 %
2529 13-04-2020 14:22:16 8.7 C 36 %
2530 13-04-2020 14:32:17 9.2 C 35 %
2531 13-04-2020 14:42:17 9.6 C 34 %
2532 13-04-2020 14:52:16 10.9 C 31 %
2533 13-04-2020 15:02:17 12.4 C 26 %
2534 13-04-2020 15:12:17 12.3 C 25 %
2535 13-04-2020 15:22:17 12.7 C 20 %
2536 13-04-2020 15:32:17 11.8 C 20 %
2537 13-04-2020 15:42:17 12.4 C 20 %
2538 13-04-2020 15:52:16 13.2 C 20 %
2539 13-04-2020 16:02:16 12.2 C 20 %
2540 13-04-2020 16:12:16 14.4 C 20 %
2541 13-04-2020 16:22:16 15 C 20 %
2542 13-04-2020 16:32:17 16 C 20 %
2543 13-04-2020 16:42:17 14.9 C 20 %
2544 13-04-2020 16:52:16 16.5 C 20 %
2545 13-04-2020 17:02:17 15.2 C 20 %
2546 13-04-2020 17:12:17 15.6 C 20 %
2547 13-04-2020 17:22:16 15 C 20 %
2548 13-04-2020 17:32:16 15 C 20 %
2549 13-04-2020 17:42:16 14.5 C 20 %
2550 13-04-2020 17:52:16 15.4 C 20 %
Sensor: Nr:Datum:Temp:Feuchte:
Aussen-T/F 2551 13-04-2020 18:02:16 13.2 C 20 %
2552 13-04-2020 18:12:16 12.5 C 20 %
2553 13-04-2020 18:22:17 12.1 C 20 %
2554 13-04-2020 18:32:17 11.9 C 20 %
2555 13-04-2020 18:42:18 11.1 C 20 %
2556 13-04-2020 18:52:16 11.1 C 20 %
2557 13-04-2020 19:02:16 10.8 C 20 %
2558 13-04-2020 19:12:16 10.5 C 20 %
2559 13-04-2020 19:22:16 10.2 C 20 %
2560 13-04-2020 19:32:17 10 C 20 %
2561 13-04-2020 19:42:17 9.8 C 20 %
2562 13-04-2020 19:52:16 9.6 C 20 %
2563 13-04-2020 20:02:16 9 C 20 %
2564 13-04-2020 20:12:16 8.6 C 20 %
2565 13-04-2020 20:22:16 8.5 C 20 %
2566 13-04-2020 20:32:16 8.4 C 20 %
2567 13-04-2020 20:42:16 8.2 C 20 %
2568 13-04-2020 20:52:16 7.5 C 20 %
2569 13-04-2020 21:02:16 7.5 C 20 %
2570 13-04-2020 21:12:16 7.4 C 20 %
2571 13-04-2020 21:22:16 7.3 C 20 %
2572 13-04-2020 21:32:17 7.2 C 20 %
2573 13-04-2020 21:42:17 6.7 C 20 %
2574 13-04-2020 21:52:16 6.5 C 20 %
2575 13-04-2020 22:02:16 6.1 C 20 %
Sensor: Nr:Datum:Temp:Feuchte:
Aussen-T/F 2576 13-04-2020 22:12:16 5.5 C 20 %
2577 13-04-2020 22:22:16 5.1 C 20 %
2578 13-04-2020 22:32:16 4.6 C 23 %
2579 13-04-2020 22:42:16 4.4 C 25 %
2580 13-04-2020 22:52:16 4.1 C 25 %
2581 13-04-2020 23:02:16 3.9 C 26 %
2582 13-04-2020 23:12:16 3.8 C 27 %
2583 13-04-2020 23:22:16 3.5 C 30 %
2584 13-04-2020 23:32:17 3.3 C 29 %
2585 13-04-2020 23:42:17 4 C 26 %
2586 13-04-2020 23:52:16 4 C 25 %
2587 14-04-2020 00:02:16 3.3 C 28 %
2588 14-04-2020 00:12:16 4.1 C 25 %
2589 14-04-2020 00:22:16 3.2 C 27 %
2590 14-04-2020 00:32:16 3.3 C 27 %
2591 14-04-2020 00:42:16 2.8 C 29 %
2592 14-04-2020 00:52:16 2.9 C 29 %
2593 14-04-2020 01:02:16 3.1 C 27 %
2594 14-04-2020 01:12:16 3.4 C 27 %
2595 14-04-2020 01:22:16 2.8 C 28 %
2596 14-04-2020 01:32:16 2.1 C 30 %
2597 14-04-2020 01:42:16 1.9 C 33 %
2598 14-04-2020 01:52:16 1.2 C 35 %
2599 14-04-2020 02:02:16 1.6 C 35 %
2600 14-04-2020 02:12:16 1.3 C 35 %
Sensor: Nr:Datum:Temp:Feuchte:
Aussen-T/F 2601 14-04-2020 02:22:16 0.9 C 36 %
2602 14-04-2020 02:32:16 0.8 C 36 %
2603 14-04-2020 02:42:16 1.1 C 35 %
2604 14-04-2020 02:52:18 1 C 35 %
2605 14-04-2020 03:02:18 1.1 C 35 %
2606 14-04-2020 03:12:18 1.1 C 35 %
2607 14-04-2020 03:22:17 0.7 C 36 %
2608 14-04-2020 03:32:18 1.1 C 36 %
2609 14-04-2020 03:42:18 0.9 C 36 %
2610 14-04-2020 03:52:17 1 C 35 %
2611 14-04-2020 04:02:18 0.9 C 36 %
2612 14-04-2020 04:12:18 0.9 C 36 %
2613 14-04-2020 04:22:17 0.6 C 36 %
2614 14-04-2020 04:32:17 0.7 C 36 %
2615 14-04-2020 04:42:17 0.7 C 36 %
2616 14-04-2020 04:52:18 0.6 C 36 %
2617 14-04-2020 05:02:17 0 C 37 %
2618 14-04-2020 05:12:17 0 C 38 %
2619 14-04-2020 05:22:17 0.6 C 38 %
2620 14-04-2020 05:32:17 0.6 C 39 %
2621 14-04-2020 05:42:17 0.7 C 39 %
2622 14-04-2020 05:52:17 0 C 39 %
2623 14-04-2020 06:02:17 -0.2 C 40 %
2624 14-04-2020 06:12:17 -0.7 C 41 %
2625 14-04-2020 06:22:17 -0.9 C 41 %
Sensor: Nr:Datum:Temp:Feuchte:
Aussen-T/F 2626 14-04-2020 06:32:17 -0.4 C 41 %
2627 14-04-2020 06:42:17 -0.1 C 41 %
2628 14-04-2020 06:52:17 0.5 C 41 %
2629 14-04-2020 07:02:17 0.7 C 41 %
2630 14-04-2020 07:12:17 1.1 C 40 %
2631 14-04-2020 07:22:17 1.3 C 39 %
2632 14-04-2020 07:32:17 1.6 C 39 %
2633 14-04-2020 07:42:17 1.8 C 39 %
2634 14-04-2020 07:52:18 2.1 C 37 %
2635 14-04-2020 08:02:17 2.2 C 38 %
2636 14-04-2020 08:12:17 2.3 C 37 %
2637 14-04-2020 08:22:18 1.7 C 39 %
2638 14-04-2020 08:32:17 1.7 C 40 %
2639 14-04-2020 08:42:17 2.2 C 38 %
2640 14-04-2020 08:52:17 2.4 C 38 %
2641 14-04-2020 09:02:18 3 C 37 %
2642 14-04-2020 09:12:18 3.8 C 36 %
2643 14-04-2020 09:22:17 4.7 C 34 %
2644 14-04-2020 09:32:18 5.7 C 32 %
2645 14-04-2020 09:42:18 5.3 C 31 %
2646 14-04-2020 09:52:17 6 C 31 %
2647 14-04-2020 10:02:17 6.6 C 30 %
2648 14-04-2020 10:12:17 5.8 C 30 %
2649 14-04-2020 10:22:17 5.9 C 30 %
2650 14-04-2020 10:32:17 6.7 C 30 %
Sensor: Nr:Datum:Temp:Feuchte:
Aussen-T/F 2651 14-04-2020 10:42:17 7.4 C 26 %
2652 14-04-2020 10:52:18 8.4 C 23 %
2653 14-04-2020 11:02:17 8.2 C 21 %
2654 14-04-2020 11:12:17 8 C 20 %
2655 14-04-2020 11:22:17 7.9 C 20 %
2656 14-04-2020 11:32:17 8.2 C 20 %
2657 14-04-2020 11:42:17 9.1 C 20 %
2658 14-04-2020 11:52:18 8.4 C 20 %
2659 14-04-2020 12:02:17 8.5 C 20 %
2660 14-04-2020 12:12:17 8.6 C 20 %
2661 14-04-2020 12:22:17 8.9 C 20 %
2662 14-04-2020 12:32:17 8.6 C 20 %
2663 14-04-2020 12:42:17 9.8 C 20 %
2664 14-04-2020 12:52:17 10.6 C 20 %
2665 14-04-2020 13:02:18 10.2 C 20 %
2666 14-04-2020 13:12:18 10 C 20 %
2667 14-04-2020 13:22:17 10.4 C 20 %
2668 14-04-2020 13:32:17 10.7 C 20 %
2669 14-04-2020 13:42:17 10 C 20 %
2670 14-04-2020 13:52:18 9.5 C 20 %
2671 14-04-2020 14:02:17 9.8 C 20 %
2672 14-04-2020 14:12:18 10.3 C 20 %
2673 14-04-2020 14:22:18 11.8 C 20 %
2674 14-04-2020 14:32:18 14.5 C 20 %
2675 14-04-2020 14:42:18 17.4 C 20 %
Sensor: Nr:Datum:Temp:Feuchte:
Aussen-T/F 2676 14-04-2020 14:52:17 16.8 C 20 %
2677 14-04-2020 15:02:17 17.6 C 20 %
2678 14-04-2020 15:12:18 21 C 20 %
2679 14-04-2020 15:22:17 14.7 C 20 %
2680 14-04-2020 15:32:17 16.7 C 20 %
2681 14-04-2020 15:42:17 14 C 20 %
2682 14-04-2020 15:52:17 14 C 20 %
2683 14-04-2020 16:02:17 15 C 20 %
2684 14-04-2020 16:12:17 17.2 C 20 %
2685 14-04-2020 16:22:17 17.7 C 20 %
2686 14-04-2020 16:32:18 16.3 C 20 %
2687 14-04-2020 16:42:18 14 C 20 %
2688 14-04-2020 16:52:17 14.5 C 20 %
2689 14-04-2020 17:02:18 12.2 C 20 %
2690 14-04-2020 17:12:18 14.2 C 20 %
2691 14-04-2020 17:22:17 19.2 C 20 %
2692 14-04-2020 17:32:17 16.8 C 20 %
2693 14-04-2020 17:42:18 15.5 C 20 %
2694 14-04-2020 17:52:17 16 C 20 %
2695 14-04-2020 18:02:18 13.4 C 20 %
2696 14-04-2020 18:12:18 12.4 C 20 %
2697 14-04-2020 18:22:17 12.1 C 20 %
2698 14-04-2020 18:32:18 11.9 C 20 %
2699 14-04-2020 18:42:18 11.7 C 20 %
2700 14-04-2020 18:52:17 11.3 C 20 %
Sensor: Nr:Datum:Temp:Feuchte:
Aussen-T/F 2701 14-04-2020 19:02:17 11.2 C 20 %
2702 14-04-2020 19:12:18 11 C 20 %
2703 14-04-2020 19:22:18 10.6 C 20 %
2704 14-04-2020 19:32:18 10.3 C 20 %
2705 14-04-2020 19:42:18 10.1 C 20 %
2706 14-04-2020 19:52:17 9.7 C 20 %
2707 14-04-2020 20:02:17 9.3 C 20 %
2708 14-04-2020 20:12:17 8.9 C 20 %
2709 14-04-2020 20:22:17 7.7 C 20 %
2710 14-04-2020 20:32:17 7 C 23 %
2711 14-04-2020 20:42:18 6.7 C 25 %
2712 14-04-2020 20:52:17 6.8 C 25 %
2713 14-04-2020 21:02:17 6.5 C 25 %
2714 14-04-2020 21:12:17 6.3 C 25 %
2715 14-04-2020 21:22:17 6 C 26 %
2716 14-04-2020 21:32:17 6.1 C 26 %
2717 14-04-2020 21:42:17 5.8 C 27 %
2718 14-04-2020 21:52:17 5.6 C 27 %
2719 14-04-2020 22:02:18 5.6 C 27 %
2720 14-04-2020 22:12:18 5.1 C 29 %
2721 14-04-2020 22:22:17 5.2 C 28 %
2722 14-04-2020 22:32:18 5 C 29 %
2723 14-04-2020 22:42:18 4.7 C 30 %
2724 14-04-2020 22:52:18 4.7 C 30 %
2725 14-04-2020 23:02:18 4.3 C 32 %
Sensor: Nr:Datum:Temp:Feuchte:
Aussen-T/F 2726 14-04-2020 23:12:18 3.6 C 34 %
2727 14-04-2020 23:22:17 3.2 C 35 %
2728 14-04-2020 23:32:17 3 C 35 %
2729 14-04-2020 23:42:17 2.8 C 36 %
2730 14-04-2020 23:52:17 2.6 C 36 %
2731 15-04-2020 00:02:18 2.4 C 37 %
2732 15-04-2020 00:12:18 2.1 C 37 %
2733 15-04-2020 00:22:17 1.7 C 39 %
2734 15-04-2020 00:32:18 1.6 C 39 %
2735 15-04-2020 00:42:18 1.6 C 40 %
2736 15-04-2020 00:52:17 1.6 C 39 %
2737 15-04-2020 01:02:17 1.5 C 40 %
2738 15-04-2020 01:12:17 1.3 C 40 %
2739 15-04-2020 01:22:17 1.2 C 40 %
2740 15-04-2020 01:32:17 1.3 C 40 %
2741 15-04-2020 01:42:17 1.2 C 40 %
2742 15-04-2020 01:52:17 1 C 40 %
2743 15-04-2020 02:02:17 0.8 C 41 %
2744 15-04-2020 02:12:17 0.8 C 42 %
2745 15-04-2020 02:22:17 0.8 C 42 %
2746 15-04-2020 02:32:17 0.7 C 42 %
2747 15-04-2020 02:42:17 0.6 C 42 %
2748 15-04-2020 02:52:17 0.1 C 42 %
2749 15-04-2020 03:02:17 0.2 C 43 %
2750 15-04-2020 03:12:17 0.3 C 43 %
Sensor: Nr:Datum:Temp:Feuchte:
Aussen-T/F 2751 15-04-2020 03:22:17 0.2 C 43 %
2752 15-04-2020 03:32:18 0.5 C 43 %
2753 15-04-2020 03:42:18 0.1 C 43 %
2754 15-04-2020 03:52:18 0 C 43 %
2755 15-04-2020 04:02:18 0.2 C 43 %
2756 15-04-2020 04:12:18 -0.2 C 43 %
2757 15-04-2020 04:22:17 0 C 44 %
2758 15-04-2020 04:32:18 -0.2 C 43 %
2759 15-04-2020 04:42:18 -0.3 C 44 %
2760 15-04-2020 04:52:17 -0.4 C 44 %
2761 15-04-2020 05:02:18 -0.4 C 44 %
2762 15-04-2020 05:12:18 -0.3 C 44 %
2763 15-04-2020 05:22:17 -0.4 C 45 %
2764 15-04-2020 05:32:17 -0.5 C 45 %
2765 15-04-2020 05:42:17 -0.4 C 45 %
2766 15-04-2020 05:52:17 -0.7 C 45 %
2767 15-04-2020 06:02:17 -0.7 C 45 %
2768 15-04-2020 06:12:17 -0.7 C 45 %
2769 15-04-2020 06:22:17 -0.7 C 45 %
2770 15-04-2020 06:32:17 -0.6 C 45 %
2771 15-04-2020 06:42:17 -0.7 C 45 %
2772 15-04-2020 06:52:17 -0.9 C 45 %
2773 15-04-2020 07:02:17 -0.7 C 45 %
2774 15-04-2020 07:12:17 -0.6 C 45 %
2775 15-04-2020 07:22:17 -0.5 C 45 %
Sensor: Nr:Datum:Temp:Feuchte:
Aussen-T/F 2776 15-04-2020 07:32:17 -0.1 C 46 %
2777 15-04-2020 07:42:17 0.1 C 45 %
2778 15-04-2020 07:52:18 0.4 C 45 %
2779 15-04-2020 08:02:17 0.7 C 45 %
2780 15-04-2020 08:12:17 1 C 43 %
2781 15-04-2020 08:22:18 1.4 C 42 %
2782 15-04-2020 08:32:18 1.6 C 41 %
2783 15-04-2020 08:42:18 1.9 C 41 %
2784 15-04-2020 08:52:18 2.4 C 40 %
2785 15-04-2020 09:02:17 2.8 C 40 %
2786 15-04-2020 09:12:17 3 C 38 %
2787 15-04-2020 09:22:18 3.4 C 38 %
2788 15-04-2020 09:32:18 3.5 C 37 %
2789 15-04-2020 09:42:18 4.2 C 36 %
2790 15-04-2020 09:52:17 4.4 C 36 %
2791 15-04-2020 10:02:18 4.9 C 35 %
2792 15-04-2020 10:12:18 5.4 C 35 %
2793 15-04-2020 10:22:18 6.2 C 34 %
2794 15-04-2020 10:32:18 6.9 C 33 %
2795 15-04-2020 10:42:18 7.4 C 31 %
2796 15-04-2020 10:52:18 8.1 C 30 %
2797 15-04-2020 11:02:17 8.5 C 30 %
2798 15-04-2020 11:12:17 9.2 C 29 %
2799 15-04-2020 11:22:18 9.9 C 28 %
2800 15-04-2020 11:32:17 10.4 C 26 %
Sensor: Nr:Datum:Temp:Feuchte:
Aussen-T/F 2801 15-04-2020 11:42:17 11 C 22 %
2802 15-04-2020 11:52:18 11.6 C 20 %
2803 15-04-2020 12:02:17 12.3 C 20 %
2804 15-04-2020 12:12:17 12.2 C 20 %
2805 15-04-2020 12:22:18 13.3 C 20 %
2806 15-04-2020 12:32:18 13.2 C 20 %
2807 15-04-2020 12:42:18 13.3 C 20 %
2808 15-04-2020 12:52:17 13.2 C 20 %
2809 15-04-2020 13:02:17 13.4 C 20 %
2810 15-04-2020 13:12:17 13.5 C 20 %
2811 15-04-2020 13:22:18 13.4 C 20 %
2812 15-04-2020 13:32:18 14.2 C 20 %
2813 15-04-2020 13:42:18 14.4 C 20 %
2814 15-04-2020 13:52:17 14.7 C 20 %
2815 15-04-2020 14:02:17 15.2 C 20 %
2816 15-04-2020 14:12:17 15.5 C 20 %
2817 15-04-2020 14:22:17 16.9 C 20 %
2818 15-04-2020 14:32:17 21.6 C 20 %
2819 15-04-2020 14:42:17 23.9 C 20 %
2820 15-04-2020 14:52:17 25.2 C 20 %
2821 15-04-2020 15:02:18 24.8 C 20 %
2822 15-04-2020 15:12:18 23.5 C 20 %
2823 15-04-2020 15:22:18 24.4 C 20 %
2824 15-04-2020 15:32:18 23.9 C 20 %
2825 15-04-2020 15:42:18 24.5 C 20 %
Sensor: Nr:Datum:Temp:Feuchte:
Aussen-T/F 2826 15-04-2020 15:52:17 24.4 C 20 %
2827 15-04-2020 16:02:18 24.8 C 20 %
2828 15-04-2020 16:12:18 24.6 C 20 %
2829 15-04-2020 16:22:17 23.3 C 20 %
2830 15-04-2020 16:32:18 23.7 C 20 %
2831 15-04-2020 16:42:18 25.4 C 20 %
2832 15-04-2020 16:52:18 25.9 C 20 %
2833 15-04-2020 17:02:17 25.4 C 20 %
2834 15-04-2020 17:12:17 26.8 C 20 %
2835 15-04-2020 17:22:18 24.8 C 20 %
2836 15-04-2020 17:32:17 24 C 20 %
2837 15-04-2020 17:42:17 22.4 C 20 %
2838 15-04-2020 17:52:18 24.4 C 20 %
2839 15-04-2020 18:02:18 20.6 C 20 %
2840 15-04-2020 18:12:18 20.2 C 20 %
2841 15-04-2020 18:22:18 19.7 C 20 %
2842 15-04-2020 18:32:18 19.1 C 20 %
2843 15-04-2020 18:42:18 19.4 C 20 %
2844 15-04-2020 18:52:17 19.4 C 20 %
2845 15-04-2020 19:02:17 18.8 C 20 %
2846 15-04-2020 19:12:17 18.7 C 20 %
2847 15-04-2020 19:22:17 18.2 C 20 %
2848 15-04-2020 19:32:17 18 C 20 %
2849 15-04-2020 19:42:18 17.3 C 20 %
2850 15-04-2020 19:52:17 15.3 C 20 %
Sensor: Nr:Datum:Temp:Feuchte:
Aussen-T/F 2851 15-04-2020 20:02:18 14 C 20 %
2852 15-04-2020 20:12:18 13.6 C 20 %
2853 15-04-2020 20:22:18 13.4 C 20 %
2854 15-04-2020 20:32:17 13.1 C 20 %
2855 15-04-2020 20:42:18 12.7 C 20 %
2856 15-04-2020 20:52:17 12 C 20 %
2857 15-04-2020 21:02:18 12 C 20 %
2858 15-04-2020 21:12:18 11 C 20 %
2859 15-04-2020 21:22:17 11 C 20 %
2860 15-04-2020 21:32:17 10.5 C 20 %
2861 15-04-2020 21:42:17 9.4 C 25 %
2862 15-04-2020 21:52:17 9 C 26 %
2863 15-04-2020 22:02:17 8.9 C 27 %
2864 15-04-2020 22:12:17 8.6 C 28 %
2865 15-04-2020 22:22:17 8.8 C 28 %
2866 15-04-2020 22:32:18 8.1 C 28 %
2867 15-04-2020 22:42:18 7.7 C 29 %
2868 15-04-2020 22:52:17 7.3 C 30 %
2869 15-04-2020 23:02:17 7.1 C 30 %
2870 15-04-2020 23:12:17 7.2 C 30 %
2871 15-04-2020 23:22:17 7 C 30 %
2872 15-04-2020 23:32:17 6.6 C 31 %
2873 15-04-2020 23:42:18 6.4 C 32 %
2874 15-04-2020 23:52:17 6.2 C 32 %
2875 16-04-2020 00:02:17 6.2 C 32 %
Sensor: Nr:Datum:Temp:Feuchte:
Aussen-T/F 2876 16-04-2020 00:12:17 6 C 33 %
2877 16-04-2020 00:22:17 5.8 C 34 %
2878 16-04-2020 00:32:18 5.5 C 35 %
2879 16-04-2020 00:42:18 5.3 C 35 %
2880 16-04-2020 00:52:17 5.2 C 35 %
2881 16-04-2020 01:02:17 4.8 C 35 %
2882 16-04-2020 01:12:17 4.8 C 35 %
2883 16-04-2020 01:22:17 5.1 C 35 %
2884 16-04-2020 01:32:18 5.1 C 35 %
2885 16-04-2020 01:42:18 4.7 C 36 %
2886 16-04-2020 01:52:17 4.8 C 36 %
2887 16-04-2020 02:02:18 4.6 C 36 %
2888 16-04-2020 02:12:18 4.3 C 36 %
2889 16-04-2020 02:22:18 3.9 C 38 %
2890 16-04-2020 02:32:17 4.1 C 38 %
2891 16-04-2020 02:42:17 4 C 38 %
2892 16-04-2020 02:52:17 3.7 C 39 %
2893 16-04-2020 03:02:17 3.6 C 40 %
2894 16-04-2020 03:12:17 3.6 C 39 %
2895 16-04-2020 03:22:17 3.5 C 39 %
2896 16-04-2020 03:32:17 3.3 C 39 %
2897 16-04-2020 03:42:17 3 C 40 %
2898 16-04-2020 03:52:17 2.9 C 41 %
2899 16-04-2020 04:02:17 3.2 C 40 %
2900 16-04-2020 04:12:17 3.2 C 40 %
Sensor: Nr:Datum:Temp:Feuchte:
Aussen-T/F 2901 16-04-2020 04:22:17 2.7 C 41 %
2902 16-04-2020 04:32:18 2.6 C 41 %
2903 16-04-2020 04:42:18 3 C 41 %
2904 16-04-2020 04:52:17 2.6 C 42 %
2905 16-04-2020 05:02:17 2.7 C 42 %
2906 16-04-2020 05:12:17 2.7 C 42 %
2907 16-04-2020 05:22:17 2.6 C 42 %
2908 16-04-2020 05:32:17 2.3 C 42 %
2909 16-04-2020 05:42:17 2 C 42 %
2910 16-04-2020 05:52:17 2.1 C 43 %
2911 16-04-2020 06:02:18 2.4 C 43 %
2912 16-04-2020 06:12:18 2 C 42 %
2913 16-04-2020 06:22:17 1.6 C 44 %
2914 16-04-2020 06:32:17 1.4 C 44 %
2915 16-04-2020 06:42:17 1.8 C 45 %
2916 16-04-2020 06:52:17 1.8 C 45 %
2917 16-04-2020 07:02:17 1.8 C 45 %
2918 16-04-2020 07:12:17 1.8 C 45 %
2919 16-04-2020 07:22:17 2.2 C 44 %
2920 16-04-2020 07:32:17 2.1 C 44 %
2921 16-04-2020 07:42:17 2.1 C 44 %
2922 16-04-2020 07:52:17 2.5 C 44 %
2923 16-04-2020 08:02:17 2.5 C 44 %
2924 16-04-2020 08:12:17 2.6 C 44 %
2925 16-04-2020 08:22:17 3 C 43 %
Sensor: Nr:Datum:Temp:Feuchte:
Aussen-T/F 2926 16-04-2020 08:32:18 3.2 C 42 %
2927 16-04-2020 08:42:18 3.5 C 42 %
2928 16-04-2020 08:52:17 3.6 C 41 %
2929 16-04-2020 09:02:18 3.9 C 41 %
2930 16-04-2020 09:12:18 4.2 C 41 %
2931 16-04-2020 09:22:17 4.5 C 40 %
2932 16-04-2020 09:32:17 5.1 C 40 %
2933 16-04-2020 09:42:17 5.8 C 39 %
2934 16-04-2020 09:52:17 6.6 C 37 %
2935 16-04-2020 10:02:18 7 C 36 %
2936 16-04-2020 10:12:18 7.5 C 36 %
2937 16-04-2020 10:22:17 8.1 C 35 %
2938 16-04-2020 10:32:17 9.4 C 34 %
2939 16-04-2020 10:42:18 10.4 C 31 %
2940 16-04-2020 10:52:17 11.2 C 30 %
2941 16-04-2020 11:02:18 12.2 C 29 %
2942 16-04-2020 11:12:18 14.2 C 25 %
2943 16-04-2020 11:22:17 15.5 C 20 %
2944 16-04-2020 11:32:17 16.8 C 20 %
2945 16-04-2020 11:42:17 17.6 C 20 %
2946 16-04-2020 11:52:17 18 C 20 %
2947 16-04-2020 12:02:18 18.4 C 20 %
2948 16-04-2020 12:12:18 18.7 C 20 %
2949 16-04-2020 12:22:17 19.1 C 20 %
2950 16-04-2020 12:32:18 19.3 C 20 %
Sensor: Nr:Datum:Temp:Feuchte:
Aussen-T/F 2951 16-04-2020 12:42:18 19.5 C 20 %
2952 16-04-2020 12:52:17 19.6 C 20 %
2953 16-04-2020 13:02:18 20.1 C 20 %
2954 16-04-2020 13:12:18 20.5 C 20 %
2955 16-04-2020 13:22:17 20.8 C 20 %
2956 16-04-2020 13:32:18 21.1 C 20 %
2957 16-04-2020 13:42:18 21.5 C 20 %
2958 16-04-2020 13:52:17 21.7 C 20 %
2959 16-04-2020 14:02:17 22 C 20 %
2960 16-04-2020 14:12:17 22.4 C 20 %
2961 16-04-2020 14:22:17 22.8 C 20 %
2962 16-04-2020 14:32:17 26.2 C 20 %
2963 16-04-2020 14:42:17 28 C 20 %
2964 16-04-2020 14:52:17 29.6 C 20 %
2965 16-04-2020 15:02:17 29.8 C 20 %
2966 16-04-2020 15:12:17 29.5 C 20 %
2967 16-04-2020 15:22:17 28.5 C 20 %
2968 16-04-2020 15:32:18 30.1 C 20 %
2969 16-04-2020 15:42:18 25.8 C 20 %
2970 16-04-2020 15:52:17 27.1 C 20 %
2971 16-04-2020 16:02:17 29.5 C 20 %
2972 16-04-2020 16:12:17 28.4 C 20 %
2973 16-04-2020 16:22:17 26.5 C 20 %
2974 16-04-2020 16:32:17 26.6 C 20 %
2975 16-04-2020 16:42:18 27.2 C 20 %
Sensor: Nr:Datum:Temp:Feuchte:
Aussen-T/F 2976 16-04-2020 16:52:17 24.9 C 20 %
2977 16-04-2020 17:02:17 25 C 20 %
2978 16-04-2020 17:12:17 26.1 C 20 %
2979 16-04-2020 17:22:18 28.3 C 20 %
2980 16-04-2020 17:32:17 27.6 C 20 %
2981 16-04-2020 17:42:17 27.3 C 20 %
2982 16-04-2020 17:52:17 26.5 C 20 %
2983 16-04-2020 18:02:17 25.6 C 20 %
2984 16-04-2020 18:12:17 24.3 C 20 %
2985 16-04-2020 18:22:17 24.4 C 20 %
2986 16-04-2020 18:32:17 24.2 C 20 %
2987 16-04-2020 18:42:17 23.9 C 20 %
2988 16-04-2020 18:52:17 24 C 20 %
2989 16-04-2020 19:02:17 23.2 C 20 %
2990 16-04-2020 19:12:17 22.9 C 20 %
2991 16-04-2020 19:22:17 22.2 C 20 %
2992 16-04-2020 19:32:18 21.9 C 20 %
2993 16-04-2020 19:42:18 21.2 C 20 %
2994 16-04-2020 19:52:17 20.5 C 20 %
2995 16-04-2020 20:02:17 19.5 C 20 %
2996 16-04-2020 20:12:17 19.2 C 20 %
2997 16-04-2020 20:22:17 19.3 C 20 %
2998 16-04-2020 20:32:18 19.1 C 20 %
2999 16-04-2020 20:42:18 18.9 C 20 %
3000 16-04-2020 20:52:18 18.5 C 20 %
Sensor: Nr:Datum:Temp:Feuchte:
Aussen-T/F 3001 16-04-2020 21:02:17 17.9 C 20 %
3002 16-04-2020 21:12:17 16.5 C 20 %
3003 16-04-2020 21:22:17 16.1 C 20 %
3004 16-04-2020 21:32:18 15.5 C 20 %
3005 16-04-2020 21:42:18 14.7 C 21 %
3006 16-04-2020 21:52:17 14.4 C 22 %
3007 16-04-2020 22:02:17 14.5 C 22 %
3008 16-04-2020 22:12:17 13.5 C 25 %
3009 16-04-2020 22:22:17 14.1 C 25 %
3010 16-04-2020 22:32:17 13.8 C 25 %
3011 16-04-2020 22:42:18 13.1 C 26 %
3012 16-04-2020 22:52:17 12.4 C 28 %
3013 16-04-2020 23:02:17 12.5 C 29 %
3014 16-04-2020 23:12:17 12.2 C 30 %
3015 16-04-2020 23:22:17 11.7 C 30 %
3016 16-04-2020 23:32:18 11.6 C 31 %
3017 16-04-2020 23:42:18 11.6 C 31 %
3018 16-04-2020 23:52:17 11.8 C 31 %
3019 17-04-2020 00:02:18 11.4 C 31 %
3020 17-04-2020 00:12:18 11 C 31 %
3021 17-04-2020 00:22:17 11 C 32 %
3022 17-04-2020 00:32:17 11 C 32 %
3023 17-04-2020 00:42:17 11 C 32 %
3024 17-04-2020 00:52:18 10.4 C 33 %
3025 17-04-2020 01:02:17 10.1 C 34 %
Sensor: Nr:Datum:Temp:Feuchte:
Aussen-T/F 3026 17-04-2020 01:12:18 10.1 C 34 %
3027 17-04-2020 01:22:18 9.8 C 35 %
3028 17-04-2020 01:32:18 10 C 35 %
3029 17-04-2020 01:42:18 10 C 35 %
3030 17-04-2020 01:52:17 9.5 C 36 %
3031 17-04-2020 02:02:17 9.7 C 36 %
3032 17-04-2020 02:12:17 9.6 C 36 %
3033 17-04-2020 02:22:17 9.1 C 36 %
3034 17-04-2020 02:32:17 8.9 C 37 %
3035 17-04-2020 02:42:17 8.5 C 38 %
3036 17-04-2020 02:52:17 8.1 C 38 %
3037 17-04-2020 03:02:17 7.9 C 39 %
3038 17-04-2020 03:12:18 7.9 C 40 %
3039 17-04-2020 03:22:18 7.8 C 40 %
3040 17-04-2020 03:32:17 7.8 C 40 %
3041 17-04-2020 03:42:18 7.8 C 40 %
3042 17-04-2020 03:52:18 8.5 C 39 %
3043 17-04-2020 04:02:17 8.4 C 39 %
3044 17-04-2020 04:12:17 8.3 C 39 %
3045 17-04-2020 04:22:17 8 C 39 %
3046 17-04-2020 04:32:17 7.9 C 40 %
3047 17-04-2020 04:42:17 8 C 40 %
3048 17-04-2020 04:52:17 7.8 C 40 %
3049 17-04-2020 05:02:17 7.5 C 40 %
3050 17-04-2020 05:12:18 6.9 C 41 %
Sensor: Nr:Datum:Temp:Feuchte:
Aussen-T/F 3051 17-04-2020 05:22:17 6.7 C 42 %
3052 17-04-2020 05:32:18 6.6 C 42 %
3053 17-04-2020 05:42:18 6.7 C 43 %
3054 17-04-2020 05:52:18 6.5 C 42 %
3055 17-04-2020 06:02:18 6.5 C 43 %
3056 17-04-2020 06:12:18 6.2 C 43 %
3057 17-04-2020 06:22:17 6 C 43 %
3058 17-04-2020 06:32:17 6 C 44 %
3059 17-04-2020 06:42:17 5.8 C 44 %
3060 17-04-2020 06:52:17 5.8 C 44 %
3061 17-04-2020 07:02:18 5.8 C 45 %
3062 17-04-2020 07:12:18 5.9 C 45 %
3063 17-04-2020 07:22:18 6.1 C 45 %
3064 17-04-2020 07:32:17 6.1 C 45 %
3065 17-04-2020 07:42:17 6.3 C 45 %
3066 17-04-2020 07:52:17 6.3 C 45 %
3067 17-04-2020 08:02:17 6.5 C 45 %
3068 17-04-2020 08:12:17 6.7 C 45 %
3069 17-04-2020 08:22:17 6.9 C 45 %
3070 17-04-2020 08:32:18 7 C 44 %
3071 17-04-2020 08:42:18 7.6 C 44 %
3072 17-04-2020 08:52:17 7.9 C 44 %
3073 17-04-2020 09:02:18 8.4 C 42 %
3074 17-04-2020 09:12:18 8.6 C 42 %
3075 17-04-2020 09:22:17 8.8 C 41 %
Sensor: Nr:Datum:Temp:Feuchte:
Aussen-T/F 3076 17-04-2020 09:32:17 9.3 C 41 %
3077 17-04-2020 09:42:17 9.6 C 40 %
3078 17-04-2020 09:52:18 10.3 C 39 %
3079 17-04-2020 10:02:17 10.8 C 38 %
3080 17-04-2020 10:12:17 11 C 37 %
3081 17-04-2020 10:22:18 11.8 C 36 %
3082 17-04-2020 10:32:18 12.4 C 35 %
3083 17-04-2020 10:42:18 13 C 34 %
3084 17-04-2020 10:52:17 13.9 C 34 %
3085 17-04-2020 11:02:17 14.6 C 32 %
3086 17-04-2020 11:12:17 15.8 C 30 %
3087 17-04-2020 11:22:18 16.5 C 28 %
3088 17-04-2020 11:32:17 17.1 C 28 %
3089 17-04-2020 11:42:17 17.7 C 26 %
3090 17-04-2020 11:52:17 17.9 C 25 %
3091 17-04-2020 12:02:18 18.5 C 25 %
3092 17-04-2020 12:12:18 18.7 C 24 %
3093 17-04-2020 12:22:17 19.1 C 22 %
3094 17-04-2020 12:32:17 19.7 C 20 %
3095 17-04-2020 12:42:17 19.7 C 20 %
3096 17-04-2020 12:52:17 19.7 C 20 %
3097 17-04-2020 13:02:18 20 C 20 %
3098 17-04-2020 13:12:18 20.4 C 20 %
3099 17-04-2020 13:22:17 20.6 C 20 %
3100 17-04-2020 13:32:17 20.8 C 20 %
Sensor: Nr:Datum:Temp:Feuchte:
Aussen-T/F 3101 17-04-2020 13:42:17 21.1 C 20 %
3102 17-04-2020 13:52:17 21.6 C 20 %
3103 17-04-2020 14:02:18 21.8 C 20 %
3104 17-04-2020 14:12:18 22.6 C 20 %
3105 17-04-2020 14:22:17 23.2 C 20 %
3106 17-04-2020 14:32:17 25.2 C 20 %
3107 17-04-2020 14:42:17 29 C 20 %
3108 17-04-2020 14:52:17 32.1 C 20 %
3109 17-04-2020 15:02:17 30.9 C 20 %
3110 17-04-2020 15:12:17 31.4 C 20 %
3111 17-04-2020 15:22:17 29.6 C 20 %
3112 17-04-2020 15:32:17 29.2 C 20 %
3113 17-04-2020 15:42:17 29 C 20 %
3114 17-04-2020 15:52:18 25.7 C 20 %
3115 17-04-2020 16:02:17 30.3 C 20 %
3116 17-04-2020 16:12:17 30.2 C 20 %
3117 17-04-2020 16:22:17 27.5 C 20 %
3118 17-04-2020 16:32:17 28.2 C 20 %
3119 17-04-2020 16:42:17 28.2 C 20 %
3120 17-04-2020 16:52:17 27.7 C 20 %
3121 17-04-2020 17:02:18 29.6 C 20 %
3122 17-04-2020 17:12:18 29.4 C 20 %
3123 17-04-2020 17:22:17 29.5 C 20 %
3124 17-04-2020 17:32:17 30.4 C 20 %
3125 17-04-2020 17:42:18 27.7 C 20 %
Sensor: Nr:Datum:Temp:Feuchte:
Aussen-T/F 3126 17-04-2020 17:52:17 28.5 C 20 %
3127 17-04-2020 18:02:17 26.6 C 20 %
3128 17-04-2020 18:12:17 26.2 C 20 %
3129 17-04-2020 18:22:17 25.7 C 20 %
3130 17-04-2020 18:32:17 24.8 C 20 %
3131 17-04-2020 18:42:17 24.7 C 20 %
3132 17-04-2020 18:52:18 24.2 C 20 %
3133 17-04-2020 19:02:17 24.1 C 20 %
3134 17-04-2020 19:12:17 23.7 C 20 %
3135 17-04-2020 19:22:17 23 C 20 %
3136 17-04-2020 19:32:17 22.2 C 20 %
3137 17-04-2020 19:42:17 21.7 C 20 %
3138 17-04-2020 19:52:17 20.7 C 20 %
3139 17-04-2020 20:02:17 20 C 20 %
3140 17-04-2020 20:12:17 19.5 C 20 %
3141 17-04-2020 20:22:17 18.8 C 21 %
3142 17-04-2020 20:32:17 18.4 C 21 %
3143 17-04-2020 20:42:17 18.2 C 21 %
3144 17-04-2020 20:52:17 17.7 C 23 %
3145 17-04-2020 21:02:17 17.5 C 23 %
3146 17-04-2020 21:12:17 17.7 C 24 %
3147 17-04-2020 21:22:17 17.6 C 25 %
3148 17-04-2020 21:32:18 17.8 C 24 %
3149 17-04-2020 21:42:18 17 C 25 %
3150 17-04-2020 21:52:18 16.8 C 25 %
Sensor: Nr:Datum:Temp:Feuchte:
Aussen-T/F 3151 17-04-2020 22:02:17 16 C 26 %
3152 17-04-2020 22:12:17 16 C 26 %
3153 17-04-2020 22:22:17 15.8 C 26 %
3154 17-04-2020 22:32:17 15.7 C 26 %
3155 17-04-2020 22:42:17 15.1 C 27 %
3156 17-04-2020 22:52:17 14.6 C 29 %
3157 17-04-2020 23:02:17 14.7 C 30 %
3158 17-04-2020 23:12:17 14.4 C 29 %
3159 17-04-2020 23:22:18 14.1 C 30 %
3160 17-04-2020 23:32:17 14 C 30 %
3161 17-04-2020 23:42:17 13.6 C 31 %
3162 17-04-2020 23:52:17 13.5 C 31 %
3163 18-04-2020 00:02:17 13.4 C 31 %
3164 18-04-2020 00:12:17 13.1 C 32 %
3165 18-04-2020 00:22:18 12.6 C 33 %
3166 18-04-2020 00:32:17 12.2 C 33 %
3167 18-04-2020 00:42:18 12 C 33 %
3168 18-04-2020 00:52:17 11.8 C 34 %
3169 18-04-2020 01:02:18 11.8 C 34 %
3170 18-04-2020 01:12:18 11.8 C 34 %
3171 18-04-2020 01:22:17 11.4 C 34 %
3172 18-04-2020 01:32:18 11.1 C 35 %
3173 18-04-2020 01:42:18 10.9 C 36 %
3174 18-04-2020 01:52:17 10.9 C 36 %
3175 18-04-2020 02:02:18 10.8 C 36 %
Sensor: Nr:Datum:Temp:Feuchte:
Aussen-T/F 3176 18-04-2020 02:12:18 10.6 C 36 %
3177 18-04-2020 02:22:17 10.7 C 36 %
3178 18-04-2020 02:32:17 10.1 C 37 %
3179 18-04-2020 02:42:17 10 C 38 %
3180 18-04-2020 02:52:18 9.8 C 38 %
3181 18-04-2020 03:02:17 9.7 C 39 %
3182 18-04-2020 03:12:17 9.6 C 39 %
3183 18-04-2020 03:22:18 9.2 C 39 %
3184 18-04-2020 03:32:18 9 C 39 %
3185 18-04-2020 03:42:18 9 C 39 %
3186 18-04-2020 03:52:18 8.9 C 40 %
3187 18-04-2020 04:02:17 9 C 40 %
3188 18-04-2020 04:12:17 9 C 40 %
3189 18-04-2020 04:22:17 9 C 40 %
3190 18-04-2020 04:32:18 8.9 C 41 %
3191 18-04-2020 04:42:18 8.8 C 41 %
3192 18-04-2020 04:52:17 8.6 C 41 %
3193 18-04-2020 05:02:17 8.4 C 41 %
3194 18-04-2020 05:12:17 8.5 C 41 %
3195 18-04-2020 05:22:17 8.7 C 40 %
3196 18-04-2020 05:32:17 8.6 C 41 %
3197 18-04-2020 05:42:17 8.3 C 41 %
3198 18-04-2020 05:52:18 8.6 C 41 %
3199 18-04-2020 06:02:17 8.7 C 41 %
3200 18-04-2020 06:12:17 8.6 C 41 %
Sensor: Nr:Datum:Temp:Feuchte:
Aussen-T/F 3201 18-04-2020 06:22:17 8.7 C 41 %
3202 18-04-2020 06:32:17 8.3 C 41 %
3203 18-04-2020 06:42:17 8.1 C 41 %
3204 18-04-2020 06:52:17 8.2 C 41 %
3205 18-04-2020 07:02:17 8.4 C 42 %
3206 18-04-2020 07:12:17 8.7 C 42 %
3207 18-04-2020 07:22:17 9.4 C 42 %
3208 18-04-2020 07:32:17 9.6 C 41 %
3209 18-04-2020 07:42:17 9.7 C 41 %
3210 18-04-2020 07:52:17 9.7 C 41 %
3211 18-04-2020 08:02:18 9.7 C 41 %
3212 18-04-2020 08:12:18 10 C 40 %
3213 18-04-2020 08:22:17 10.1 C 40 %
3214 18-04-2020 08:32:17 10.2 C 40 %
3215 18-04-2020 08:42:18 10.6 C 40 %
3216 18-04-2020 08:52:18 11.1 C 39 %
3217 18-04-2020 09:02:17 11.7 C 38 %
3218 18-04-2020 09:12:17 12.1 C 37 %
3219 18-04-2020 09:22:17 12.5 C 36 %
3220 18-04-2020 09:32:18 13.4 C 35 %
3221 18-04-2020 09:42:18 13.8 C 34 %
3222 18-04-2020 09:52:18 14.4 C 32 %
3223 18-04-2020 10:02:18 15 C 31 %
3224 18-04-2020 10:12:18 14.9 C 31 %
3225 18-04-2020 10:22:18 16.2 C 30 %
Sensor: Nr:Datum:Temp:Feuchte:
Aussen-T/F 3226 18-04-2020 10:32:18 15.8 C 30 %
3227 18-04-2020 10:42:18 17.2 C 29 %
3228 18-04-2020 10:52:18 17.9 C 29 %
3229 18-04-2020 11:02:18 18.5 C 27 %
3230 18-04-2020 11:12:18 18.3 C 27 %
3231 18-04-2020 11:22:17 18.5 C 26 %
3232 18-04-2020 11:32:18 17.8 C 27 %
3233 18-04-2020 11:42:18 18.6 C 26 %
3234 18-04-2020 11:52:18 18.9 C 27 %
3235 18-04-2020 12:02:17 19.1 C 26 %
3236 18-04-2020 12:12:17 20 C 25 %
3237 18-04-2020 12:22:18 20.2 C 24 %
3238 18-04-2020 12:32:18 20.1 C 24 %
3239 18-04-2020 12:42:18 19.6 C 25 %
3240 18-04-2020 12:52:17 19.3 C 25 %
3241 18-04-2020 13:02:17 20.8 C 24 %
3242 18-04-2020 13:12:17 21.8 C 21 %
3243 18-04-2020 13:22:18 21.5 C 20 %
3244 18-04-2020 13:32:18 21.8 C 20 %
3245 18-04-2020 13:42:18 22.4 C 20 %
3246 18-04-2020 13:52:18 21.6 C 20 %
3247 18-04-2020 14:02:18 21.2 C 20 %
3248 18-04-2020 14:12:18 21.7 C 20 %
3249 18-04-2020 14:22:18 22.4 C 20 %
3250 18-04-2020 14:32:17 22.4 C 20 %
Sensor: Nr:Datum:Temp:Feuchte:
Aussen-T/F 3251 18-04-2020 14:42:17 22.8 C 20 %
3252 18-04-2020 14:52:17 22.6 C 20 %
3253 18-04-2020 15:02:17 25.4 C 20 %
3254 18-04-2020 15:12:18 30.4 C 20 %
3255 18-04-2020 15:22:17 28.2 C 20 %
3256 18-04-2020 15:32:17 23.8 C 20 %
3257 18-04-2020 15:42:17 23.2 C 20 %
3258 18-04-2020 15:52:17 22.2 C 20 %
3259 18-04-2020 16:02:18 21.8 C 20 %
3260 18-04-2020 16:12:18 21.8 C 20 %
3261 18-04-2020 16:22:18 20.6 C 20 %
3262 18-04-2020 16:32:17 19.7 C 25 %
3263 18-04-2020 16:42:17 20 C 25 %
3264 18-04-2020 16:52:17 19.9 C 25 %
3265 18-04-2020 17:02:17 19.1 C 26 %
3266 18-04-2020 17:12:17 18.9 C 27 %
3267 18-04-2020 17:22:17 18.7 C 28 %
3268 18-04-2020 17:32:18 17.6 C 33 %
3269 18-04-2020 17:42:18 17.5 C 33 %
3270 18-04-2020 17:52:18 17.4 C 33 %
3271 18-04-2020 18:02:18 17.3 C 34 %
3272 18-04-2020 18:12:18 17.1 C 34 %
3273 18-04-2020 18:22:17 17.3 C 33 %
3274 18-04-2020 18:32:18 17.7 C 31 %
3275 18-04-2020 18:42:18 17.7 C 31 %
Sensor: Nr:Datum:Temp:Feuchte:
Aussen-T/F 3276 18-04-2020 18:52:17 17.9 C 30 %
3277 18-04-2020 19:02:18 18.1 C 30 %
3278 18-04-2020 19:12:18 17.9 C 30 %
3279 18-04-2020 19:22:17 17.6 C 30 %
3280 18-04-2020 19:32:17 17.8 C 30 %
3281 18-04-2020 19:42:17 18.1 C 29 %
3282 18-04-2020 19:52:18 17.7 C 30 %
3283 18-04-2020 20:02:17 17.3 C 30 %
3284 18-04-2020 20:12:17 16.5 C 30 %
3285 18-04-2020 20:22:17 15.9 C 31 %
3286 18-04-2020 20:32:17 15 C 32 %
3287 18-04-2020 20:42:17 14.8 C 34 %
3288 18-04-2020 20:52:17 14.5 C 34 %
3289 18-04-2020 21:02:18 14.5 C 35 %
3290 18-04-2020 21:12:18 14.9 C 34 %
3291 18-04-2020 21:22:17 15 C 33 %
3292 18-04-2020 21:32:17 15.1 C 33 %
3293 18-04-2020 21:42:17 15 C 33 %
3294 18-04-2020 21:52:18 14.8 C 34 %
3295 18-04-2020 22:02:17 14.4 C 34 %
3296 18-04-2020 22:12:17 14.5 C 35 %
3297 18-04-2020 22:22:17 13.7 C 35 %
3298 18-04-2020 22:32:18 13.4 C 36 %
3299 18-04-2020 22:42:18 12.8 C 37 %
3300 18-04-2020 22:52:17 12.8 C 37 %
Sensor: Nr:Datum:Temp:Feuchte:
Aussen-T/F 3301 18-04-2020 23:02:18 12.7 C 38 %
3302 18-04-2020 23:12:18 12.3 C 38 %
3303 18-04-2020 23:22:17 12.1 C 38 %
3304 18-04-2020 23:32:17 11.7 C 40 %
3305 18-04-2020 23:42:17 11.1 C 40 %
3306 18-04-2020 23:52:17 10.9 C 42 %
3307 19-04-2020 00:02:18 10.6 C 43 %
3308 19-04-2020 00:12:18 10.7 C 43 %
3309 19-04-2020 00:22:17 10.2 C 43 %
3310 19-04-2020 00:32:17 10.2 C 43 %
3311 19-04-2020 00:42:17 10.1 C 44 %
3312 19-04-2020 00:52:17 9.8 C 44 %
3313 19-04-2020 01:02:17 9.8 C 45 %
3314 19-04-2020 01:12:17 9.9 C 45 %
3315 19-04-2020 01:22:17 9.6 C 44 %
3316 19-04-2020 01:32:17 9.6 C 45 %
3317 19-04-2020 01:42:17 9.9 C 45 %
3318 19-04-2020 01:52:17 9.5 C 45 %
3319 19-04-2020 02:02:17 9.5 C 45 %
3320 19-04-2020 02:12:18 9.6 C 45 %
3321 19-04-2020 02:22:17 9.7 C 45 %
3322 19-04-2020 02:32:17 10 C 45 %
3323 19-04-2020 02:42:17 10 C 44 %
3324 19-04-2020 02:52:17 9.8 C 45 %
3325 19-04-2020 03:02:17 9.6 C 45 %
Sensor: Nr:Datum:Temp:Feuchte:
Aussen-T/F 3326 19-04-2020 03:12:17 9.3 C 44 %
3327 19-04-2020 03:22:17 9.1 C 45 %
3328 19-04-2020 03:32:17 8.9 C 45 %
3329 19-04-2020 03:42:17 8.7 C 45 %
3330 19-04-2020 03:52:17 8.7 C 45 %
3331 19-04-2020 04:02:17 8.5 C 45 %
3332 19-04-2020 04:12:17 9.2 C 45 %
3333 19-04-2020 04:22:17 9.2 C 45 %
3334 19-04-2020 04:32:17 9.4 C 45 %
3335 19-04-2020 04:42:17 9.6 C 45 %
3336 19-04-2020 04:52:17 9.6 C 45 %
3337 19-04-2020 05:02:17 9.7 C 45 %
3338 19-04-2020 05:12:17 9.6 C 45 %
3339 19-04-2020 05:22:18 9.6 C 45 %
3340 19-04-2020 05:32:17 9.7 C 45 %
3341 19-04-2020 05:42:17 9.7 C 45 %
3342 19-04-2020 05:52:17 9.8 C 45 %
3343 19-04-2020 06:02:17 9.9 C 45 %
3344 19-04-2020 06:12:17 10.1 C 44 %
3345 19-04-2020 06:22:17 10.1 C 44 %
3346 19-04-2020 06:32:17 10.2 C 44 %
3347 19-04-2020 06:42:17 10.2 C 44 %
3348 19-04-2020 06:52:18 10.3 C 44 %
3349 19-04-2020 07:02:18 10.3 C 44 %
3350 19-04-2020 07:12:18 10.4 C 44 %
Sensor: Nr:Datum:Temp:Feuchte:
Aussen-T/F 3351 19-04-2020 07:22:17 10.6 C 44 %
3352 19-04-2020 07:32:18 10.5 C 43 %
3353 19-04-2020 07:42:18 10.6 C 43 %
3354 19-04-2020 07:52:17 10.6 C 43 %
3355 19-04-2020 08:02:17 10.7 C 43 %
3356 19-04-2020 08:12:17 11.3 C 42 %
3357 19-04-2020 08:22:17 11.5 C 41 %
3358 19-04-2020 08:32:17 12 C 40 %
3359 19-04-2020 08:42:17 12.4 C 39 %
3360 19-04-2020 08:52:17 13.2 C 37 %
3361 19-04-2020 09:02:17 12.5 C 38 %
3362 19-04-2020 09:12:18 13 C 37 %
3363 19-04-2020 09:22:18 13.2 C 36 %
3364 19-04-2020 09:32:17 13.5 C 36 %
3365 19-04-2020 09:42:17 13.8 C 36 %
3366 19-04-2020 09:52:17 13.8 C 35 %
3367 19-04-2020 10:02:17 13.7 C 35 %
3368 19-04-2020 10:12:17 14.2 C 35 %
3369 19-04-2020 10:22:17 14.7 C 34 %
3370 19-04-2020 10:32:17 15.5 C 33 %
3371 19-04-2020 10:42:17 16.4 C 31 %
3372 19-04-2020 10:52:17 16.4 C 31 %
3373 19-04-2020 11:02:17 15.7 C 32 %
3374 19-04-2020 11:12:17 14.7 C 33 %
3375 19-04-2020 11:22:17 14.7 C 33 %
Sensor: Nr:Datum:Temp:Feuchte:
Aussen-T/F 3376 19-04-2020 11:32:17 14.4 C 34 %
3377 19-04-2020 11:42:17 14 C 34 %
3378 19-04-2020 11:52:17 13.8 C 35 %
3379 19-04-2020 12:02:17 14.2 C 34 %
3380 19-04-2020 12:12:17 14.7 C 34 %
3381 19-04-2020 12:22:17 16 C 31 %
3382 19-04-2020 12:32:18 16 C 31 %
3383 19-04-2020 12:42:18 16.3 C 30 %
3384 19-04-2020 12:52:17 16.9 C 30 %
3385 19-04-2020 13:02:17 17.4 C 28 %
3386 19-04-2020 13:12:17 16.9 C 29 %
3387 19-04-2020 13:22:17 17.4 C 27 %
3388 19-04-2020 13:32:17 18.8 C 26 %
3389 19-04-2020 13:42:17 19.1 C 25 %
3390 19-04-2020 13:52:17 19.3 C 25 %
3391 19-04-2020 14:02:18 18.8 C 25 %
3392 19-04-2020 14:12:18 18.6 C 25 %
3393 19-04-2020 14:22:17 18.1 C 25 %
3394 19-04-2020 14:32:17 17.4 C 26 %
3395 19-04-2020 14:42:17 18 C 26 %
3396 19-04-2020 14:52:17 17.1 C 26 %
3397 19-04-2020 15:02:18 16.9 C 26 %
3398 19-04-2020 15:12:18 16.6 C 26 %
3399 19-04-2020 15:22:17 17 C 25 %
3400 19-04-2020 15:32:17 17.2 C 25 %
Sensor: Nr:Datum:Temp:Feuchte:
Aussen-T/F 3401 19-04-2020 15:42:18 17.8 C 25 %
3402 19-04-2020 15:52:18 18.1 C 24 %
3403 19-04-2020 16:02:17 19.2 C 22 %
3404 19-04-2020 16:12:17 22.2 C 20 %
3405 19-04-2020 16:22:17 20.2 C 20 %
3406 19-04-2020 16:32:17 18.6 C 20 %
3407 19-04-2020 16:42:17 20.5 C 20 %
3408 19-04-2020 16:52:17 21.3 C 20 %
3409 19-04-2020 17:02:17 17.5 C 20 %
3410 19-04-2020 17:12:17 18.6 C 20 %
3411 19-04-2020 17:22:17 19.7 C 20 %
3412 19-04-2020 17:32:18 18.9 C 20 %
3413 19-04-2020 17:42:18 19.2 C 20 %
3414 19-04-2020 17:52:17 18.6 C 20 %
3415 19-04-2020 18:02:18 17.4 C 20 %
3416 19-04-2020 18:12:18 17.3 C 20 %
3417 19-04-2020 18:22:17 17.3 C 20 %
3418 19-04-2020 18:32:17 17.3 C 20 %
3419 19-04-2020 18:42:17 16.8 C 20 %
3420 19-04-2020 18:52:17 16.8 C 20 %
3421 19-04-2020 19:02:17 16.8 C 20 %
3422 19-04-2020 19:12:17 16.7 C 20 %
3423 19-04-2020 19:22:17 16.3 C 20 %
3424 19-04-2020 19:32:18 16 C 20 %
3425 19-04-2020 19:42:18 15.6 C 20 %
Sensor: Nr:Datum:Temp:Feuchte:
Aussen-T/F 3426 19-04-2020 19:52:17 15.1 C 20 %
3427 19-04-2020 20:02:18 14.7 C 20 %
3428 19-04-2020 20:12:18 13.7 C 23 %
3429 19-04-2020 20:22:17 13.3 C 24 %
3430 19-04-2020 20:32:17 13 C 25 %
3431 19-04-2020 20:42:17 12.5 C 26 %
3432 19-04-2020 20:52:17 12.3 C 26 %
3433 19-04-2020 21:02:18 12 C 26 %
3434 19-04-2020 21:12:18 12 C 26 %
3435 19-04-2020 21:22:17 11.7 C 27 %
3436 19-04-2020 21:32:17 11.5 C 27 %
3437 19-04-2020 21:42:17 11.4 C 27 %
3438 19-04-2020 21:52:17 11 C 27 %
3439 19-04-2020 22:02:17 11.2 C 26 %
3440 19-04-2020 22:12:17 11 C 26 %
3441 19-04-2020 22:22:17 11.1 C 26 %
3442 19-04-2020 22:32:17 10.9 C 26 %
3443 19-04-2020 22:42:17 10.3 C 26 %
3444 19-04-2020 22:52:17 10.2 C 26 %
3445 19-04-2020 23:02:18 11.1 C 25 %
3446 19-04-2020 23:12:18 10.1 C 25 %
3447 19-04-2020 23:22:18 9.7 C 27 %
3448 19-04-2020 23:32:17 10.3 C 22 %
3449 19-04-2020 23:42:17 10.3 C 25 %
3450 19-04-2020 23:52:17 10.3 C 23 %
Sensor: Nr:Datum:Temp:Feuchte:
Aussen-T/F 3451 20-04-2020 00:02:17 10.1 C 25 %
3452 20-04-2020 00:12:17 9.6 C 25 %
3453 20-04-2020 00:22:17 10.1 C 21 %
3454 20-04-2020 00:32:18 9.9 C 23 %
3455 20-04-2020 00:42:18 9.6 C 25 %
3456 20-04-2020 00:52:18 9.3 C 25 %
3457 20-04-2020 01:02:17 9.8 C 23 %
3458 20-04-2020 01:12:17 9.3 C 23 %
3459 20-04-2020 01:22:17 9.1 C 21 %
3460 20-04-2020 01:32:17 9.6 C 21 %
3461 20-04-2020 01:42:17 9.1 C 21 %
3462 20-04-2020 01:52:17 8.5 C 25 %
3463 20-04-2020 02:02:18 8.1 C 26 %
3464 20-04-2020 02:12:18 7.9 C 26 %
3465 20-04-2020 02:22:17 7.5 C 27 %
3466 20-04-2020 02:32:18 7.3 C 27 %
3467 20-04-2020 02:42:18 7.3 C 27 %
3468 20-04-2020 02:52:17 7.3 C 27 %
3469 20-04-2020 03:02:17 7 C 27 %
3470 20-04-2020 03:12:17 6.9 C 28 %
3471 20-04-2020 03:22:17 6.7 C 29 %
3472 20-04-2020 03:32:17 6.9 C 28 %
3473 20-04-2020 03:42:17 6.9 C 28 %
3474 20-04-2020 03:52:17 6.7 C 29 %
3475 20-04-2020 04:02:17 6.6 C 28 %
Sensor: Nr:Datum:Temp:Feuchte:
Aussen-T/F 3476 20-04-2020 04:12:17 6.5 C 28 %
3477 20-04-2020 04:22:17 6.4 C 29 %
3478 20-04-2020 04:32:18 6.4 C 28 %
3479 20-04-2020 04:42:18 6.4 C 28 %
3480 20-04-2020 04:52:17 6.2 C 29 %
3481 20-04-2020 05:02:18 6.4 C 29 %
3482 20-04-2020 05:12:18 6.3 C 29 %
3483 20-04-2020 05:22:17 6.3 C 29 %
3484 20-04-2020 05:32:17 6.2 C 30 %
3485 20-04-2020 05:42:18 6.3 C 29 %
3486 20-04-2020 05:52:17 6.3 C 29 %
3487 20-04-2020 06:02:18 6 C 30 %
3488 20-04-2020 06:12:18 5.9 C 30 %
3489 20-04-2020 06:22:17 5.9 C 30 %
3490 20-04-2020 06:32:17 6.1 C 30 %
3491 20-04-2020 06:42:17 6.1 C 30 %
3492 20-04-2020 06:52:17 5.9 C 30 %
3493 20-04-2020 07:02:17 6.1 C 30 %
3494 20-04-2020 07:12:17 6.2 C 30 %
3495 20-04-2020 07:22:17 6.2 C 30 %
3496 20-04-2020 07:32:17 6.4 C 30 %
3497 20-04-2020 07:42:17 7.2 C 27 %
3498 20-04-2020 07:52:17 7.4 C 27 %
3499 20-04-2020 08:02:18 7.3 C 27 %
3500 20-04-2020 08:12:18 7.9 C 26 %
Sensor: Nr:Datum:Temp:Feuchte:
Aussen-T/F 3501 20-04-2020 08:22:17 7.8 C 27 %
3502 20-04-2020 08:32:17 7.7 C 28 %
3503 20-04-2020 08:42:18 7.9 C 26 %
3504 20-04-2020 08:52:18 8.1 C 26 %
3505 20-04-2020 09:02:17 8.3 C 26 %
3506 20-04-2020 09:12:17 8.2 C 27 %
3507 20-04-2020 09:22:17 8.4 C 27 %
3508 20-04-2020 09:32:17 9 C 25 %
3509 20-04-2020 09:42:17 9.4 C 25 %
3510 20-04-2020 09:52:18 9.4 C 26 %
3511 20-04-2020 10:02:18 9.9 C 26 %
3512 20-04-2020 10:12:18 10.7 C 22 %
3513 20-04-2020 10:22:17 11.4 C 20 %
3514 20-04-2020 10:32:17 12.1 C 20 %
3515 20-04-2020 10:42:18 12.7 C 20 %
3516 20-04-2020 10:52:17 13.1 C 20 %
3517 20-04-2020 11:02:18 13.7 C 20 %
3518 20-04-2020 11:12:18 14 C 20 %
3519 20-04-2020 11:22:17 14.4 C 20 %
3520 20-04-2020 11:32:17 14.7 C 20 %
3521 20-04-2020 11:42:18 14.8 C 20 %
3522 20-04-2020 11:52:17 15 C 20 %
3523 20-04-2020 12:02:17 15.2 C 20 %
3524 20-04-2020 12:12:17 15 C 20 %
3525 20-04-2020 12:22:17 15 C 20 %
Sensor: Nr:Datum:Temp:Feuchte:
Aussen-T/F 3526 20-04-2020 12:32:17 15.1 C 20 %
3527 20-04-2020 12:42:17 15.1 C 20 %
3528 20-04-2020 12:52:17 15.4 C 20 %
3529 20-04-2020 13:02:17 15.4 C 20 %
3530 20-04-2020 13:12:17 16 C 20 %
3531 20-04-2020 13:22:17 15.8 C 20 %
3532 20-04-2020 13:32:17 16.1 C 20 %
3533 20-04-2020 13:42:17 16.1 C 20 %
3534 20-04-2020 13:52:17 16.8 C 20 %
3535 20-04-2020 14:02:17 16.9 C 20 %
3536 20-04-2020 14:12:17 17.3 C 20 %
3537 20-04-2020 14:22:17 18.3 C 20 %
3538 20-04-2020 14:32:18 21 C 20 %
3539 20-04-2020 14:42:18 23 C 20 %
3540 20-04-2020 14:52:18 23.2 C 20 %
3541 20-04-2020 15:02:17 22.9 C 20 %
3542 20-04-2020 15:12:17 21.8 C 20 %
3543 20-04-2020 15:22:17 22.9 C 20 %
3544 20-04-2020 15:32:17 23.3 C 20 %
3545 20-04-2020 15:42:17 24.7 C 20 %
3546 20-04-2020 15:52:17 22.5 C 20 %
3547 20-04-2020 16:02:17 24.5 C 20 %
3548 20-04-2020 16:12:17 22.7 C 20 %
3549 20-04-2020 16:22:17 23 C 20 %
3550 20-04-2020 16:32:17 23.5 C 20 %
Sensor: Nr:Datum:Temp:Feuchte:
Aussen-T/F 3551 20-04-2020 16:42:17 23.6 C 20 %
3552 20-04-2020 16:52:17 23.4 C 20 %
3553 20-04-2020 17:02:17 23.7 C 20 %
3554 20-04-2020 17:12:17 22.3 C 20 %
3555 20-04-2020 17:22:17 21.6 C 20 %
3556 20-04-2020 17:32:17 20.4 C 20 %
3557 20-04-2020 17:42:17 22.4 C 20 %
3558 20-04-2020 17:52:17 20.9 C 20 %
3559 20-04-2020 18:02:18 19.1 C 20 %
3560 20-04-2020 18:12:18 19 C 20 %
3561 20-04-2020 18:22:18 18.5 C 20 %
3562 20-04-2020 18:32:17 18.4 C 20 %
3563 20-04-2020 18:42:18 18.2 C 20 %
3564 20-04-2020 18:52:18 18.3 C 20 %
3565 20-04-2020 19:02:17 17.8 C 20 %
3566 20-04-2020 19:12:17 17.6 C 20 %
3567 20-04-2020 19:22:17 17.2 C 20 %
3568 20-04-2020 19:32:17 17 C 20 %
3569 20-04-2020 19:42:17 16.6 C 20 %
3570 20-04-2020 19:52:17 16.3 C 20 %
3571 20-04-2020 20:02:17 16 C 20 %
3572 20-04-2020 20:12:17 15.6 C 20 %
3573 20-04-2020 20:22:17 15 C 20 %
3574 20-04-2020 20:32:17 14.4 C 20 %
3575 20-04-2020 20:42:17 14.5 C 20 %
Sensor: Nr:Datum:Temp:Feuchte:
Aussen-T/F 3576 20-04-2020 20:52:17 13.8 C 20 %
3577 20-04-2020 21:02:17 13.7 C 20 %
3578 20-04-2020 21:12:17 12.9 C 20 %
3579 20-04-2020 21:22:17 12.6 C 20 %
3580 20-04-2020 21:32:17 12 C 20 %
3581 20-04-2020 21:42:17 12.2 C 20 %
3582 20-04-2020 21:52:17 12.6 C 20 %
3583 20-04-2020 22:02:17 11.8 C 20 %
3584 20-04-2020 22:12:17 11.9 C 20 %
3585 20-04-2020 22:22:17 12.1 C 20 %
3586 20-04-2020 22:32:17 12.2 C 20 %
3587 20-04-2020 22:42:17 11.9 C 20 %
3588 20-04-2020 22:52:18 11.5 C 20 %
3589 20-04-2020 23:02:17 11.5 C 20 %
3590 20-04-2020 23:12:17 11.6 C 20 %
3591 20-04-2020 23:22:17 11 C 20 %
3592 20-04-2020 23:32:18 11.6 C 20 %
3593 20-04-2020 23:42:18 11 C 20 %
3594 20-04-2020 23:52:17 11 C 20 %
3595 21-04-2020 00:02:17 10.9 C 20 %
3596 21-04-2020 00:12:17 10.3 C 20 %
3597 21-04-2020 00:22:17 10.4 C 20 %
3598 21-04-2020 00:32:17 9.9 C 20 %
3599 21-04-2020 00:42:17 10.5 C 20 %
3600 21-04-2020 00:52:17 10 C 20 %
Sensor: Nr:Datum:Temp:Feuchte:
Aussen-T/F 3601 21-04-2020 01:02:18 9.4 C 20 %
3602 21-04-2020 01:12:18 8.9 C 20 %
3603 21-04-2020 01:22:18 9 C 20 %
3604 21-04-2020 01:32:18 8.9 C 20 %
3605 21-04-2020 01:42:18 9.2 C 20 %
3606 21-04-2020 01:52:17 8.4 C 20 %
3607 21-04-2020 02:02:17 9.2 C 20 %
3608 21-04-2020 02:12:18 9.1 C 20 %
3609 21-04-2020 02:22:17 9.1 C 20 %
3610 21-04-2020 02:32:18 8.9 C 20 %
3611 21-04-2020 02:42:18 9.2 C 20 %
3612 21-04-2020 02:52:17 9 C 20 %
3613 21-04-2020 03:02:17 9.3 C 20 %
3614 21-04-2020 03:12:17 9.1 C 20 %
3615 21-04-2020 03:22:18 9.2 C 20 %
3616 21-04-2020 03:32:17 9.1 C 20 %
3617 21-04-2020 03:42:17 8.3 C 20 %
3618 21-04-2020 03:52:18 8.6 C 20 %
3619 21-04-2020 04:02:18 8.1 C 20 %
3620 21-04-2020 04:12:18 7.4 C 23 %
3621 21-04-2020 04:22:17 7.8 C 20 %
3622 21-04-2020 04:32:17 7.7 C 23 %
3623 21-04-2020 04:42:17 7.5 C 25 %
3624 21-04-2020 04:52:17 7.5 C 25 %
3625 21-04-2020 05:02:17 7.1 C 25 %
Sensor: Nr:Datum:Temp:Feuchte:
Aussen-T/F 3626 21-04-2020 05:12:17 7.7 C 25 %
3627 21-04-2020 05:22:17 7.3 C 25 %
3628 21-04-2020 05:32:18 7 C 25 %
3629 21-04-2020 05:42:18 6.8 C 26 %
3630 21-04-2020 05:52:17 6.5 C 27 %
3631 21-04-2020 06:02:17 6.9 C 27 %
3632 21-04-2020 06:12:17 6.6 C 27 %
3633 21-04-2020 06:22:18 6.6 C 27 %
3634 21-04-2020 06:32:18 6.3 C 28 %
3635 21-04-2020 06:42:18 6.4 C 28 %
3636 21-04-2020 06:52:17 6.3 C 29 %
3637 21-04-2020 07:02:18 6.1 C 30 %
3638 21-04-2020 07:12:18 6.2 C 29 %
3639 21-04-2020 07:22:17 6.3 C 30 %
3640 21-04-2020 07:32:17 6.5 C 30 %
3641 21-04-2020 07:42:17 7.3 C 27 %
3642 21-04-2020 07:52:17 6.9 C 29 %
3643 21-04-2020 08:02:17 7.4 C 27 %
3644 21-04-2020 08:12:17 7.7 C 26 %
3645 21-04-2020 08:22:17 7.6 C 26 %
3646 21-04-2020 08:32:17 7.2 C 28 %
3647 21-04-2020 08:42:18 7.5 C 27 %
3648 21-04-2020 08:52:17 8.3 C 27 %
3649 21-04-2020 09:02:17 8.7 C 25 %
3650 21-04-2020 09:12:17 9.2 C 23 %
Sensor: Nr:Datum:Temp:Feuchte:
Aussen-T/F 3651 21-04-2020 09:22:17 9.7 C 21 %
3652 21-04-2020 09:32:17 10.2 C 20 %
3653 21-04-2020 09:42:17 10.7 C 20 %
3654 21-04-2020 09:52:17 10.9 C 20 %
3655 21-04-2020 10:02:17 10.9 C 20 %
3656 21-04-2020 10:12:17 11.7 C 20 %
3657 21-04-2020 10:22:17 12.2 C 20 %
3658 21-04-2020 10:32:17 12.8 C 20 %
3659 21-04-2020 10:42:17 13.2 C 20 %
3660 21-04-2020 10:52:17 13.5 C 20 %
3661 21-04-2020 11:02:17 13.9 C 20 %
3662 21-04-2020 11:12:17 14.6 C 20 %
3663 21-04-2020 11:22:17 14.6 C 20 %
3664 21-04-2020 11:32:18 14.7 C 20 %
3665 21-04-2020 11:42:18 15.2 C 20 %
3666 21-04-2020 11:52:18 15.7 C 20 %
3667 21-04-2020 12:02:17 16.4 C 20 %
3668 21-04-2020 12:12:18 16.1 C 20 %
3669 21-04-2020 12:22:17 16.1 C 20 %
3670 21-04-2020 12:32:17 16.2 C 20 %
3671 21-04-2020 12:42:17 16.4 C 20 %
3672 21-04-2020 12:52:17 16.6 C 20 %
3673 21-04-2020 13:02:17 16.9 C 20 %
3674 21-04-2020 13:12:17 17.4 C 20 %
3675 21-04-2020 13:22:17 17.2 C 20 %
Sensor: Nr:Datum:Temp:Feuchte:
Aussen-T/F 3676 21-04-2020 13:32:17 17.3 C 20 %
3677 21-04-2020 13:42:17 17.9 C 20 %
3678 21-04-2020 13:52:17 18.1 C 20 %
3679 21-04-2020 14:02:17 18.5 C 20 %
3680 21-04-2020 14:12:17 19 C 20 %
3681 21-04-2020 14:22:17 19.4 C 20 %
3682 21-04-2020 14:32:17 22 C 20 %
3683 21-04-2020 14:42:17 24.4 C 20 %
3684 21-04-2020 14:52:17 24.2 C 20 %
3685 21-04-2020 15:02:17 24.5 C 20 %
3686 21-04-2020 15:12:17 22.2 C 20 %
3687 21-04-2020 15:22:17 23.7 C 20 %
3688 21-04-2020 15:32:18 23.2 C 20 %
3689 21-04-2020 15:42:18 24 C 20 %
3690 21-04-2020 15:52:17 23.4 C 20 %
3691 21-04-2020 16:02:18 22.8 C 20 %
3692 21-04-2020 16:12:18 23.2 C 20 %
3693 21-04-2020 16:22:17 22.9 C 20 %
3694 21-04-2020 16:32:17 23.2 C 20 %
3695 21-04-2020 16:42:17 24.3 C 20 %
3696 21-04-2020 16:52:17 22.8 C 20 %
3697 21-04-2020 17:02:17 23.6 C 20 %
3698 21-04-2020 17:12:17 24.8 C 20 %
3699 21-04-2020 17:22:18 22.8 C 20 %
3700 21-04-2020 17:32:17 21.9 C 20 %
Sensor: Nr:Datum:Temp:Feuchte:
Aussen-T/F 3701 21-04-2020 17:42:17 22.3 C 20 %
3702 21-04-2020 17:52:17 22.9 C 20 %
3703 21-04-2020 18:02:18 21.1 C 20 %
3704 21-04-2020 18:12:18 20.9 C 20 %
3705 21-04-2020 18:22:17 20.5 C 20 %
3706 21-04-2020 18:32:17 20.3 C 20 %
3707 21-04-2020 18:42:17 20 C 20 %
3708 21-04-2020 18:52:18 20 C 20 %
3709 21-04-2020 19:02:17 19.6 C 20 %
3710 21-04-2020 19:12:17 19.4 C 20 %
3711 21-04-2020 19:22:17 19.1 C 20 %
3712 21-04-2020 19:32:18 18.9 C 20 %
3713 21-04-2020 19:42:18 18.7 C 20 %
3714 21-04-2020 19:52:17 18.3 C 20 %
3715 21-04-2020 20:02:17 17.9 C 20 %
3716 21-04-2020 20:12:17 17.4 C 20 %
3717 21-04-2020 20:22:17 16.7 C 20 %
3718 21-04-2020 20:32:17 16.2 C 20 %
3719 21-04-2020 20:42:17 15.5 C 20 %
3720 21-04-2020 20:52:17 14.8 C 20 %
3721 21-04-2020 21:02:18 14.2 C 20 %
3722 21-04-2020 21:12:18 14.5 C 20 %
3723 21-04-2020 21:22:17 14.1 C 20 %
3724 21-04-2020 21:32:17 13.9 C 20 %
3725 21-04-2020 21:42:17 13.2 C 20 %
Sensor: Nr:Datum:Temp:Feuchte:
Aussen-T/F 3726 21-04-2020 21:52:18 12.9 C 20 %
3727 21-04-2020 22:02:17 13.2 C 20 %
3728 21-04-2020 22:12:17 13 C 20 %
3729 21-04-2020 22:22:17 13.4 C 20 %
3730 21-04-2020 22:32:17 12.6 C 20 %
3731 21-04-2020 22:42:17 12 C 20 %
3732 21-04-2020 22:52:18 11.8 C 20 %
3733 21-04-2020 23:02:18 12.1 C 20 %
3734 21-04-2020 23:12:18 11.8 C 20 %
3735 21-04-2020 23:22:17 11.5 C 20 %
3736 21-04-2020 23:32:18 11.3 C 20 %
3737 21-04-2020 23:42:18 11.3 C 20 %
3738 21-04-2020 23:52:18 11.1 C 20 %
3739 22-04-2020 00:02:18 11.1 C 20 %
3740 22-04-2020 00:12:18 10.6 C 20 %
3741 22-04-2020 00:22:17 11.1 C 20 %
3742 22-04-2020 00:32:18 11.4 C 20 %
3743 22-04-2020 00:42:18 10.9 C 20 %
3744 22-04-2020 00:52:17 11 C 20 %
3745 22-04-2020 01:02:17 10.8 C 20 %
3746 22-04-2020 01:12:17 10 C 21 %
3747 22-04-2020 01:22:17 9.9 C 25 %
3748 22-04-2020 01:32:18 9.7 C 25 %
3749 22-04-2020 01:42:18 10.2 C 21 %
3750 22-04-2020 01:52:17 9.9 C 23 %
Sensor: Nr:Datum:Temp:Feuchte:
Aussen-T/F 3751 22-04-2020 02:02:17 9.9 C 23 %
3752 22-04-2020 02:12:17 9.8 C 25 %
3753 22-04-2020 02:22:17 9.5 C 25 %
3754 22-04-2020 02:32:17 9.3 C 25 %
3755 22-04-2020 02:42:17 9.7 C 25 %
3756 22-04-2020 02:52:17 9.3 C 25 %
3757 22-04-2020 03:02:17 9.5 C 25 %
3758 22-04-2020 03:12:17 9 C 25 %
3759 22-04-2020 03:22:18 8.8 C 26 %
3760 22-04-2020 03:32:18 8.5 C 27 %
3761 22-04-2020 03:42:18 8.4 C 27 %
3762 22-04-2020 03:52:17 8.3 C 27 %
3763 22-04-2020 04:02:18 8.4 C 27 %
3764 22-04-2020 04:12:18 8.3 C 27 %
3765 22-04-2020 04:22:17 8 C 27 %
3766 22-04-2020 04:32:18 7.9 C 27 %
3767 22-04-2020 04:42:18 7.9 C 27 %
3768 22-04-2020 04:52:17 7.4 C 28 %
3769 22-04-2020 05:02:18 7.5 C 28 %
3770 22-04-2020 05:12:18 7.3 C 28 %
3771 22-04-2020 05:22:17 7.1 C 29 %
3772 22-04-2020 05:32:17 7.1 C 29 %
3773 22-04-2020 05:42:18 6.9 C 30 %
3774 22-04-2020 05:52:17 6.7 C 30 %
3775 22-04-2020 06:02:18 6.7 C 30 %
Sensor: Nr:Datum:Temp:Feuchte:
Aussen-T/F 3776 22-04-2020 06:12:18 6.1 C 31 %
3777 22-04-2020 06:22:17 5.8 C 32 %
3778 22-04-2020 06:32:17 5.6 C 33 %
3779 22-04-2020 06:42:17 5.3 C 35 %
3780 22-04-2020 06:52:17 5.6 C 35 %
3781 22-04-2020 07:02:17 5.6 C 35 %
3782 22-04-2020 07:12:17 5.4 C 35 %
3783 22-04-2020 07:22:18 5.9 C 35 %
3784 22-04-2020 07:32:17 5.5 C 35 %
3785 22-04-2020 07:42:17 5.7 C 35 %
3786 22-04-2020 07:52:17 5.9 C 35 %
3787 22-04-2020 08:02:17 6.5 C 34 %
3788 22-04-2020 08:12:17 6.6 C 34 %
3789 22-04-2020 08:22:17 7 C 33 %
3790 22-04-2020 08:32:17 7.5 C 32 %
3791 22-04-2020 08:42:17 8 C 31 %
3792 22-04-2020 08:52:18 8.9 C 30 %
3793 22-04-2020 09:02:18 9.1 C 30 %
3794 22-04-2020 09:12:18 9.1 C 30 %
3795 22-04-2020 09:22:17 10.1 C 26 %
3796 22-04-2020 09:32:17 10.7 C 26 %
3797 22-04-2020 09:42:17 10.7 C 26 %
3798 22-04-2020 09:52:17 11.3 C 24 %
3799 22-04-2020 10:02:17 11.5 C 24 %
3800 22-04-2020 10:12:17 12.5 C 20 %
Sensor: Nr:Datum:Temp:Feuchte:
Aussen-T/F 3801 22-04-2020 10:22:17 13 C 20 %
3802 22-04-2020 10:32:17 13.7 C 20 %
3803 22-04-2020 10:42:17 14.2 C 20 %
3804 22-04-2020 10:52:17 14.8 C 20 %
3805 22-04-2020 11:02:17 15.4 C 20 %
3806 22-04-2020 11:12:17 15.7 C 20 %
3807 22-04-2020 11:22:17 16.2 C 20 %
3808 22-04-2020 11:32:17 16.4 C 20 %
3809 22-04-2020 11:42:17 17.1 C 20 %
3810 22-04-2020 11:52:18 17.1 C 20 %
3811 22-04-2020 12:02:18 17.9 C 20 %
3812 22-04-2020 12:12:18 17.6 C 20 %
3813 22-04-2020 12:22:17 17.7 C 20 %
3814 22-04-2020 12:32:17 17.7 C 20 %
3815 22-04-2020 12:42:17 17.7 C 20 %
3816 22-04-2020 12:52:18 18 C 20 %
3817 22-04-2020 13:02:17 18.6 C 20 %
3818 22-04-2020 13:12:17 19.3 C 20 %
3819 22-04-2020 13:22:17 19 C 20 %
3820 22-04-2020 13:32:17 18.9 C 20 %
3821 22-04-2020 13:42:17 19.1 C 20 %
3822 22-04-2020 13:52:17 19.4 C 20 %
3823 22-04-2020 14:02:17 19.8 C 20 %
3824 22-04-2020 14:12:17 20.3 C 20 %
3825 22-04-2020 14:22:17 21.2 C 20 %
Sensor: Nr:Datum:Temp:Feuchte:
Aussen-T/F 3826 22-04-2020 14:32:17 25.4 C 20 %
3827 22-04-2020 14:42:17 27.1 C 20 %
3828 22-04-2020 14:52:17 25.8 C 20 %
3829 22-04-2020 15:02:17 24.9 C 20 %
3830 22-04-2020 15:12:18 26.4 C 20 %
3831 22-04-2020 15:22:17 27.6 C 20 %
3832 22-04-2020 15:32:17 27 C 20 %
3833 22-04-2020 15:42:17 25.4 C 20 %
3834 22-04-2020 15:52:17 25.7 C 20 %
3835 22-04-2020 16:02:17 25.3 C 20 %
3836 22-04-2020 16:12:17 27.2 C 20 %
3837 22-04-2020 16:22:17 26.8 C 20 %
3838 22-04-2020 16:32:18 27.7 C 20 %
3839 22-04-2020 16:42:18 25.2 C 20 %
3840 22-04-2020 16:52:17 26.3 C 20 %
3841 22-04-2020 17:02:17 25.2 C 20 %
3842 22-04-2020 17:12:17 24.6 C 20 %
3843 22-04-2020 17:22:17 25.1 C 20 %
3844 22-04-2020 17:32:17 25.5 C 20 %
3845 22-04-2020 17:42:17 25.6 C 20 %
3846 22-04-2020 17:52:17 25.2 C 20 %
3847 22-04-2020 18:02:17 23.1 C 20 %
3848 22-04-2020 18:12:17 22 C 20 %
3849 22-04-2020 18:22:17 22.1 C 20 %
3850 22-04-2020 18:32:17 21.9 C 20 %
Sensor: Nr:Datum:Temp:Feuchte:
Aussen-T/F 3851 22-04-2020 18:42:17 21.9 C 20 %
3852 22-04-2020 18:52:17 21.6 C 20 %
3853 22-04-2020 19:02:17 21.1 C 20 %
3854 22-04-2020 19:12:17 21.2 C 20 %
3855 22-04-2020 19:22:17 20.8 C 20 %
3856 22-04-2020 19:32:18 20.4 C 20 %
3857 22-04-2020 19:42:18 20.3 C 20 %
3858 22-04-2020 19:52:17 20 C 20 %
3859 22-04-2020 20:02:18 19.4 C 20 %
3860 22-04-2020 20:12:18 18.4 C 20 %
3861 22-04-2020 20:22:17 17 C 20 %
3862 22-04-2020 20:32:17 16.3 C 20 %
3863 22-04-2020 20:42:17 16.2 C 20 %
3864 22-04-2020 20:52:17 15.9 C 20 %
3865 22-04-2020 21:02:17 15.7 C 20 %
3866 22-04-2020 21:12:17 15 C 20 %
3867 22-04-2020 21:22:17 14.6 C 20 %
3868 22-04-2020 21:32:17 14.4 C 20 %
3869 22-04-2020 21:42:17 14.4 C 20 %
3870 22-04-2020 21:52:17 14.1 C 20 %
3871 22-04-2020 22:02:17 13.7 C 20 %
3872 22-04-2020 22:12:17 13.8 C 20 %
3873 22-04-2020 22:22:17 14.2 C 20 %
3874 22-04-2020 22:32:17 13.6 C 20 %
3875 22-04-2020 22:42:17 13.5 C 20 %
Sensor: Nr:Datum:Temp:Feuchte:
Aussen-T/F 3876 22-04-2020 22:52:18 13.5 C 20 %
3877 22-04-2020 23:02:17 13.7 C 20 %
3878 22-04-2020 23:12:17 13.5 C 20 %
3879 22-04-2020 23:22:17 13.2 C 20 %
3880 22-04-2020 23:32:17 12.9 C 20 %
3881 22-04-2020 23:42:17 13.2 C 20 %
3882 22-04-2020 23:52:18 12.8 C 20 %
3883 23-04-2020 00:02:17 12.6 C 20 %
3884 23-04-2020 00:12:17 12.4 C 20 %
3885 23-04-2020 00:22:17 12.4 C 20 %
3886 23-04-2020 00:32:17 12.2 C 20 %
3887 23-04-2020 00:42:17 12.2 C 20 %
3888 23-04-2020 00:52:17 12.3 C 20 %
3889 23-04-2020 01:02:17 12.1 C 20 %
3890 23-04-2020 01:12:17 11.9 C 20 %
3891 23-04-2020 01:22:18 11 C 20 %
3892 23-04-2020 01:32:17 12 C 20 %
3893 23-04-2020 01:42:17 10.9 C 20 %
3894 23-04-2020 01:52:17 10.5 C 22 %
3895 23-04-2020 02:02:17 9.7 C 25 %
3896 23-04-2020 02:12:17 9.7 C 26 %
3897 23-04-2020 02:22:18 9.7 C 25 %
3898 23-04-2020 02:32:17 9.8 C 26 %
3899 23-04-2020 02:42:17 9.6 C 25 %
3900 23-04-2020 02:52:17 9.3 C 26 %
Sensor: Nr:Datum:Temp:Feuchte:
Aussen-T/F 3901 23-04-2020 03:02:18 9.2 C 26 %
3902 23-04-2020 03:12:18 9.2 C 26 %
3903 23-04-2020 03:22:17 9.4 C 26 %
3904 23-04-2020 03:32:17 9.4 C 26 %
3905 23-04-2020 03:42:17 9.3 C 26 %
3906 23-04-2020 03:52:17 9.1 C 26 %
3907 23-04-2020 04:02:17 8.6 C 27 %
3908 23-04-2020 04:12:17 8.1 C 29 %
3909 23-04-2020 04:22:17 7.5 C 30 %
3910 23-04-2020 04:32:17 7.2 C 32 %
3911 23-04-2020 04:42:17 7.2 C 32 %
3912 23-04-2020 04:52:17 6.9 C 33 %
3913 23-04-2020 05:02:17 6.4 C 34 %
3914 23-04-2020 05:12:17 6.2 C 34 %
3915 23-04-2020 05:22:17 5.9 C 35 %
3916 23-04-2020 05:32:17 6 C 35 %
3917 23-04-2020 05:42:17 6 C 35 %
3918 23-04-2020 05:52:17 5.8 C 36 %
3919 23-04-2020 06:02:17 5.8 C 36 %
3920 23-04-2020 06:12:18 5.4 C 36 %
3921 23-04-2020 06:22:17 5.4 C 36 %
3922 23-04-2020 06:32:18 5.3 C 36 %
3923 23-04-2020 06:42:18 5.3 C 36 %
3924 23-04-2020 06:52:17 5.3 C 36 %
3925 23-04-2020 07:02:17 5.3 C 37 %
Sensor: Nr:Datum:Temp:Feuchte:
Aussen-T/F 3926 23-04-2020 07:12:17 5.3 C 37 %
3927 23-04-2020 07:22:17 5.2 C 37 %
3928 23-04-2020 07:32:17 5.2 C 39 %
3929 23-04-2020 07:42:17 5.2 C 39 %
3930 23-04-2020 07:52:17 5.3 C 39 %
3931 23-04-2020 08:02:17 5.4 C 39 %
3932 23-04-2020 08:12:18 5.5 C 39 %
3933 23-04-2020 08:22:18 5.9 C 39 %
3934 23-04-2020 08:32:18 6.2 C 38 %
3935 23-04-2020 08:42:18 6.5 C 38 %
3936 23-04-2020 08:52:17 6.9 C 38 %
3937 23-04-2020 09:02:17 7.7 C 36 %
3938 23-04-2020 09:12:17 8.1 C 36 %
3939 23-04-2020 09:22:17 8.6 C 35 %
3940 23-04-2020 09:32:17 9.2 C 35 %
3941 23-04-2020 09:42:17 9.7 C 34 %
3942 23-04-2020 09:52:17 9.9 C 34 %
3943 23-04-2020 10:02:18 10.5 C 33 %
3944 23-04-2020 10:12:18 11 C 32 %
3945 23-04-2020 10:22:17 11.8 C 30 %
3946 23-04-2020 10:32:17 12.7 C 28 %
3947 23-04-2020 10:42:17 13.2 C 27 %
3948 23-04-2020 10:52:17 14.8 C 22 %
3949 23-04-2020 11:02:18 16 C 20 %
3950 23-04-2020 11:12:18 16.3 C 20 %
Sensor: Nr:Datum:Temp:Feuchte:
Aussen-T/F 3951 23-04-2020 11:22:17 17.2 C 20 %
3952 23-04-2020 11:32:17 17.4 C 20 %
3953 23-04-2020 11:42:17 17.7 C 20 %
3954 23-04-2020 11:52:18 17.9 C 20 %
3955 23-04-2020 12:02:17 18.9 C 20 %
3956 23-04-2020 12:12:17 18.2 C 20 %
3957 23-04-2020 12:22:17 18 C 20 %
3958 23-04-2020 12:32:18 18.5 C 20 %
3959 23-04-2020 12:42:18 18.3 C 20 %
3960 23-04-2020 12:52:17 18.4 C 20 %
3961 23-04-2020 13:02:17 19.2 C 20 %
3962 23-04-2020 13:12:17 19.5 C 20 %
3963 23-04-2020 13:22:17 19.1 C 20 %
3964 23-04-2020 13:32:17 19.2 C 20 %
3965 23-04-2020 13:42:17 19.7 C 20 %
3966 23-04-2020 13:52:17 20.1 C 20 %
3967 23-04-2020 14:02:17 20.4 C 20 %
3968 23-04-2020 14:12:17 20.7 C 20 %
3969 23-04-2020 14:22:17 21.6 C 20 %
3970 23-04-2020 14:32:17 27.4 C 20 %
3971 23-04-2020 14:42:17 29.1 C 20 %
3972 23-04-2020 14:52:17 29 C 20 %
3973 23-04-2020 15:02:17 29.3 C 20 %
3974 23-04-2020 15:12:17 29.5 C 20 %
3975 23-04-2020 15:22:18 28.8 C 20 %
Sensor: Nr:Datum:Temp:Feuchte:
Aussen-T/F 3976 23-04-2020 15:32:17 30.3 C 20 %
3977 23-04-2020 15:42:17 31.4 C 20 %
3978 23-04-2020 15:52:17 28.9 C 20 %
3979 23-04-2020 16:02:18 27.7 C 20 %
3980 23-04-2020 16:12:18 28.1 C 20 %
3981 23-04-2020 16:22:17 28.4 C 20 %
3982 23-04-2020 16:32:18 28.3 C 20 %
3983 23-04-2020 16:42:18 29 C 20 %
3984 23-04-2020 16:52:17 29.2 C 20 %
3985 23-04-2020 17:02:17 31.6 C 20 %
3986 23-04-2020 17:12:18 28.2 C 20 %
3987 23-04-2020 17:22:17 28.6 C 20 %
3988 23-04-2020 17:32:18 28.1 C 20 %
3989 23-04-2020 17:42:18 28 C 20 %
3990 23-04-2020 17:52:18 30.1 C 20 %
3991 23-04-2020 18:02:17 27.1 C 20 %
3992 23-04-2020 18:12:17 24.5 C 20 %
3993 23-04-2020 18:22:17 23.9 C 20 %
3994 23-04-2020 18:32:17 23.6 C 20 %
3995 23-04-2020 18:42:17 23.7 C 20 %
3996 23-04-2020 18:52:17 23.2 C 20 %
3997 23-04-2020 19:02:17 22.5 C 20 %
3998 23-04-2020 19:12:17 22.4 C 20 %
3999 23-04-2020 19:22:17 22 C 20 %
4000 23-04-2020 19:32:18 21.2 C 20 %
Sensor: Nr:Datum:Temp:Feuchte:
Aussen-T/F 4001 23-04-2020 19:42:18 20 C 20 %
4002 23-04-2020 19:52:17 18.6 C 20 %
4003 23-04-2020 20:02:18 18.6 C 20 %
4004 23-04-2020 20:12:18 17.9 C 20 %
4005 23-04-2020 20:22:17 17.2 C 20 %
4006 23-04-2020 20:32:18 16.5 C 20 %
4007 23-04-2020 20:42:18 15.5 C 20 %
4008 23-04-2020 20:52:18 14.3 C 20 %
4009 23-04-2020 21:02:18 14 C 20 %
4010 23-04-2020 21:12:18 14.1 C 20 %
4011 23-04-2020 21:22:17 13.5 C 20 %
4012 23-04-2020 21:32:17 13.1 C 20 %
4013 23-04-2020 21:42:17 12.9 C 20 %
4014 23-04-2020 21:52:17 12.5 C 20 %
4015 23-04-2020 22:02:17 12 C 23 %
4016 23-04-2020 22:12:17 11.6 C 25 %
4017 23-04-2020 22:22:17 11.5 C 25 %
4018 23-04-2020 22:32:18 11 C 26 %
4019 23-04-2020 22:42:18 11.1 C 26 %
4020 23-04-2020 22:52:18 10.8 C 26 %
4021 23-04-2020 23:02:18 10.4 C 27 %
4022 23-04-2020 23:12:18 10.3 C 27 %
4023 23-04-2020 23:22:18 9.6 C 29 %
4024 23-04-2020 23:32:17 9.6 C 29 %
4025 23-04-2020 23:42:17 9.6 C 29 %
Sensor: Nr:Datum:Temp:Feuchte:
Aussen-T/F 4026 23-04-2020 23:52:17 9.2 C 30 %
4027 24-04-2020 00:02:18 9.2 C 30 %
4028 24-04-2020 00:12:18 9.3 C 30 %
4029 24-04-2020 00:22:17 9.2 C 30 %
4030 24-04-2020 00:32:18 8.6 C 31 %
4031 24-04-2020 00:42:18 8.4 C 31 %
4032 24-04-2020 00:52:17 8.3 C 32 %
4033 24-04-2020 01:02:18 8.1 C 32 %
4034 24-04-2020 01:12:18 8.3 C 33 %
4035 24-04-2020 01:22:17 8.1 C 32 %
4036 24-04-2020 01:32:18 8.1 C 33 %
4037 24-04-2020 01:42:18 8.2 C 33 %
4038 24-04-2020 01:52:17 7.8 C 33 %
4039 24-04-2020 02:02:17 7.5 C 34 %
4040 24-04-2020 02:12:17 7.1 C 34 %
4041 24-04-2020 02:22:17 7 C 35 %
4042 24-04-2020 02:32:18 7.2 C 35 %
4043 24-04-2020 02:42:18 6.8 C 36 %
4044 24-04-2020 02:52:18 7 C 35 %
4045 24-04-2020 03:02:17 7 C 35 %
4046 24-04-2020 03:12:18 6.8 C 36 %
4047 24-04-2020 03:22:17 6.2 C 36 %
4048 24-04-2020 03:32:17 6.4 C 37 %
4049 24-04-2020 03:42:17 6.3 C 37 %
4050 24-04-2020 03:52:17 6.2 C 37 %
Sensor: Nr:Datum:Temp:Feuchte:
Aussen-T/F 4051 24-04-2020 04:02:17 6.2 C 37 %
4052 24-04-2020 04:12:17 6.1 C 37 %
4053 24-04-2020 04:22:17 6 C 37 %
4054 24-04-2020 04:32:17 5.9 C 38 %
4055 24-04-2020 04:42:17 6.2 C 38 %
4056 24-04-2020 04:52:17 6.3 C 38 %
4057 24-04-2020 05:02:17 6.2 C 38 %
4058 24-04-2020 05:12:17 6 C 38 %
4059 24-04-2020 05:22:17 5.9 C 39 %
4060 24-04-2020 05:32:18 6.3 C 38 %
4061 24-04-2020 05:42:18 6.2 C 38 %
4062 24-04-2020 05:52:17 6.1 C 38 %
4063 24-04-2020 06:02:17 6.1 C 38 %
4064 24-04-2020 06:12:17 5.9 C 39 %
4065 24-04-2020 06:22:18 6 C 39 %
4066 24-04-2020 06:32:17 6 C 38 %
4067 24-04-2020 06:42:17 6 C 39 %
4068 24-04-2020 06:52:17 6.2 C 39 %
4069 24-04-2020 07:02:17 6.3 C 38 %
4070 24-04-2020 07:12:17 6.3 C 39 %
4071 24-04-2020 07:22:17 6.3 C 39 %
4072 24-04-2020 07:32:18 6.3 C 39 %
4073 24-04-2020 07:42:18 6.5 C 39 %
4074 24-04-2020 07:52:17 6.7 C 39 %
4075 24-04-2020 08:02:18 6.8 C 39 %
Sensor: Nr:Datum:Temp:Feuchte:
Aussen-T/F 4076 24-04-2020 08:12:18 7.3 C 38 %
4077 24-04-2020 08:22:17 8.2 C 36 %
4078 24-04-2020 08:32:17 9 C 35 %
4079 24-04-2020 08:42:17 9.6 C 35 %
4080 24-04-2020 08:52:17 9.9 C 34 %
4081 24-04-2020 09:02:17 10.4 C 33 %
4082 24-04-2020 09:12:18 11 C 32 %
4083 24-04-2020 09:22:17 11.5 C 31 %
4084 24-04-2020 09:32:18 11.9 C 31 %
4085 24-04-2020 09:42:18 12.5 C 30 %
4086 24-04-2020 09:52:17 12.4 C 30 %
4087 24-04-2020 10:02:17 12.8 C 30 %
4088 24-04-2020 10:12:17 13.1 C 29 %
4089 24-04-2020 10:22:17 14 C 28 %
4090 24-04-2020 10:32:17 14.2 C 28 %
4091 24-04-2020 10:42:17 14.6 C 27 %
4092 24-04-2020 10:52:17 15 C 26 %
4093 24-04-2020 11:02:17 15.6 C 26 %
4094 24-04-2020 11:12:18 15.6 C 26 %
4095 24-04-2020 11:22:17 16.5 C 25 %
4096 24-04-2020 11:32:18 16.6 C 24 %
4097 24-04-2020 11:42:18 17 C 24 %
4098 24-04-2020 11:52:17 17 C 23 %
4099 24-04-2020 12:02:17 17.9 C 23 %
4100 24-04-2020 12:12:17 18.1 C 21 %
Sensor: Nr:Datum:Temp:Feuchte:
Aussen-T/F 4101 24-04-2020 12:22:17 18.2 C 21 %
4102 24-04-2020 12:32:18 18.4 C 21 %
4103 24-04-2020 12:42:18 18.9 C 20 %
4104 24-04-2020 12:52:18 19.3 C 20 %
4105 24-04-2020 13:02:17 19.6 C 20 %
4106 24-04-2020 13:12:17 20.2 C 20 %
4107 24-04-2020 13:22:17 20.5 C 20 %
4108 24-04-2020 13:32:18 20.7 C 20 %
4109 24-04-2020 13:42:18 21 C 20 %
4110 24-04-2020 13:52:17 21.3 C 20 %
4111 24-04-2020 14:02:17 21.8 C 20 %
4112 24-04-2020 14:12:17 22.2 C 20 %
4113 24-04-2020 14:22:17 23.5 C 20 %
4114 24-04-2020 14:32:17 26.8 C 20 %
4115 24-04-2020 14:42:17 28.5 C 20 %
4116 24-04-2020 14:52:17 27.1 C 20 %
4117 24-04-2020 15:02:18 28 C 20 %
4118 24-04-2020 15:12:18 31 C 20 %
4119 24-04-2020 15:22:17 27.6 C 20 %
4120 24-04-2020 15:32:17 28.1 C 20 %
4121 24-04-2020 15:42:18 27.5 C 20 %
4122 24-04-2020 15:52:17 28.8 C 20 %
4123 24-04-2020 16:02:18 28.7 C 20 %
4124 24-04-2020 16:12:18 28.7 C 20 %
4125 24-04-2020 16:22:18 27.2 C 20 %
Sensor: Nr:Datum:Temp:Feuchte:
Aussen-T/F 4126 24-04-2020 16:32:18 26.8 C 20 %
4127 24-04-2020 16:42:18 28 C 20 %
4128 24-04-2020 16:52:17 26.3 C 20 %
4129 24-04-2020 17:02:17 26 C 20 %
4130 24-04-2020 17:12:17 26.7 C 20 %
4131 24-04-2020 17:22:18 26.4 C 20 %
4132 24-04-2020 17:32:18 26.3 C 20 %
4133 24-04-2020 17:42:18 24.2 C 20 %
4134 24-04-2020 17:52:17 26 C 20 %
4135 24-04-2020 18:02:18 24.1 C 20 %
4136 24-04-2020 18:12:18 22.3 C 20 %
4137 24-04-2020 18:22:17 22.2 C 20 %
4138 24-04-2020 18:32:17 22 C 20 %
4139 24-04-2020 18:42:17 20.9 C 20 %
4140 24-04-2020 18:52:18 21 C 20 %
4141 24-04-2020 19:02:17 20.5 C 20 %
4142 24-04-2020 19:12:17 20.3 C 20 %
4143 24-04-2020 19:23:17 20 C 20 %
4144 24-04-2020 19:32:17 19.9 C 20 %
4145 24-04-2020 19:42:18 19.6 C 20 %
4146 24-04-2020 19:53:17 19.2 C 20 %
4147 24-04-2020 20:02:18 19 C 20 %
4148 24-04-2020 20:12:18 18.5 C 20 %
4149 24-04-2020 20:22:17 17.7 C 20 %
4150 24-04-2020 20:32:18 17.3 C 20 %
Sensor: Nr:Datum:Temp:Feuchte:
Aussen-T/F 4151 24-04-2020 20:42:18 16.8 C 20 %
4152 24-04-2020 20:52:18 16.1 C 20 %
4153 24-04-2020 21:02:18 15.9 C 20 %
4154 24-04-2020 21:12:18 15.5 C 20 %
4155 24-04-2020 21:23:17 15.4 C 20 %
4156 24-04-2020 21:33:17 15 C 20 %
4157 24-04-2020 21:42:17 15.1 C 20 %
4158 24-04-2020 21:52:17 14.7 C 20 %
4159 24-04-2020 22:03:17 14.4 C 20 %
4160 24-04-2020 22:13:17 14.1 C 20 %
4161 24-04-2020 22:22:18 14.2 C 20 %
4162 24-04-2020 22:32:18 14.4 C 20 %
4163 24-04-2020 22:42:18 13.9 C 20 %
4164 24-04-2020 22:52:18 13.3 C 20 %
4165 24-04-2020 23:02:18 13.2 C 20 %
4166 24-04-2020 23:12:18 13.2 C 20 %
4167 24-04-2020 23:22:17 12.7 C 20 %
4168 24-04-2020 23:33:17 12.5 C 20 %
4169 24-04-2020 23:43:17 13 C 20 %
4170 24-04-2020 23:53:17 12.4 C 20 %
Sensor: Nr:Datum:Temp:Feuchte:
G-T/H 1 27-03-2020 00:00:18 8.6 C 66 %
2 27-03-2020 00:10:18 8.6 C 66 %
3 27-03-2020 00:20:17 8.6 C 66 %
4 27-03-2020 00:30:17 8.6 C 66 %
5 27-03-2020 00:40:17 8.6 C 66 %
6 27-03-2020 00:50:18 8.6 C 66 %
7 27-03-2020 01:00:18 8.6 C 66 %
8 27-03-2020 01:10:18 8.6 C 66 %
9 27-03-2020 01:20:17 8.6 C 66 %
10 27-03-2020 01:30:18 8.6 C 66 %
11 27-03-2020 01:40:18 8.6 C 66 %
12 27-03-2020 01:50:18 8.6 C 66 %
13 27-03-2020 02:00:18 8.6 C 66 %
14 27-03-2020 02:10:18 8.6 C 66 %
15 27-03-2020 02:20:17 8.6 C 66 %
16 27-03-2020 02:30:17 8.6 C 66 %
17 27-03-2020 02:40:17 8.6 C 66 %
18 27-03-2020 02:50:17 8.5 C 66 %
19 27-03-2020 03:00:17 8.6 C 66 %
20 27-03-2020 03:10:17 8.6 C 66 %
21 27-03-2020 03:20:17 8.6 C 66 %
22 27-03-2020 03:30:17 8.5 C 66 %
23 27-03-2020 03:40:17 8.5 C 66 %
24 27-03-2020 03:50:17 8.5 C 66 %
25 27-03-2020 04:00:18 8.5 C 66 %
Sensor: Nr:Datum:Temp:Feuchte:
G-T/H 26 27-03-2020 04:10:18 8.5 C 66 %
27 27-03-2020 04:20:18 8.5 C 66 %
28 27-03-2020 04:30:18 8.5 C 66 %
29 27-03-2020 04:40:18 8.5 C 66 %
30 27-03-2020 04:50:17 8.5 C 66 %
31 27-03-2020 05:00:18 8.5 C 66 %
32 27-03-2020 05:10:18 8.5 C 66 %
33 27-03-2020 05:20:18 8.5 C 66 %
34 27-03-2020 05:30:18 8.5 C 66 %
35 27-03-2020 05:40:18 8.5 C 66 %
36 27-03-2020 05:50:18 8.4 C 66 %
37 27-03-2020 06:00:18 8.5 C 66 %
38 27-03-2020 06:10:18 8.4 C 66 %
39 27-03-2020 06:20:18 8.4 C 66 %
40 27-03-2020 06:30:18 8.4 C 66 %
41 27-03-2020 06:40:18 8.4 C 66 %
42 27-03-2020 06:50:17 8.4 C 66 %
43 27-03-2020 07:00:18 8.4 C 66 %
44 27-03-2020 07:10:18 8.4 C 66 %
45 27-03-2020 07:20:18 8.4 C 65 %
46 27-03-2020 07:30:18 8.3 C 65 %
47 27-03-2020 07:40:18 8.4 C 66 %
48 27-03-2020 07:50:17 8.3 C 66 %
49 27-03-2020 08:00:17 8.3 C 66 %
50 27-03-2020 08:10:18 8.3 C 66 %
Sensor: Nr:Datum:Temp:Feuchte:
G-T/H 51 27-03-2020 08:20:18 8.3 C 66 %
52 27-03-2020 08:30:18 8.3 C 66 %
53 27-03-2020 08:40:18 8.3 C 66 %
54 27-03-2020 08:50:17 8.3 C 66 %
55 27-03-2020 09:00:18 8.3 C 66 %
56 27-03-2020 09:10:18 8.3 C 66 %
57 27-03-2020 09:20:17 8.2 C 66 %
58 27-03-2020 09:30:18 8.2 C 66 %
59 27-03-2020 09:40:18 8.3 C 66 %
60 27-03-2020 09:50:18 8.3 C 66 %
61 27-03-2020 10:00:18 8.2 C 66 %
62 27-03-2020 10:10:18 8.2 C 66 %
63 27-03-2020 10:20:17 8.3 C 66 %
64 27-03-2020 10:30:17 8.3 C 66 %
65 27-03-2020 10:40:17 8.3 C 66 %
66 27-03-2020 10:50:17 8.3 C 67 %
67 27-03-2020 11:00:17 8.3 C 67 %
68 27-03-2020 11:10:17 8.3 C 67 %
69 27-03-2020 11:20:17 8.3 C 67 %
70 27-03-2020 11:30:17 8.3 C 67 %
71 27-03-2020 11:40:17 8.3 C 67 %
72 27-03-2020 11:50:17 8.3 C 67 %
73 27-03-2020 12:00:17 8.3 C 67 %
74 27-03-2020 12:10:17 8.3 C 67 %
75 27-03-2020 12:20:17 8.4 C 67 %
Sensor: Nr:Datum:Temp:Feuchte:
G-T/H 76 27-03-2020 12:30:17 8.4 C 67 %
77 27-03-2020 12:40:18 8.4 C 67 %
78 27-03-2020 12:50:18 8.5 C 67 %
79 27-03-2020 13:00:18 8.4 C 67 %
80 27-03-2020 13:10:18 8.5 C 67 %
81 27-03-2020 13:20:17 8.5 C 67 %
82 27-03-2020 13:30:18 8.6 C 67 %
83 27-03-2020 13:40:18 8.6 C 67 %
84 27-03-2020 13:50:18 8.6 C 67 %
85 27-03-2020 14:00:18 8.7 C 67 %
86 27-03-2020 14:10:18 8.7 C 67 %
87 27-03-2020 14:20:18 8.7 C 67 %
88 27-03-2020 14:30:17 8.8 C 67 %
89 27-03-2020 14:40:17 8.8 C 67 %
90 27-03-2020 14:50:17 8.8 C 67 %
91 27-03-2020 15:00:17 8.9 C 67 %
92 27-03-2020 15:10:17 9.4 C 64 %
93 27-03-2020 15:20:17 9.7 C 61 %
94 27-03-2020 15:30:18 9.9 C 59 %
95 27-03-2020 15:40:18 10.1 C 56 %
96 27-03-2020 15:50:17 10.2 C 55 %
97 27-03-2020 16:00:17 10.4 C 54 %
98 27-03-2020 16:10:17 10.5 C 53 %
99 27-03-2020 16:20:17 10.6 C 53 %
100 27-03-2020 16:30:17 10.7 C 52 %
Sensor: Nr:Datum:Temp:Feuchte:
G-T/H 101 27-03-2020 16:40:17 10.8 C 52 %
102 27-03-2020 16:50:17 10.9 C 51 %
103 27-03-2020 17:00:18 11 C 50 %
104 27-03-2020 17:10:18 11.1 C 50 %
105 27-03-2020 17:20:18 11.2 C 49 %
106 27-03-2020 17:30:18 11.2 C 49 %
107 27-03-2020 17:40:18 11.3 C 49 %
108 27-03-2020 17:50:18 11.4 C 48 %
109 27-03-2020 18:00:17 11.4 C 49 %
110 27-03-2020 18:10:17 11.5 C 48 %
111 27-03-2020 18:20:17 11.5 C 49 %
112 27-03-2020 18:30:18 11.4 C 49 %
113 27-03-2020 18:40:18 11.3 C 50 %
114 27-03-2020 18:50:18 11.2 C 51 %
115 27-03-2020 19:00:18 11.1 C 52 %
116 27-03-2020 19:10:18 11 C 52 %
117 27-03-2020 19:20:17 11 C 52 %
118 27-03-2020 19:30:17 10.9 C 53 %
119 27-03-2020 19:40:17 10.8 C 53 %
120 27-03-2020 19:50:17 10.6 C 53 %
121 27-03-2020 20:00:18 10.6 C 53 %
122 27-03-2020 20:10:18 10.5 C 53 %
123 27-03-2020 20:20:17 10.5 C 53 %
124 27-03-2020 20:30:17 10.4 C 53 %
125 27-03-2020 20:40:17 10.4 C 54 %
Sensor: Nr:Datum:Temp:Feuchte:
G-T/H 126 27-03-2020 20:50:18 10.4 C 54 %
127 27-03-2020 21:00:17 10.2 C 54 %
128 27-03-2020 21:10:17 10.2 C 54 %
129 27-03-2020 21:20:17 10.1 C 54 %
130 27-03-2020 21:30:17 10 C 54 %
131 27-03-2020 21:40:17 9.9 C 54 %
132 27-03-2020 21:50:17 9.8 C 54 %
133 27-03-2020 22:00:17 9.7 C 54 %
134 27-03-2020 22:10:17 9.6 C 54 %
135 27-03-2020 22:20:17 9.6 C 54 %
136 27-03-2020 22:30:18 9.5 C 54 %
137 27-03-2020 22:40:18 9.4 C 54 %
138 27-03-2020 22:50:18 9.7 C 55 %
139 27-03-2020 23:00:18 9.8 C 55 %
140 27-03-2020 23:10:18 9.9 C 56 %
141 27-03-2020 23:20:17 9.9 C 56 %
142 27-03-2020 23:30:17 9.9 C 56 %
143 27-03-2020 23:40:17 10 C 56 %
144 27-03-2020 23:50:17 10 C 56 %
145 28-03-2020 00:00:17 10 C 57 %
146 28-03-2020 00:10:17 10 C 57 %
147 28-03-2020 00:20:17 10 C 58 %
148 28-03-2020 00:30:18 10.1 C 58 %
149 28-03-2020 00:40:18 10.1 C 58 %
150 28-03-2020 00:50:17 10 C 58 %
Sensor: Nr:Datum:Temp:Feuchte:
G-T/H 151 28-03-2020 01:00:17 10.1 C 59 %
152 28-03-2020 01:10:17 10.1 C 59 %
153 28-03-2020 01:20:17 10.1 C 59 %
154 28-03-2020 01:30:17 10.1 C 59 %
155 28-03-2020 01:40:18 10.1 C 59 %
156 28-03-2020 01:50:17 10.1 C 60 %
157 28-03-2020 02:00:18 10.1 C 60 %
158 28-03-2020 02:10:18 10.1 C 60 %
159 28-03-2020 02:20:18 10 C 60 %
160 28-03-2020 02:30:17 10 C 60 %
161 28-03-2020 02:40:17 10 C 60 %
162 28-03-2020 02:50:18 10.1 C 60 %
163 28-03-2020 03:00:18 10 C 60 %
164 28-03-2020 03:10:18 10 C 60 %
165 28-03-2020 03:20:17 10 C 60 %
166 28-03-2020 03:30:18 10 C 61 %
167 28-03-2020 03:40:18 10 C 61 %
168 28-03-2020 03:50:17 10 C 61 %
169 28-03-2020 04:00:18 10 C 61 %
170 28-03-2020 04:10:18 10 C 61 %
171 28-03-2020 04:20:18 10 C 61 %
172 28-03-2020 04:30:18 10 C 61 %
173 28-03-2020 04:40:18 10 C 61 %
174 28-03-2020 04:50:17 10 C 61 %
175 28-03-2020 05:00:18 9.9 C 62 %
Sensor: Nr:Datum:Temp:Feuchte:
G-T/H 176 28-03-2020 05:10:18 9.9 C 62 %
177 28-03-2020 05:20:17 9.9 C 62 %
178 28-03-2020 05:30:18 9.9 C 62 %
179 28-03-2020 05:40:18 9.8 C 62 %
180 28-03-2020 05:50:18 9.8 C 62 %
181 28-03-2020 06:00:18 9.8 C 62 %
182 28-03-2020 06:10:18 9.8 C 62 %
183 28-03-2020 06:20:17 9.8 C 62 %
184 28-03-2020 06:30:17 9.8 C 62 %
185 28-03-2020 06:40:17 9.8 C 62 %
186 28-03-2020 06:50:17 9.8 C 62 %
187 28-03-2020 07:00:17 9.8 C 62 %
188 28-03-2020 07:10:17 9.8 C 62 %
189 28-03-2020 07:20:17 9.7 C 62 %
190 28-03-2020 07:30:18 9.7 C 62 %
191 28-03-2020 07:40:18 9.7 C 62 %
192 28-03-2020 07:50:17 9.7 C 62 %
193 28-03-2020 08:00:17 9.7 C 62 %
194 28-03-2020 08:10:18 9.7 C 63 %
195 28-03-2020 08:20:18 9.7 C 63 %
196 28-03-2020 08:30:17 9.7 C 63 %
197 28-03-2020 08:40:17 9.6 C 63 %
198 28-03-2020 08:50:18 9.7 C 63 %
199 28-03-2020 09:00:18 9.6 C 63 %
200 28-03-2020 09:10:18 9.7 C 63 %
Sensor: Nr:Datum:Temp:Feuchte:
G-T/H 201 28-03-2020 09:20:17 9.6 C 63 %
202 28-03-2020 09:30:18 9.6 C 63 %
203 28-03-2020 09:40:18 9.6 C 63 %
204 28-03-2020 09:50:18 9.6 C 63 %
205 28-03-2020 10:00:18 9.6 C 63 %
206 28-03-2020 10:10:18 9.6 C 63 %
207 28-03-2020 10:20:17 9.6 C 64 %
208 28-03-2020 10:30:17 9.6 C 64 %
209 28-03-2020 10:40:17 9.6 C 64 %
210 28-03-2020 10:50:18 9.6 C 64 %
211 28-03-2020 11:00:18 9.6 C 64 %
212 28-03-2020 11:10:18 9.6 C 64 %
213 28-03-2020 11:20:17 9.6 C 64 %
214 28-03-2020 11:30:17 9.6 C 64 %
215 28-03-2020 11:40:17 9.6 C 64 %
216 28-03-2020 11:50:18 9.6 C 64 %
217 28-03-2020 12:00:17 9.7 C 64 %
218 28-03-2020 12:10:17 9.8 C 64 %
219 28-03-2020 12:20:17 9.8 C 64 %
220 28-03-2020 12:30:17 9.8 C 64 %
221 28-03-2020 12:40:17 9.8 C 64 %
222 28-03-2020 12:50:18 9.8 C 64 %
223 28-03-2020 13:00:18 9.8 C 64 %
224 28-03-2020 13:10:18 9.9 C 64 %
225 28-03-2020 13:20:18 10.6 C 62 %
Sensor: Nr:Datum:Temp:Feuchte:
G-T/H 226 28-03-2020 13:30:17 11 C 59 %
227 28-03-2020 13:40:17 11.2 C 57 %
228 28-03-2020 13:50:18 11.4 C 56 %
229 28-03-2020 14:00:17 11.5 C 56 %
230 28-03-2020 14:10:17 11.7 C 55 %
231 28-03-2020 14:20:17 11.9 C 54 %
232 28-03-2020 14:30:17 11.9 C 53 %
233 28-03-2020 14:40:17 12.1 C 52 %
234 28-03-2020 14:50:17 12.2 C 52 %
235 28-03-2020 15:00:18 12.3 C 51 %
236 28-03-2020 15:10:18 12.4 C 49 %
237 28-03-2020 15:20:18 12.4 C 49 %
238 28-03-2020 15:30:18 11.9 C 50 %
239 28-03-2020 15:40:18 11.9 C 51 %
240 28-03-2020 15:50:18 12.1 C 50 %
241 28-03-2020 16:00:18 11.8 C 51 %
242 28-03-2020 16:10:18 11.6 C 52 %
243 28-03-2020 16:20:18 11.5 C 53 %
244 28-03-2020 16:30:18 11.4 C 54 %
245 28-03-2020 16:40:18 11.4 C 55 %
246 28-03-2020 16:50:18 11.3 C 55 %
247 28-03-2020 17:00:18 11.3 C 56 %
248 28-03-2020 17:10:18 11.3 C 56 %
249 28-03-2020 17:20:18 11.2 C 56 %
250 28-03-2020 17:30:18 11.2 C 57 %
Sensor: Nr:Datum:Temp:Feuchte:
G-T/H 251 28-03-2020 17:40:18 11.2 C 57 %
252 28-03-2020 17:50:17 11.2 C 57 %
253 28-03-2020 18:00:18 11.2 C 57 %
254 28-03-2020 18:10:18 11.2 C 57 %
255 28-03-2020 18:20:17 11.2 C 58 %
256 28-03-2020 18:30:17 11.1 C 58 %
257 28-03-2020 18:40:17 11.1 C 58 %
258 28-03-2020 18:50:18 11.1 C 58 %
259 28-03-2020 19:00:18 11.1 C 58 %
260 28-03-2020 19:10:18 11.1 C 58 %
261 28-03-2020 19:20:18 11.1 C 58 %
262 28-03-2020 19:30:18 11.1 C 58 %
263 28-03-2020 19:40:18 11.1 C 58 %
264 28-03-2020 19:50:17 11.1 C 59 %
265 28-03-2020 20:00:18 11.1 C 59 %
266 28-03-2020 20:10:18 11.1 C 59 %
267 28-03-2020 20:20:17 11.1 C 59 %
268 28-03-2020 20:30:18 11.1 C 59 %
269 28-03-2020 20:40:18 11 C 59 %
270 28-03-2020 20:50:17 11 C 59 %
271 28-03-2020 21:00:17 11.1 C 60 %
272 28-03-2020 21:10:17 11 C 60 %
273 28-03-2020 21:20:17 11 C 60 %
274 28-03-2020 21:30:17 11 C 60 %
275 28-03-2020 21:40:17 11 C 60 %
Sensor: Nr:Datum:Temp:Feuchte:
G-T/H 276 28-03-2020 21:50:17 11 C 60 %
277 28-03-2020 22:00:17 11 C 60 %
278 28-03-2020 22:10:17 11 C 60 %
279 28-03-2020 22:20:17 11 C 61 %
280 28-03-2020 22:30:17 11 C 61 %
281 28-03-2020 22:40:17 11 C 61 %
282 28-03-2020 22:50:17 11 C 61 %
283 28-03-2020 23:00:17 11 C 61 %
284 28-03-2020 23:10:17 11 C 61 %
285 28-03-2020 23:20:18 11 C 61 %
286 28-03-2020 23:30:18 10.9 C 62 %
287 28-03-2020 23:40:18 10.9 C 62 %
288 28-03-2020 23:50:17 10.9 C 62 %
289 29-03-2020 00:00:18 10.9 C 62 %
290 29-03-2020 00:10:18 10.9 C 62 %
291 29-03-2020 00:20:17 10.9 C 62 %
292 29-03-2020 00:30:17 10.9 C 62 %
293 29-03-2020 00:40:17 10.9 C 62 %
294 29-03-2020 00:50:18 10.9 C 62 %
295 29-03-2020 01:00:18 10.9 C 62 %
296 29-03-2020 01:10:18 10.9 C 62 %
297 29-03-2020 01:20:17 10.8 C 62 %
298 29-03-2020 01:30:17 10.8 C 62 %
299 29-03-2020 01:40:17 10.8 C 62 %
300 29-03-2020 01:50:17 10.8 C 62 %
Sensor: Nr:Datum:Temp:Feuchte:
G-T/H 301 29-03-2020 02:00:17 10.8 C 62 %
302 29-03-2020 02:10:17 10.8 C 62 %
303 29-03-2020 02:20:18 10.8 C 62 %
304 29-03-2020 02:30:18 10.8 C 62 %
305 29-03-2020 02:40:18 10.7 C 62 %
306 29-03-2020 02:50:18 10.7 C 62 %
307 29-03-2020 04:00:18 10.7 C 62 %
308 29-03-2020 04:10:18 10.7 C 62 %
309 29-03-2020 04:20:17 10.7 C 61 %
310 29-03-2020 04:30:17 10.6 C 61 %
311 29-03-2020 04:40:17 10.6 C 61 %
312 29-03-2020 04:50:18 10.6 C 61 %
313 29-03-2020 05:00:17 10.6 C 61 %
314 29-03-2020 05:10:17 10.5 C 60 %
315 29-03-2020 05:20:17 10.5 C 60 %
316 29-03-2020 05:30:17 10.5 C 60 %
317 29-03-2020 05:40:17 10.5 C 60 %
318 29-03-2020 05:50:18 10.5 C 60 %
319 29-03-2020 06:00:18 10.5 C 60 %
320 29-03-2020 06:10:18 10.5 C 60 %
321 29-03-2020 06:20:17 10.5 C 60 %
322 29-03-2020 06:30:18 10.4 C 60 %
323 29-03-2020 06:40:18 10.4 C 60 %
324 29-03-2020 06:50:17 10.4 C 60 %
325 29-03-2020 07:00:18 10.4 C 60 %
Sensor: Nr:Datum:Temp:Feuchte:
G-T/H 326 29-03-2020 07:10:18 10.4 C 60 %
327 29-03-2020 07:20:17 10.4 C 60 %
328 29-03-2020 07:30:17 10.4 C 60 %
329 29-03-2020 07:40:17 10.3 C 61 %
330 29-03-2020 07:50:17 10.4 C 61 %
331 29-03-2020 08:00:18 10.3 C 61 %
332 29-03-2020 08:10:18 10.3 C 61 %
333 29-03-2020 08:20:17 10.3 C 60 %
334 29-03-2020 08:30:17 10.2 C 60 %
335 29-03-2020 08:40:17 10.2 C 60 %
336 29-03-2020 08:50:17 10.2 C 60 %
337 29-03-2020 09:00:17 10.2 C 60 %
338 29-03-2020 09:10:17 10.2 C 60 %
339 29-03-2020 09:20:17 10.2 C 60 %
340 29-03-2020 09:30:17 10.2 C 60 %
341 29-03-2020 09:40:17 10.2 C 60 %
342 29-03-2020 09:50:17 10.2 C 60 %
343 29-03-2020 10:00:17 10.1 C 60 %
344 29-03-2020 10:10:17 10.1 C 60 %
345 29-03-2020 10:20:17 10.1 C 60 %
346 29-03-2020 10:30:18 10.1 C 60 %
347 29-03-2020 10:40:18 10.1 C 60 %
348 29-03-2020 10:50:17 10.1 C 60 %
349 29-03-2020 11:00:18 10.1 C 60 %
350 29-03-2020 11:10:18 10.1 C 60 %
Sensor: Nr:Datum:Temp:Feuchte:
G-T/H 351 29-03-2020 11:20:18 10 C 60 %
352 29-03-2020 11:30:18 10 C 60 %
353 29-03-2020 11:40:18 10 C 60 %
354 29-03-2020 11:50:17 10 C 60 %
355 29-03-2020 12:00:17 10 C 60 %
356 29-03-2020 12:10:17 10 C 60 %
357 29-03-2020 12:20:17 10 C 60 %
358 29-03-2020 12:30:17 10 C 60 %
359 29-03-2020 12:40:17 10 C 60 %
360 29-03-2020 12:50:18 10 C 59 %
361 29-03-2020 13:00:18 10 C 59 %
362 29-03-2020 13:10:18 9.9 C 60 %
363 29-03-2020 13:20:17 9.9 C 60 %
364 29-03-2020 13:30:17 9.9 C 60 %
365 29-03-2020 13:40:18 9.9 C 60 %
366 29-03-2020 13:50:17 9.9 C 60 %
367 29-03-2020 14:00:18 9.9 C 60 %
368 29-03-2020 14:10:18 9.9 C 60 %
369 29-03-2020 14:20:17 9.9 C 60 %
370 29-03-2020 14:30:17 9.9 C 60 %
371 29-03-2020 14:40:17 9.9 C 60 %
372 29-03-2020 14:50:17 9.9 C 60 %
373 29-03-2020 15:00:17 9.9 C 60 %
374 29-03-2020 15:10:17 9.9 C 60 %
375 29-03-2020 15:20:17 9.9 C 60 %
Sensor: Nr:Datum:Temp:Feuchte:
G-T/H 376 29-03-2020 15:30:18 9.9 C 60 %
377 29-03-2020 15:40:18 9.9 C 60 %
378 29-03-2020 15:50:17 9.9 C 60 %
379 29-03-2020 16:00:18 9.9 C 60 %
380 29-03-2020 16:10:18 9.9 C 60 %
381 29-03-2020 16:20:17 9.9 C 60 %
382 29-03-2020 16:30:18 9.9 C 60 %
383 29-03-2020 16:40:18 9.9 C 60 %
384 29-03-2020 16:50:18 9.9 C 60 %
385 29-03-2020 17:00:18 9.9 C 60 %
386 29-03-2020 17:10:18 9.9 C 60 %
387 29-03-2020 17:20:17 9.9 C 60 %
388 29-03-2020 17:30:17 9.9 C 60 %
389 29-03-2020 17:40:17 9.9 C 60 %
390 29-03-2020 17:50:18 9.9 C 60 %
391 29-03-2020 18:00:18 9.9 C 60 %
392 29-03-2020 18:10:18 9.9 C 60 %
393 29-03-2020 18:20:18 9.9 C 60 %
394 29-03-2020 18:30:18 9.9 C 60 %
395 29-03-2020 18:40:18 9.9 C 60 %
396 29-03-2020 18:50:18 9.9 C 60 %
397 29-03-2020 19:00:18 9.9 C 60 %
398 29-03-2020 19:10:18 9.9 C 60 %
399 29-03-2020 19:20:17 9.9 C 60 %
400 29-03-2020 19:30:17 9.9 C 60 %
Sensor: Nr:Datum:Temp:Feuchte:
G-T/H 401 29-03-2020 19:40:17 9.9 C 60 %
402 29-03-2020 19:50:17 9.9 C 60 %
403 29-03-2020 20:00:17 9.8 C 60 %
404 29-03-2020 20:10:17 9.8 C 61 %
405 29-03-2020 20:20:18 9.8 C 61 %
406 29-03-2020 20:30:18 9.8 C 61 %
407 29-03-2020 20:40:18 9.8 C 61 %
408 29-03-2020 20:50:18 9.8 C 61 %
409 29-03-2020 21:00:18 9.8 C 61 %
410 29-03-2020 21:10:18 9.8 C 61 %
411 29-03-2020 21:20:18 9.8 C 61 %
412 29-03-2020 21:30:17 9.8 C 61 %
413 29-03-2020 21:40:17 9.8 C 62 %
414 29-03-2020 21:50:17 9.8 C 62 %
415 29-03-2020 22:00:17 9.8 C 62 %
416 29-03-2020 22:10:17 9.8 C 62 %
417 29-03-2020 22:20:18 9.8 C 61 %
418 29-03-2020 22:30:18 9.7 C 61 %
419 29-03-2020 22:40:18 9.7 C 61 %
420 29-03-2020 22:50:18 9.7 C 61 %
421 29-03-2020 23:00:18 9.7 C 61 %
422 29-03-2020 23:10:18 9.7 C 61 %
423 29-03-2020 23:20:17 9.7 C 61 %
424 29-03-2020 23:30:17 9.7 C 61 %
425 29-03-2020 23:40:17 9.6 C 61 %
Sensor: Nr:Datum:Temp:Feuchte:
G-T/H 426 29-03-2020 23:50:17 9.6 C 61 %
427 30-03-2020 00:00:18 9.6 C 61 %
428 30-03-2020 00:10:18 9.6 C 60 %
429 30-03-2020 00:20:17 9.6 C 60 %
430 30-03-2020 00:30:17 9.6 C 60 %
431 30-03-2020 00:40:17 9.6 C 60 %
432 30-03-2020 00:50:17 9.5 C 60 %
433 30-03-2020 01:00:18 9.5 C 60 %
434 30-03-2020 01:10:18 9.5 C 61 %
435 30-03-2020 01:20:17 9.5 C 61 %
436 30-03-2020 01:30:18 9.5 C 61 %
437 30-03-2020 01:40:18 9.5 C 61 %
438 30-03-2020 01:50:17 9.4 C 61 %
439 30-03-2020 02:00:17 9.4 C 61 %
440 30-03-2020 02:10:17 9.4 C 61 %
441 30-03-2020 02:20:17 9.4 C 61 %
442 30-03-2020 02:30:18 9.4 C 61 %
443 30-03-2020 02:40:18 9.3 C 61 %
444 30-03-2020 02:50:17 9.3 C 61 %
445 30-03-2020 03:00:18 9.3 C 61 %
446 30-03-2020 03:10:18 9.3 C 61 %
447 30-03-2020 03:20:18 9.3 C 61 %
448 30-03-2020 03:30:18 9.3 C 61 %
449 30-03-2020 03:40:18 9.2 C 61 %
450 30-03-2020 03:50:17 9.2 C 61 %
Sensor: Nr:Datum:Temp:Feuchte:
G-T/H 451 30-03-2020 04:00:18 9.2 C 61 %
452 30-03-2020 04:10:18 9.1 C 61 %
453 30-03-2020 04:20:17 9.2 C 60 %
454 30-03-2020 04:30:17 9.2 C 60 %
455 30-03-2020 04:40:17 9.1 C 60 %
456 30-03-2020 04:50:17 9.1 C 60 %
457 30-03-2020 05:00:17 9 C 60 %
458 30-03-2020 05:10:17 9 C 60 %
459 30-03-2020 05:20:17 9 C 60 %
460 30-03-2020 05:30:18 9 C 60 %
461 30-03-2020 05:40:18 9 C 60 %
462 30-03-2020 05:50:17 9 C 60 %
463 30-03-2020 06:00:18 8.9 C 61 %
464 30-03-2020 06:10:18 8.9 C 61 %
465 30-03-2020 06:20:17 8.9 C 61 %
466 30-03-2020 06:30:17 8.8 C 61 %
467 30-03-2020 06:40:17 8.9 C 61 %
468 30-03-2020 06:50:17 8.8 C 61 %
469 30-03-2020 07:00:17 8.7 C 61 %
470 30-03-2020 07:10:17 8.7 C 61 %
471 30-03-2020 07:20:17 8.7 C 61 %
472 30-03-2020 07:30:18 8.7 C 60 %
473 30-03-2020 07:40:18 8.7 C 60 %
474 30-03-2020 07:50:17 8.7 C 60 %
475 30-03-2020 08:00:18 8.6 C 60 %
Sensor: Nr:Datum:Temp:Feuchte:
G-T/H 476 30-03-2020 08:10:18 8.6 C 60 %
477 30-03-2020 08:20:18 8.6 C 60 %
478 30-03-2020 08:30:18 8.5 C 60 %
479 30-03-2020 08:40:18 8.5 C 60 %
480 30-03-2020 08:50:17 8.5 C 60 %
481 30-03-2020 09:00:18 8.5 C 60 %
482 30-03-2020 09:10:18 8.5 C 60 %
483 30-03-2020 09:20:18 8.5 C 60 %
484 30-03-2020 09:30:18 8.5 C 60 %
485 30-03-2020 09:40:18 8.4 C 60 %
486 30-03-2020 09:50:18 8.4 C 60 %
487 30-03-2020 10:00:18 8.4 C